<?xml version="1.0" encoding="UTF-8" standalone="no" ?>
<gpx xmlns="http://www.topografix.com/GPX/1/1" xmlns:xsi="http://www.w3.org/2001/XMLSchema-instance" xsi:schemaLocation="http://www.topografix.com/GPX/1/1 http://www.topografix.com/GPX/1/1/gpx.xsd" version="1.1" creator="VisuGPX - https://www.visugpx.com">
  <metadata>
    <name>Wintertrail 28km</name>
    <desc><![CDATA[es dossards sont à retirer à la salle des fêtes de Saint-Pierre-de-Chartreuse le samedi de 14h à 18h ou le dimanche à partir de 7h et au plus tard 30min avant le départ de la course.

Départ en masse à 8h devant le bâtiment RAIDLIGHT-VERTICAL de Saint-Pierre-de-Chartreuse. L’arrivée se fait au même endroit.

Remise des prix à partir de 11h30 le dimanche 04 à la salle des fêtes de Saint-Pierre-de-Chartreuse.

Ravitaillements :
Un premier ravitaillement est situé au 15ème kilomètre, puis un deuxième au 20ème.
Ravitaillement à l’arrivée.]]></desc>
  </metadata>
  <trk>
    <name><![CDATA[winter-trail-28-km]]></name>
    <desc><![CDATA[winter-trail-28-km]]></desc>
    <trkseg>
      <trkpt lat="45.34132" lon="5.81715">
        <ele>896</ele>
        <time>2018-01-22T18:26:29.000Z</time>
      </trkpt>
      <trkpt lat="45.34102" lon="5.81806">
        <ele>881</ele>
        <time>2018-01-22T18:26:30.000Z</time>
      </trkpt>
      <trkpt lat="45.34102" lon="5.81806">
        <ele>881</ele>
        <time>2018-01-22T18:26:31.000Z</time>
      </trkpt>
      <trkpt lat="45.34102" lon="5.81806">
        <ele>881</ele>
        <time>2018-01-22T18:26:32.000Z</time>
      </trkpt>
      <trkpt lat="45.3409" lon="5.81914">
        <ele>884</ele>
        <time>2018-01-22T18:26:33.000Z</time>
      </trkpt>
      <trkpt lat="45.3409" lon="5.81914">
        <ele>884</ele>
        <time>2018-01-22T18:26:34.000Z</time>
      </trkpt>
      <trkpt lat="45.3409" lon="5.81914">
        <ele>884</ele>
        <time>2018-01-22T18:26:35.000Z</time>
      </trkpt>
      <trkpt lat="45.3409" lon="5.81914">
        <ele>884</ele>
        <time>2018-01-22T18:26:36.000Z</time>
      </trkpt>
      <trkpt lat="45.34056" lon="5.82007">
        <ele>897</ele>
        <time>2018-01-22T18:26:37.000Z</time>
      </trkpt>
      <trkpt lat="45.34056" lon="5.82007">
        <ele>897</ele>
        <time>2018-01-22T18:26:38.000Z</time>
      </trkpt>
      <trkpt lat="45.34056" lon="5.82007">
        <ele>897</ele>
        <time>2018-01-22T18:26:39.000Z</time>
      </trkpt>
      <trkpt lat="45.34056" lon="5.82007">
        <ele>897</ele>
        <time>2018-01-22T18:26:40.000Z</time>
      </trkpt>
      <trkpt lat="45.34029" lon="5.82038">
        <ele>873</ele>
        <time>2018-01-22T18:26:41.000Z</time>
      </trkpt>
      <trkpt lat="45.34029" lon="5.82038">
        <ele>873</ele>
        <time>2018-01-22T18:26:42.000Z</time>
      </trkpt>
      <trkpt lat="45.34029" lon="5.82038">
        <ele>873</ele>
        <time>2018-01-22T18:26:43.000Z</time>
      </trkpt>
      <trkpt lat="45.34029" lon="5.82038">
        <ele>873</ele>
        <time>2018-01-22T18:26:44.000Z</time>
      </trkpt>
      <trkpt lat="45.33989" lon="5.8213">
        <ele>903</ele>
        <time>2018-01-22T18:26:45.000Z</time>
      </trkpt>
      <trkpt lat="45.33989" lon="5.8213">
        <ele>903</ele>
        <time>2018-01-22T18:26:46.000Z</time>
      </trkpt>
      <trkpt lat="45.33989" lon="5.8213">
        <ele>903</ele>
        <time>2018-01-22T18:26:47.000Z</time>
      </trkpt>
      <trkpt lat="45.33989" lon="5.8213">
        <ele>903</ele>
        <time>2018-01-22T18:26:48.000Z</time>
      </trkpt>
      <trkpt lat="45.33973" lon="5.82146">
        <ele>903</ele>
        <time>2018-01-22T18:26:49.000Z</time>
      </trkpt>
      <trkpt lat="45.33973" lon="5.82146">
        <ele>903</ele>
        <time>2018-01-22T18:26:50.000Z</time>
      </trkpt>
      <trkpt lat="45.33973" lon="5.82146">
        <ele>903</ele>
        <time>2018-01-22T18:26:51.000Z</time>
      </trkpt>
      <trkpt lat="45.33973" lon="5.82146">
        <ele>903</ele>
        <time>2018-01-22T18:26:52.000Z</time>
      </trkpt>
      <trkpt lat="45.33936" lon="5.82223">
        <ele>900</ele>
        <time>2018-01-22T18:26:53.000Z</time>
      </trkpt>
      <trkpt lat="45.33936" lon="5.82223">
        <ele>900</ele>
        <time>2018-01-22T18:26:54.000Z</time>
      </trkpt>
      <trkpt lat="45.33936" lon="5.82223">
        <ele>900</ele>
        <time>2018-01-22T18:26:55.000Z</time>
      </trkpt>
      <trkpt lat="45.33936" lon="5.82223">
        <ele>900</ele>
        <time>2018-01-22T18:26:56.000Z</time>
      </trkpt>
      <trkpt lat="45.33883" lon="5.82266">
        <ele>900</ele>
        <time>2018-01-22T18:26:57.000Z</time>
      </trkpt>
      <trkpt lat="45.33883" lon="5.82266">
        <ele>900</ele>
        <time>2018-01-22T18:26:58.000Z</time>
      </trkpt>
      <trkpt lat="45.33883" lon="5.82266">
        <ele>900</ele>
        <time>2018-01-22T18:26:59.000Z</time>
      </trkpt>
      <trkpt lat="45.33883" lon="5.82266">
        <ele>900</ele>
        <time>2018-01-22T18:27:00.000Z</time>
      </trkpt>
      <trkpt lat="45.33846" lon="5.82352">
        <ele>904</ele>
        <time>2018-01-22T18:27:01.000Z</time>
      </trkpt>
      <trkpt lat="45.33846" lon="5.82352">
        <ele>904</ele>
        <time>2018-01-22T18:27:02.000Z</time>
      </trkpt>
      <trkpt lat="45.33846" lon="5.82352">
        <ele>904</ele>
        <time>2018-01-22T18:27:03.000Z</time>
      </trkpt>
      <trkpt lat="45.33846" lon="5.82352">
        <ele>904</ele>
        <time>2018-01-22T18:27:04.000Z</time>
      </trkpt>
      <trkpt lat="45.33828" lon="5.82478">
        <ele>939</ele>
        <time>2018-01-22T18:27:05.000Z</time>
      </trkpt>
      <trkpt lat="45.33828" lon="5.82478">
        <ele>939</ele>
        <time>2018-01-22T18:27:06.000Z</time>
      </trkpt>
      <trkpt lat="45.33828" lon="5.82478">
        <ele>939</ele>
        <time>2018-01-22T18:27:07.000Z</time>
      </trkpt>
      <trkpt lat="45.33828" lon="5.82478">
        <ele>939</ele>
        <time>2018-01-22T18:27:08.000Z</time>
      </trkpt>
      <trkpt lat="45.33808" lon="5.82528">
        <ele>939</ele>
        <time>2018-01-22T18:27:09.000Z</time>
      </trkpt>
      <trkpt lat="45.33808" lon="5.82528">
        <ele>939</ele>
        <time>2018-01-22T18:27:10.000Z</time>
      </trkpt>
      <trkpt lat="45.33808" lon="5.82528">
        <ele>939</ele>
        <time>2018-01-22T18:27:11.000Z</time>
      </trkpt>
      <trkpt lat="45.33808" lon="5.82528">
        <ele>939</ele>
        <time>2018-01-22T18:27:12.000Z</time>
      </trkpt>
      <trkpt lat="45.33801" lon="5.82691">
        <ele>949</ele>
        <time>2018-01-22T18:27:13.000Z</time>
      </trkpt>
      <trkpt lat="45.33801" lon="5.82691">
        <ele>949</ele>
        <time>2018-01-22T18:27:14.000Z</time>
      </trkpt>
      <trkpt lat="45.33801" lon="5.82691">
        <ele>949</ele>
        <time>2018-01-22T18:27:15.000Z</time>
      </trkpt>
      <trkpt lat="45.33801" lon="5.82691">
        <ele>949</ele>
        <time>2018-01-22T18:27:16.000Z</time>
      </trkpt>
      <trkpt lat="45.33772" lon="5.82827">
        <ele>933</ele>
        <time>2018-01-22T18:27:17.000Z</time>
      </trkpt>
      <trkpt lat="45.33772" lon="5.82827">
        <ele>933</ele>
        <time>2018-01-22T18:27:18.000Z</time>
      </trkpt>
      <trkpt lat="45.33772" lon="5.82827">
        <ele>933</ele>
        <time>2018-01-22T18:27:19.000Z</time>
      </trkpt>
      <trkpt lat="45.33772" lon="5.82827">
        <ele>933</ele>
        <time>2018-01-22T18:27:20.000Z</time>
      </trkpt>
      <trkpt lat="45.3375" lon="5.82849">
        <ele>933</ele>
        <time>2018-01-22T18:27:21.000Z</time>
      </trkpt>
      <trkpt lat="45.3375" lon="5.82849">
        <ele>933</ele>
        <time>2018-01-22T18:27:22.000Z</time>
      </trkpt>
      <trkpt lat="45.3375" lon="5.82849">
        <ele>933</ele>
        <time>2018-01-22T18:27:23.000Z</time>
      </trkpt>
      <trkpt lat="45.3375" lon="5.82849">
        <ele>933</ele>
        <time>2018-01-22T18:27:24.000Z</time>
      </trkpt>
      <trkpt lat="45.33736" lon="5.82834">
        <ele>933</ele>
        <time>2018-01-22T18:27:25.000Z</time>
      </trkpt>
      <trkpt lat="45.33736" lon="5.82834">
        <ele>933</ele>
        <time>2018-01-22T18:27:26.000Z</time>
      </trkpt>
      <trkpt lat="45.33736" lon="5.82834">
        <ele>933</ele>
        <time>2018-01-22T18:27:27.000Z</time>
      </trkpt>
      <trkpt lat="45.33736" lon="5.82834">
        <ele>933</ele>
        <time>2018-01-22T18:27:28.000Z</time>
      </trkpt>
      <trkpt lat="45.3375" lon="5.82726">
        <ele>935</ele>
        <time>2018-01-22T18:27:29.000Z</time>
      </trkpt>
      <trkpt lat="45.3375" lon="5.82726">
        <ele>935</ele>
        <time>2018-01-22T18:27:30.000Z</time>
      </trkpt>
      <trkpt lat="45.3375" lon="5.82726">
        <ele>935</ele>
        <time>2018-01-22T18:27:31.000Z</time>
      </trkpt>
      <trkpt lat="45.3375" lon="5.82726">
        <ele>935</ele>
        <time>2018-01-22T18:27:32.000Z</time>
      </trkpt>
      <trkpt lat="45.33738" lon="5.82695">
        <ele>939</ele>
        <time>2018-01-22T18:27:33.000Z</time>
      </trkpt>
      <trkpt lat="45.33738" lon="5.82695">
        <ele>939</ele>
        <time>2018-01-22T18:27:34.000Z</time>
      </trkpt>
      <trkpt lat="45.33738" lon="5.82695">
        <ele>939</ele>
        <time>2018-01-22T18:27:35.000Z</time>
      </trkpt>
      <trkpt lat="45.33738" lon="5.82695">
        <ele>939</ele>
        <time>2018-01-22T18:27:36.000Z</time>
      </trkpt>
      <trkpt lat="45.33747" lon="5.82539">
        <ele>949</ele>
        <time>2018-01-22T18:27:37.000Z</time>
      </trkpt>
      <trkpt lat="45.33747" lon="5.82539">
        <ele>949</ele>
        <time>2018-01-22T18:27:38.000Z</time>
      </trkpt>
      <trkpt lat="45.33747" lon="5.82539">
        <ele>949</ele>
        <time>2018-01-22T18:27:39.000Z</time>
      </trkpt>
      <trkpt lat="45.33747" lon="5.82539">
        <ele>949</ele>
        <time>2018-01-22T18:27:40.000Z</time>
      </trkpt>
      <trkpt lat="45.33751" lon="5.82325">
        <ele>949</ele>
        <time>2018-01-22T18:27:41.000Z</time>
      </trkpt>
      <trkpt lat="45.33751" lon="5.82325">
        <ele>949</ele>
        <time>2018-01-22T18:27:42.000Z</time>
      </trkpt>
      <trkpt lat="45.33751" lon="5.82325">
        <ele>949</ele>
        <time>2018-01-22T18:27:43.000Z</time>
      </trkpt>
      <trkpt lat="45.33751" lon="5.82325">
        <ele>949</ele>
        <time>2018-01-22T18:27:44.000Z</time>
      </trkpt>
      <trkpt lat="45.33747" lon="5.82277">
        <ele>951</ele>
        <time>2018-01-22T18:27:45.000Z</time>
      </trkpt>
      <trkpt lat="45.33747" lon="5.82277">
        <ele>951</ele>
        <time>2018-01-22T18:27:46.000Z</time>
      </trkpt>
      <trkpt lat="45.33747" lon="5.82277">
        <ele>951</ele>
        <time>2018-01-22T18:27:47.000Z</time>
      </trkpt>
      <trkpt lat="45.33747" lon="5.82277">
        <ele>951</ele>
        <time>2018-01-22T18:27:48.000Z</time>
      </trkpt>
      <trkpt lat="45.33768" lon="5.82139">
        <ele>961</ele>
        <time>2018-01-22T18:27:49.000Z</time>
      </trkpt>
      <trkpt lat="45.33768" lon="5.82139">
        <ele>961</ele>
        <time>2018-01-22T18:27:50.000Z</time>
      </trkpt>
      <trkpt lat="45.33768" lon="5.82139">
        <ele>961</ele>
        <time>2018-01-22T18:27:51.000Z</time>
      </trkpt>
      <trkpt lat="45.33768" lon="5.82139">
        <ele>961</ele>
        <time>2018-01-22T18:27:52.000Z</time>
      </trkpt>
      <trkpt lat="45.33769" lon="5.82086">
        <ele>962</ele>
        <time>2018-01-22T18:27:53.000Z</time>
      </trkpt>
      <trkpt lat="45.33769" lon="5.82086">
        <ele>962</ele>
        <time>2018-01-22T18:27:54.000Z</time>
      </trkpt>
      <trkpt lat="45.33769" lon="5.82086">
        <ele>962</ele>
        <time>2018-01-22T18:27:55.000Z</time>
      </trkpt>
      <trkpt lat="45.33769" lon="5.82086">
        <ele>962</ele>
        <time>2018-01-22T18:27:56.000Z</time>
      </trkpt>
      <trkpt lat="45.33731" lon="5.82095">
        <ele>962</ele>
        <time>2018-01-22T18:27:57.000Z</time>
      </trkpt>
      <trkpt lat="45.33731" lon="5.82095">
        <ele>962</ele>
        <time>2018-01-22T18:27:58.000Z</time>
      </trkpt>
      <trkpt lat="45.33731" lon="5.82095">
        <ele>962</ele>
        <time>2018-01-22T18:27:59.000Z</time>
      </trkpt>
      <trkpt lat="45.33731" lon="5.82095">
        <ele>962</ele>
        <time>2018-01-22T18:28:00.000Z</time>
      </trkpt>
      <trkpt lat="45.33696" lon="5.8222">
        <ele>987</ele>
        <time>2018-01-22T18:28:01.000Z</time>
      </trkpt>
      <trkpt lat="45.33696" lon="5.8222">
        <ele>987</ele>
        <time>2018-01-22T18:28:02.000Z</time>
      </trkpt>
      <trkpt lat="45.33696" lon="5.8222">
        <ele>987</ele>
        <time>2018-01-22T18:28:03.000Z</time>
      </trkpt>
      <trkpt lat="45.33696" lon="5.8222">
        <ele>987</ele>
        <time>2018-01-22T18:28:04.000Z</time>
      </trkpt>
      <trkpt lat="45.33686" lon="5.82225">
        <ele>987</ele>
        <time>2018-01-22T18:28:05.000Z</time>
      </trkpt>
      <trkpt lat="45.33686" lon="5.82225">
        <ele>987</ele>
        <time>2018-01-22T18:28:06.000Z</time>
      </trkpt>
      <trkpt lat="45.33686" lon="5.82225">
        <ele>987</ele>
        <time>2018-01-22T18:28:07.000Z</time>
      </trkpt>
      <trkpt lat="45.33686" lon="5.82225">
        <ele>987</ele>
        <time>2018-01-22T18:28:08.000Z</time>
      </trkpt>
      <trkpt lat="45.3366" lon="5.82126">
        <ele>994</ele>
        <time>2018-01-22T18:28:09.000Z</time>
      </trkpt>
      <trkpt lat="45.3366" lon="5.82126">
        <ele>994</ele>
        <time>2018-01-22T18:28:10.000Z</time>
      </trkpt>
      <trkpt lat="45.3366" lon="5.82126">
        <ele>994</ele>
        <time>2018-01-22T18:28:11.000Z</time>
      </trkpt>
      <trkpt lat="45.3366" lon="5.82126">
        <ele>994</ele>
        <time>2018-01-22T18:28:12.000Z</time>
      </trkpt>
      <trkpt lat="45.33586" lon="5.81994">
        <ele>1021</ele>
        <time>2018-01-22T18:28:13.000Z</time>
      </trkpt>
      <trkpt lat="45.33586" lon="5.81994">
        <ele>1021</ele>
        <time>2018-01-22T18:28:14.000Z</time>
      </trkpt>
      <trkpt lat="45.33586" lon="5.81994">
        <ele>1021</ele>
        <time>2018-01-22T18:28:15.000Z</time>
      </trkpt>
      <trkpt lat="45.33586" lon="5.81994">
        <ele>1021</ele>
        <time>2018-01-22T18:28:16.000Z</time>
      </trkpt>
      <trkpt lat="45.33588" lon="5.81895">
        <ele>1011</ele>
        <time>2018-01-22T18:28:17.000Z</time>
      </trkpt>
      <trkpt lat="45.33588" lon="5.81895">
        <ele>1011</ele>
        <time>2018-01-22T18:28:18.000Z</time>
      </trkpt>
      <trkpt lat="45.33588" lon="5.81895">
        <ele>1011</ele>
        <time>2018-01-22T18:28:19.000Z</time>
      </trkpt>
      <trkpt lat="45.33588" lon="5.81895">
        <ele>1011</ele>
        <time>2018-01-22T18:28:20.000Z</time>
      </trkpt>
      <trkpt lat="45.33532" lon="5.8187">
        <ele>1039</ele>
        <time>2018-01-22T18:28:21.000Z</time>
      </trkpt>
      <trkpt lat="45.33532" lon="5.8187">
        <ele>1039</ele>
        <time>2018-01-22T18:28:22.000Z</time>
      </trkpt>
      <trkpt lat="45.33532" lon="5.8187">
        <ele>1039</ele>
        <time>2018-01-22T18:28:23.000Z</time>
      </trkpt>
      <trkpt lat="45.33532" lon="5.8187">
        <ele>1039</ele>
        <time>2018-01-22T18:28:24.000Z</time>
      </trkpt>
      <trkpt lat="45.33525" lon="5.81885">
        <ele>1062</ele>
        <time>2018-01-22T18:28:25.000Z</time>
      </trkpt>
      <trkpt lat="45.33525" lon="5.81885">
        <ele>1062</ele>
        <time>2018-01-22T18:28:26.000Z</time>
      </trkpt>
      <trkpt lat="45.33525" lon="5.81885">
        <ele>1062</ele>
        <time>2018-01-22T18:28:27.000Z</time>
      </trkpt>
      <trkpt lat="45.33525" lon="5.81885">
        <ele>1062</ele>
        <time>2018-01-22T18:28:28.000Z</time>
      </trkpt>
      <trkpt lat="45.33512" lon="5.81878">
        <ele>1062</ele>
        <time>2018-01-22T18:28:29.000Z</time>
      </trkpt>
      <trkpt lat="45.33512" lon="5.81878">
        <ele>1062</ele>
        <time>2018-01-22T18:28:30.000Z</time>
      </trkpt>
      <trkpt lat="45.33512" lon="5.81878">
        <ele>1062</ele>
        <time>2018-01-22T18:28:31.000Z</time>
      </trkpt>
      <trkpt lat="45.33512" lon="5.81878">
        <ele>1062</ele>
        <time>2018-01-22T18:28:32.000Z</time>
      </trkpt>
      <trkpt lat="45.33505" lon="5.8189">
        <ele>1062</ele>
        <time>2018-01-22T18:28:33.000Z</time>
      </trkpt>
      <trkpt lat="45.33505" lon="5.8189">
        <ele>1062</ele>
        <time>2018-01-22T18:28:34.000Z</time>
      </trkpt>
      <trkpt lat="45.33505" lon="5.8189">
        <ele>1062</ele>
        <time>2018-01-22T18:28:35.000Z</time>
      </trkpt>
      <trkpt lat="45.33505" lon="5.8189">
        <ele>1062</ele>
        <time>2018-01-22T18:28:36.000Z</time>
      </trkpt>
      <trkpt lat="45.33497" lon="5.81878">
        <ele>1062</ele>
        <time>2018-01-22T18:28:37.000Z</time>
      </trkpt>
      <trkpt lat="45.33497" lon="5.81878">
        <ele>1062</ele>
        <time>2018-01-22T18:28:38.000Z</time>
      </trkpt>
      <trkpt lat="45.33497" lon="5.81878">
        <ele>1062</ele>
        <time>2018-01-22T18:28:39.000Z</time>
      </trkpt>
      <trkpt lat="45.33497" lon="5.81878">
        <ele>1062</ele>
        <time>2018-01-22T18:28:40.000Z</time>
      </trkpt>
      <trkpt lat="45.33489" lon="5.81895">
        <ele>1062</ele>
        <time>2018-01-22T18:28:41.000Z</time>
      </trkpt>
      <trkpt lat="45.33489" lon="5.81895">
        <ele>1062</ele>
        <time>2018-01-22T18:28:42.000Z</time>
      </trkpt>
      <trkpt lat="45.33489" lon="5.81895">
        <ele>1062</ele>
        <time>2018-01-22T18:28:43.000Z</time>
      </trkpt>
      <trkpt lat="45.33489" lon="5.81895">
        <ele>1062</ele>
        <time>2018-01-22T18:28:44.000Z</time>
      </trkpt>
      <trkpt lat="45.33475" lon="5.81888">
        <ele>1062</ele>
        <time>2018-01-22T18:28:45.000Z</time>
      </trkpt>
      <trkpt lat="45.33475" lon="5.81888">
        <ele>1062</ele>
        <time>2018-01-22T18:28:46.000Z</time>
      </trkpt>
      <trkpt lat="45.33475" lon="5.81888">
        <ele>1062</ele>
        <time>2018-01-22T18:28:47.000Z</time>
      </trkpt>
      <trkpt lat="45.33475" lon="5.81888">
        <ele>1062</ele>
        <time>2018-01-22T18:28:48.000Z</time>
      </trkpt>
      <trkpt lat="45.33464" lon="5.819">
        <ele>1062</ele>
        <time>2018-01-22T18:28:49.000Z</time>
      </trkpt>
      <trkpt lat="45.33464" lon="5.819">
        <ele>1062</ele>
        <time>2018-01-22T18:28:50.000Z</time>
      </trkpt>
      <trkpt lat="45.33464" lon="5.819">
        <ele>1062</ele>
        <time>2018-01-22T18:28:51.000Z</time>
      </trkpt>
      <trkpt lat="45.33464" lon="5.819">
        <ele>1062</ele>
        <time>2018-01-22T18:28:52.000Z</time>
      </trkpt>
      <trkpt lat="45.33413" lon="5.81784">
        <ele>1051</ele>
        <time>2018-01-22T18:28:53.000Z</time>
      </trkpt>
      <trkpt lat="45.33413" lon="5.81784">
        <ele>1051</ele>
        <time>2018-01-22T18:28:54.000Z</time>
      </trkpt>
      <trkpt lat="45.33413" lon="5.81784">
        <ele>1051</ele>
        <time>2018-01-22T18:28:55.000Z</time>
      </trkpt>
      <trkpt lat="45.33413" lon="5.81784">
        <ele>1051</ele>
        <time>2018-01-22T18:28:56.000Z</time>
      </trkpt>
      <trkpt lat="45.33293" lon="5.81631">
        <ele>1053</ele>
        <time>2018-01-22T18:28:57.000Z</time>
      </trkpt>
      <trkpt lat="45.33293" lon="5.81631">
        <ele>1053</ele>
        <time>2018-01-22T18:28:58.000Z</time>
      </trkpt>
      <trkpt lat="45.33293" lon="5.81631">
        <ele>1053</ele>
        <time>2018-01-22T18:28:59.000Z</time>
      </trkpt>
      <trkpt lat="45.33293" lon="5.81631">
        <ele>1053</ele>
        <time>2018-01-22T18:29:00.000Z</time>
      </trkpt>
      <trkpt lat="45.33203" lon="5.81563">
        <ele>1063</ele>
        <time>2018-01-22T18:29:01.000Z</time>
      </trkpt>
      <trkpt lat="45.33203" lon="5.81563">
        <ele>1063</ele>
        <time>2018-01-22T18:29:02.000Z</time>
      </trkpt>
      <trkpt lat="45.33203" lon="5.81563">
        <ele>1063</ele>
        <time>2018-01-22T18:29:03.000Z</time>
      </trkpt>
      <trkpt lat="45.33203" lon="5.81563">
        <ele>1063</ele>
        <time>2018-01-22T18:29:04.000Z</time>
      </trkpt>
      <trkpt lat="45.33106" lon="5.81548">
        <ele>1069</ele>
        <time>2018-01-22T18:29:05.000Z</time>
      </trkpt>
      <trkpt lat="45.33106" lon="5.81548">
        <ele>1069</ele>
        <time>2018-01-22T18:29:06.000Z</time>
      </trkpt>
      <trkpt lat="45.33106" lon="5.81548">
        <ele>1069</ele>
        <time>2018-01-22T18:29:07.000Z</time>
      </trkpt>
      <trkpt lat="45.33106" lon="5.81548">
        <ele>1069</ele>
        <time>2018-01-22T18:29:08.000Z</time>
      </trkpt>
      <trkpt lat="45.33023" lon="5.8155">
        <ele>1078</ele>
        <time>2018-01-22T18:29:09.000Z</time>
      </trkpt>
      <trkpt lat="45.33023" lon="5.8155">
        <ele>1078</ele>
        <time>2018-01-22T18:29:10.000Z</time>
      </trkpt>
      <trkpt lat="45.33023" lon="5.8155">
        <ele>1078</ele>
        <time>2018-01-22T18:29:11.000Z</time>
      </trkpt>
      <trkpt lat="45.33023" lon="5.8155">
        <ele>1078</ele>
        <time>2018-01-22T18:29:12.000Z</time>
      </trkpt>
      <trkpt lat="45.32961" lon="5.81537">
        <ele>1040</ele>
        <time>2018-01-22T18:29:13.000Z</time>
      </trkpt>
      <trkpt lat="45.32961" lon="5.81537">
        <ele>1040</ele>
        <time>2018-01-22T18:29:14.000Z</time>
      </trkpt>
      <trkpt lat="45.32961" lon="5.81537">
        <ele>1040</ele>
        <time>2018-01-22T18:29:15.000Z</time>
      </trkpt>
      <trkpt lat="45.32961" lon="5.81537">
        <ele>1040</ele>
        <time>2018-01-22T18:29:16.000Z</time>
      </trkpt>
      <trkpt lat="45.32958" lon="5.81548">
        <ele>1095</ele>
        <time>2018-01-22T18:29:17.000Z</time>
      </trkpt>
      <trkpt lat="45.32958" lon="5.81548">
        <ele>1095</ele>
        <time>2018-01-22T18:29:18.000Z</time>
      </trkpt>
      <trkpt lat="45.32958" lon="5.81548">
        <ele>1095</ele>
        <time>2018-01-22T18:29:19.000Z</time>
      </trkpt>
      <trkpt lat="45.32958" lon="5.81548">
        <ele>1095</ele>
        <time>2018-01-22T18:29:20.000Z</time>
      </trkpt>
      <trkpt lat="45.33052" lon="5.81605">
        <ele>1069</ele>
        <time>2018-01-22T18:29:21.000Z</time>
      </trkpt>
      <trkpt lat="45.33052" lon="5.81605">
        <ele>1069</ele>
        <time>2018-01-22T18:29:22.000Z</time>
      </trkpt>
      <trkpt lat="45.33052" lon="5.81605">
        <ele>1069</ele>
        <time>2018-01-22T18:29:23.000Z</time>
      </trkpt>
      <trkpt lat="45.33052" lon="5.81605">
        <ele>1069</ele>
        <time>2018-01-22T18:29:24.000Z</time>
      </trkpt>
      <trkpt lat="45.33194" lon="5.81684">
        <ele>1095</ele>
        <time>2018-01-22T18:29:25.000Z</time>
      </trkpt>
      <trkpt lat="45.33194" lon="5.81684">
        <ele>1095</ele>
        <time>2018-01-22T18:29:26.000Z</time>
      </trkpt>
      <trkpt lat="45.33194" lon="5.81684">
        <ele>1095</ele>
        <time>2018-01-22T18:29:27.000Z</time>
      </trkpt>
      <trkpt lat="45.33194" lon="5.81684">
        <ele>1095</ele>
        <time>2018-01-22T18:29:28.000Z</time>
      </trkpt>
      <trkpt lat="45.33292" lon="5.8175">
        <ele>1119</ele>
        <time>2018-01-22T18:29:29.000Z</time>
      </trkpt>
      <trkpt lat="45.33292" lon="5.8175">
        <ele>1119</ele>
        <time>2018-01-22T18:29:30.000Z</time>
      </trkpt>
      <trkpt lat="45.33292" lon="5.8175">
        <ele>1119</ele>
        <time>2018-01-22T18:29:31.000Z</time>
      </trkpt>
      <trkpt lat="45.33292" lon="5.8175">
        <ele>1119</ele>
        <time>2018-01-22T18:29:32.000Z</time>
      </trkpt>
      <trkpt lat="45.33393" lon="5.81876">
        <ele>1106</ele>
        <time>2018-01-22T18:29:33.000Z</time>
      </trkpt>
      <trkpt lat="45.33393" lon="5.81876">
        <ele>1106</ele>
        <time>2018-01-22T18:29:34.000Z</time>
      </trkpt>
      <trkpt lat="45.33393" lon="5.81876">
        <ele>1106</ele>
        <time>2018-01-22T18:29:35.000Z</time>
      </trkpt>
      <trkpt lat="45.33393" lon="5.81876">
        <ele>1106</ele>
        <time>2018-01-22T18:29:36.000Z</time>
      </trkpt>
      <trkpt lat="45.33428" lon="5.81953">
        <ele>1106</ele>
        <time>2018-01-22T18:29:37.000Z</time>
      </trkpt>
      <trkpt lat="45.33428" lon="5.81953">
        <ele>1106</ele>
        <time>2018-01-22T18:29:38.000Z</time>
      </trkpt>
      <trkpt lat="45.33428" lon="5.81953">
        <ele>1106</ele>
        <time>2018-01-22T18:29:39.000Z</time>
      </trkpt>
      <trkpt lat="45.33428" lon="5.81953">
        <ele>1106</ele>
        <time>2018-01-22T18:29:40.000Z</time>
      </trkpt>
      <trkpt lat="45.3343" lon="5.82104">
        <ele>1134</ele>
        <time>2018-01-22T18:29:41.000Z</time>
      </trkpt>
      <trkpt lat="45.3343" lon="5.82104">
        <ele>1134</ele>
        <time>2018-01-22T18:29:42.000Z</time>
      </trkpt>
      <trkpt lat="45.3343" lon="5.82104">
        <ele>1134</ele>
        <time>2018-01-22T18:29:43.000Z</time>
      </trkpt>
      <trkpt lat="45.3343" lon="5.82104">
        <ele>1134</ele>
        <time>2018-01-22T18:29:44.000Z</time>
      </trkpt>
      <trkpt lat="45.3346" lon="5.82182">
        <ele>1098</ele>
        <time>2018-01-22T18:29:45.000Z</time>
      </trkpt>
      <trkpt lat="45.3346" lon="5.82182">
        <ele>1098</ele>
        <time>2018-01-22T18:29:46.000Z</time>
      </trkpt>
      <trkpt lat="45.3346" lon="5.82182">
        <ele>1098</ele>
        <time>2018-01-22T18:29:47.000Z</time>
      </trkpt>
      <trkpt lat="45.3346" lon="5.82182">
        <ele>1098</ele>
        <time>2018-01-22T18:29:48.000Z</time>
      </trkpt>
      <trkpt lat="45.33492" lon="5.82284">
        <ele>1115</ele>
        <time>2018-01-22T18:29:49.000Z</time>
      </trkpt>
      <trkpt lat="45.33492" lon="5.82284">
        <ele>1115</ele>
        <time>2018-01-22T18:29:50.000Z</time>
      </trkpt>
      <trkpt lat="45.33492" lon="5.82284">
        <ele>1115</ele>
        <time>2018-01-22T18:29:51.000Z</time>
      </trkpt>
      <trkpt lat="45.33492" lon="5.82284">
        <ele>1115</ele>
        <time>2018-01-22T18:29:52.000Z</time>
      </trkpt>
      <trkpt lat="45.33446" lon="5.82303">
        <ele>1136</ele>
        <time>2018-01-22T18:29:53.000Z</time>
      </trkpt>
      <trkpt lat="45.33446" lon="5.82303">
        <ele>1136</ele>
        <time>2018-01-22T18:29:54.000Z</time>
      </trkpt>
      <trkpt lat="45.33446" lon="5.82303">
        <ele>1136</ele>
        <time>2018-01-22T18:29:55.000Z</time>
      </trkpt>
      <trkpt lat="45.33446" lon="5.82303">
        <ele>1136</ele>
        <time>2018-01-22T18:29:56.000Z</time>
      </trkpt>
      <trkpt lat="45.33371" lon="5.82339">
        <ele>1156</ele>
        <time>2018-01-22T18:29:57.000Z</time>
      </trkpt>
      <trkpt lat="45.33371" lon="5.82339">
        <ele>1156</ele>
        <time>2018-01-22T18:29:58.000Z</time>
      </trkpt>
      <trkpt lat="45.33371" lon="5.82339">
        <ele>1156</ele>
        <time>2018-01-22T18:29:59.000Z</time>
      </trkpt>
      <trkpt lat="45.33371" lon="5.82339">
        <ele>1156</ele>
        <time>2018-01-22T18:30:00.000Z</time>
      </trkpt>
      <trkpt lat="45.33317" lon="5.82417">
        <ele>1152</ele>
        <time>2018-01-22T18:30:01.000Z</time>
      </trkpt>
      <trkpt lat="45.33317" lon="5.82417">
        <ele>1152</ele>
        <time>2018-01-22T18:30:02.000Z</time>
      </trkpt>
      <trkpt lat="45.33317" lon="5.82417">
        <ele>1152</ele>
        <time>2018-01-22T18:30:03.000Z</time>
      </trkpt>
      <trkpt lat="45.33317" lon="5.82417">
        <ele>1152</ele>
        <time>2018-01-22T18:30:04.000Z</time>
      </trkpt>
      <trkpt lat="45.33329" lon="5.82458">
        <ele>1152</ele>
        <time>2018-01-22T18:30:05.000Z</time>
      </trkpt>
      <trkpt lat="45.33329" lon="5.82458">
        <ele>1152</ele>
        <time>2018-01-22T18:30:06.000Z</time>
      </trkpt>
      <trkpt lat="45.33329" lon="5.82458">
        <ele>1152</ele>
        <time>2018-01-22T18:30:07.000Z</time>
      </trkpt>
      <trkpt lat="45.33329" lon="5.82458">
        <ele>1152</ele>
        <time>2018-01-22T18:30:08.000Z</time>
      </trkpt>
      <trkpt lat="45.33371" lon="5.82515">
        <ele>1167</ele>
        <time>2018-01-22T18:30:09.000Z</time>
      </trkpt>
      <trkpt lat="45.33371" lon="5.82515">
        <ele>1167</ele>
        <time>2018-01-22T18:30:10.000Z</time>
      </trkpt>
      <trkpt lat="45.33371" lon="5.82515">
        <ele>1167</ele>
        <time>2018-01-22T18:30:11.000Z</time>
      </trkpt>
      <trkpt lat="45.33371" lon="5.82515">
        <ele>1167</ele>
        <time>2018-01-22T18:30:12.000Z</time>
      </trkpt>
      <trkpt lat="45.33383" lon="5.82597">
        <ele>1145</ele>
        <time>2018-01-22T18:30:13.000Z</time>
      </trkpt>
      <trkpt lat="45.33383" lon="5.82597">
        <ele>1145</ele>
        <time>2018-01-22T18:30:14.000Z</time>
      </trkpt>
      <trkpt lat="45.33383" lon="5.82597">
        <ele>1145</ele>
        <time>2018-01-22T18:30:15.000Z</time>
      </trkpt>
      <trkpt lat="45.33383" lon="5.82597">
        <ele>1145</ele>
        <time>2018-01-22T18:30:16.000Z</time>
      </trkpt>
      <trkpt lat="45.33348" lon="5.827">
        <ele>1185</ele>
        <time>2018-01-22T18:30:17.000Z</time>
      </trkpt>
      <trkpt lat="45.33348" lon="5.827">
        <ele>1185</ele>
        <time>2018-01-22T18:30:18.000Z</time>
      </trkpt>
      <trkpt lat="45.33348" lon="5.827">
        <ele>1185</ele>
        <time>2018-01-22T18:30:19.000Z</time>
      </trkpt>
      <trkpt lat="45.33348" lon="5.827">
        <ele>1185</ele>
        <time>2018-01-22T18:30:20.000Z</time>
      </trkpt>
      <trkpt lat="45.33335" lon="5.82755">
        <ele>1178</ele>
        <time>2018-01-22T18:30:21.000Z</time>
      </trkpt>
      <trkpt lat="45.33335" lon="5.82755">
        <ele>1178</ele>
        <time>2018-01-22T18:30:22.000Z</time>
      </trkpt>
      <trkpt lat="45.33335" lon="5.82755">
        <ele>1178</ele>
        <time>2018-01-22T18:30:23.000Z</time>
      </trkpt>
      <trkpt lat="45.33335" lon="5.82755">
        <ele>1178</ele>
        <time>2018-01-22T18:30:24.000Z</time>
      </trkpt>
      <trkpt lat="45.33336" lon="5.8286">
        <ele>1178</ele>
        <time>2018-01-22T18:30:25.000Z</time>
      </trkpt>
      <trkpt lat="45.33336" lon="5.8286">
        <ele>1178</ele>
        <time>2018-01-22T18:30:26.000Z</time>
      </trkpt>
      <trkpt lat="45.33336" lon="5.8286">
        <ele>1178</ele>
        <time>2018-01-22T18:30:27.000Z</time>
      </trkpt>
      <trkpt lat="45.33336" lon="5.8286">
        <ele>1178</ele>
        <time>2018-01-22T18:30:28.000Z</time>
      </trkpt>
      <trkpt lat="45.33316" lon="5.82798">
        <ele>1178</ele>
        <time>2018-01-22T18:30:29.000Z</time>
      </trkpt>
      <trkpt lat="45.33316" lon="5.82798">
        <ele>1178</ele>
        <time>2018-01-22T18:30:30.000Z</time>
      </trkpt>
      <trkpt lat="45.33316" lon="5.82798">
        <ele>1178</ele>
        <time>2018-01-22T18:30:31.000Z</time>
      </trkpt>
      <trkpt lat="45.33316" lon="5.82798">
        <ele>1178</ele>
        <time>2018-01-22T18:30:32.000Z</time>
      </trkpt>
      <trkpt lat="45.33311" lon="5.82725">
        <ele>1178</ele>
        <time>2018-01-22T18:30:33.000Z</time>
      </trkpt>
      <trkpt lat="45.33311" lon="5.82725">
        <ele>1178</ele>
        <time>2018-01-22T18:30:34.000Z</time>
      </trkpt>
      <trkpt lat="45.33311" lon="5.82725">
        <ele>1178</ele>
        <time>2018-01-22T18:30:35.000Z</time>
      </trkpt>
      <trkpt lat="45.33311" lon="5.82725">
        <ele>1178</ele>
        <time>2018-01-22T18:30:36.000Z</time>
      </trkpt>
      <trkpt lat="45.33317" lon="5.82631">
        <ele>1185</ele>
        <time>2018-01-22T18:30:37.000Z</time>
      </trkpt>
      <trkpt lat="45.33317" lon="5.82631">
        <ele>1185</ele>
        <time>2018-01-22T18:30:38.000Z</time>
      </trkpt>
      <trkpt lat="45.33317" lon="5.82631">
        <ele>1185</ele>
        <time>2018-01-22T18:30:39.000Z</time>
      </trkpt>
      <trkpt lat="45.33317" lon="5.82631">
        <ele>1185</ele>
        <time>2018-01-22T18:30:40.000Z</time>
      </trkpt>
      <trkpt lat="45.33286" lon="5.8258">
        <ele>1210</ele>
        <time>2018-01-22T18:30:41.000Z</time>
      </trkpt>
      <trkpt lat="45.33286" lon="5.8258">
        <ele>1210</ele>
        <time>2018-01-22T18:30:42.000Z</time>
      </trkpt>
      <trkpt lat="45.33286" lon="5.8258">
        <ele>1210</ele>
        <time>2018-01-22T18:30:43.000Z</time>
      </trkpt>
      <trkpt lat="45.33286" lon="5.8258">
        <ele>1210</ele>
        <time>2018-01-22T18:30:44.000Z</time>
      </trkpt>
      <trkpt lat="45.33255" lon="5.82564">
        <ele>1210</ele>
        <time>2018-01-22T18:30:45.000Z</time>
      </trkpt>
      <trkpt lat="45.33255" lon="5.82564">
        <ele>1210</ele>
        <time>2018-01-22T18:30:46.000Z</time>
      </trkpt>
      <trkpt lat="45.33255" lon="5.82564">
        <ele>1210</ele>
        <time>2018-01-22T18:30:47.000Z</time>
      </trkpt>
      <trkpt lat="45.33255" lon="5.82564">
        <ele>1210</ele>
        <time>2018-01-22T18:30:48.000Z</time>
      </trkpt>
      <trkpt lat="45.33206" lon="5.82584">
        <ele>1221</ele>
        <time>2018-01-22T18:30:49.000Z</time>
      </trkpt>
      <trkpt lat="45.33206" lon="5.82584">
        <ele>1221</ele>
        <time>2018-01-22T18:30:50.000Z</time>
      </trkpt>
      <trkpt lat="45.33206" lon="5.82584">
        <ele>1221</ele>
        <time>2018-01-22T18:30:51.000Z</time>
      </trkpt>
      <trkpt lat="45.33206" lon="5.82584">
        <ele>1221</ele>
        <time>2018-01-22T18:30:52.000Z</time>
      </trkpt>
      <trkpt lat="45.33153" lon="5.82546">
        <ele>1221</ele>
        <time>2018-01-22T18:30:53.000Z</time>
      </trkpt>
      <trkpt lat="45.33153" lon="5.82546">
        <ele>1221</ele>
        <time>2018-01-22T18:30:54.000Z</time>
      </trkpt>
      <trkpt lat="45.33153" lon="5.82546">
        <ele>1221</ele>
        <time>2018-01-22T18:30:55.000Z</time>
      </trkpt>
      <trkpt lat="45.33153" lon="5.82546">
        <ele>1221</ele>
        <time>2018-01-22T18:30:56.000Z</time>
      </trkpt>
      <trkpt lat="45.33132" lon="5.82474">
        <ele>1202</ele>
        <time>2018-01-22T18:30:57.000Z</time>
      </trkpt>
      <trkpt lat="45.33132" lon="5.82474">
        <ele>1202</ele>
        <time>2018-01-22T18:30:58.000Z</time>
      </trkpt>
      <trkpt lat="45.33132" lon="5.82474">
        <ele>1202</ele>
        <time>2018-01-22T18:30:59.000Z</time>
      </trkpt>
      <trkpt lat="45.33132" lon="5.82474">
        <ele>1202</ele>
        <time>2018-01-22T18:31:00.000Z</time>
      </trkpt>
      <trkpt lat="45.33105" lon="5.8244">
        <ele>1240</ele>
        <time>2018-01-22T18:31:01.000Z</time>
      </trkpt>
      <trkpt lat="45.33105" lon="5.8244">
        <ele>1240</ele>
        <time>2018-01-22T18:31:02.000Z</time>
      </trkpt>
      <trkpt lat="45.33105" lon="5.8244">
        <ele>1240</ele>
        <time>2018-01-22T18:31:03.000Z</time>
      </trkpt>
      <trkpt lat="45.33105" lon="5.8244">
        <ele>1240</ele>
        <time>2018-01-22T18:31:04.000Z</time>
      </trkpt>
      <trkpt lat="45.33099" lon="5.8242">
        <ele>1240</ele>
        <time>2018-01-22T18:31:05.000Z</time>
      </trkpt>
      <trkpt lat="45.33099" lon="5.8242">
        <ele>1240</ele>
        <time>2018-01-22T18:31:06.000Z</time>
      </trkpt>
      <trkpt lat="45.33099" lon="5.8242">
        <ele>1240</ele>
        <time>2018-01-22T18:31:07.000Z</time>
      </trkpt>
      <trkpt lat="45.33099" lon="5.8242">
        <ele>1240</ele>
        <time>2018-01-22T18:31:08.000Z</time>
      </trkpt>
      <trkpt lat="45.33119" lon="5.82318">
        <ele>1254</ele>
        <time>2018-01-22T18:31:09.000Z</time>
      </trkpt>
      <trkpt lat="45.33119" lon="5.82318">
        <ele>1254</ele>
        <time>2018-01-22T18:31:10.000Z</time>
      </trkpt>
      <trkpt lat="45.33119" lon="5.82318">
        <ele>1254</ele>
        <time>2018-01-22T18:31:11.000Z</time>
      </trkpt>
      <trkpt lat="45.33119" lon="5.82318">
        <ele>1254</ele>
        <time>2018-01-22T18:31:12.000Z</time>
      </trkpt>
      <trkpt lat="45.33163" lon="5.82229">
        <ele>1231</ele>
        <time>2018-01-22T18:31:13.000Z</time>
      </trkpt>
      <trkpt lat="45.33163" lon="5.82229">
        <ele>1231</ele>
        <time>2018-01-22T18:31:14.000Z</time>
      </trkpt>
      <trkpt lat="45.33163" lon="5.82229">
        <ele>1231</ele>
        <time>2018-01-22T18:31:15.000Z</time>
      </trkpt>
      <trkpt lat="45.33163" lon="5.82229">
        <ele>1231</ele>
        <time>2018-01-22T18:31:16.000Z</time>
      </trkpt>
      <trkpt lat="45.33261" lon="5.8216">
        <ele>1220</ele>
        <time>2018-01-22T18:31:17.000Z</time>
      </trkpt>
      <trkpt lat="45.33261" lon="5.8216">
        <ele>1220</ele>
        <time>2018-01-22T18:31:18.000Z</time>
      </trkpt>
      <trkpt lat="45.33261" lon="5.8216">
        <ele>1220</ele>
        <time>2018-01-22T18:31:19.000Z</time>
      </trkpt>
      <trkpt lat="45.33261" lon="5.8216">
        <ele>1220</ele>
        <time>2018-01-22T18:31:20.000Z</time>
      </trkpt>
      <trkpt lat="45.33249" lon="5.82064">
        <ele>1228</ele>
        <time>2018-01-22T18:31:21.000Z</time>
      </trkpt>
      <trkpt lat="45.33249" lon="5.82064">
        <ele>1228</ele>
        <time>2018-01-22T18:31:22.000Z</time>
      </trkpt>
      <trkpt lat="45.33249" lon="5.82064">
        <ele>1228</ele>
        <time>2018-01-22T18:31:23.000Z</time>
      </trkpt>
      <trkpt lat="45.33249" lon="5.82064">
        <ele>1228</ele>
        <time>2018-01-22T18:31:24.000Z</time>
      </trkpt>
      <trkpt lat="45.33212" lon="5.8203">
        <ele>1210</ele>
        <time>2018-01-22T18:31:25.000Z</time>
      </trkpt>
      <trkpt lat="45.33212" lon="5.8203">
        <ele>1210</ele>
        <time>2018-01-22T18:31:26.000Z</time>
      </trkpt>
      <trkpt lat="45.33212" lon="5.8203">
        <ele>1210</ele>
        <time>2018-01-22T18:31:27.000Z</time>
      </trkpt>
      <trkpt lat="45.33212" lon="5.8203">
        <ele>1210</ele>
        <time>2018-01-22T18:31:28.000Z</time>
      </trkpt>
      <trkpt lat="45.33166" lon="5.82022">
        <ele>1238</ele>
        <time>2018-01-22T18:31:29.000Z</time>
      </trkpt>
      <trkpt lat="45.33166" lon="5.82022">
        <ele>1238</ele>
        <time>2018-01-22T18:31:30.000Z</time>
      </trkpt>
      <trkpt lat="45.33166" lon="5.82022">
        <ele>1238</ele>
        <time>2018-01-22T18:31:31.000Z</time>
      </trkpt>
      <trkpt lat="45.33166" lon="5.82022">
        <ele>1238</ele>
        <time>2018-01-22T18:31:32.000Z</time>
      </trkpt>
      <trkpt lat="45.33132" lon="5.81992">
        <ele>1238</ele>
        <time>2018-01-22T18:31:33.000Z</time>
      </trkpt>
      <trkpt lat="45.33132" lon="5.81992">
        <ele>1238</ele>
        <time>2018-01-22T18:31:34.000Z</time>
      </trkpt>
      <trkpt lat="45.33132" lon="5.81992">
        <ele>1238</ele>
        <time>2018-01-22T18:31:35.000Z</time>
      </trkpt>
      <trkpt lat="45.33132" lon="5.81992">
        <ele>1238</ele>
        <time>2018-01-22T18:31:36.000Z</time>
      </trkpt>
      <trkpt lat="45.33099" lon="5.81971">
        <ele>1251</ele>
        <time>2018-01-22T18:31:37.000Z</time>
      </trkpt>
      <trkpt lat="45.33099" lon="5.81971">
        <ele>1251</ele>
        <time>2018-01-22T18:31:38.000Z</time>
      </trkpt>
      <trkpt lat="45.33099" lon="5.81971">
        <ele>1251</ele>
        <time>2018-01-22T18:31:39.000Z</time>
      </trkpt>
      <trkpt lat="45.33099" lon="5.81971">
        <ele>1251</ele>
        <time>2018-01-22T18:31:40.000Z</time>
      </trkpt>
      <trkpt lat="45.33031" lon="5.81986">
        <ele>1257</ele>
        <time>2018-01-22T18:31:41.000Z</time>
      </trkpt>
      <trkpt lat="45.33031" lon="5.81986">
        <ele>1257</ele>
        <time>2018-01-22T18:31:42.000Z</time>
      </trkpt>
      <trkpt lat="45.33031" lon="5.81986">
        <ele>1257</ele>
        <time>2018-01-22T18:31:43.000Z</time>
      </trkpt>
      <trkpt lat="45.33031" lon="5.81986">
        <ele>1257</ele>
        <time>2018-01-22T18:31:44.000Z</time>
      </trkpt>
      <trkpt lat="45.3295" lon="5.81953">
        <ele>1250</ele>
        <time>2018-01-22T18:31:45.000Z</time>
      </trkpt>
      <trkpt lat="45.3295" lon="5.81953">
        <ele>1250</ele>
        <time>2018-01-22T18:31:46.000Z</time>
      </trkpt>
      <trkpt lat="45.3295" lon="5.81953">
        <ele>1250</ele>
        <time>2018-01-22T18:31:47.000Z</time>
      </trkpt>
      <trkpt lat="45.3295" lon="5.81953">
        <ele>1250</ele>
        <time>2018-01-22T18:31:48.000Z</time>
      </trkpt>
      <trkpt lat="45.3288" lon="5.81984">
        <ele>1270</ele>
        <time>2018-01-22T18:31:49.000Z</time>
      </trkpt>
      <trkpt lat="45.3288" lon="5.81984">
        <ele>1270</ele>
        <time>2018-01-22T18:31:50.000Z</time>
      </trkpt>
      <trkpt lat="45.3288" lon="5.81984">
        <ele>1270</ele>
        <time>2018-01-22T18:31:51.000Z</time>
      </trkpt>
      <trkpt lat="45.3288" lon="5.81984">
        <ele>1270</ele>
        <time>2018-01-22T18:31:52.000Z</time>
      </trkpt>
      <trkpt lat="45.32816" lon="5.81985">
        <ele>1279</ele>
        <time>2018-01-22T18:31:53.000Z</time>
      </trkpt>
      <trkpt lat="45.32816" lon="5.81985">
        <ele>1279</ele>
        <time>2018-01-22T18:31:54.000Z</time>
      </trkpt>
      <trkpt lat="45.32816" lon="5.81985">
        <ele>1279</ele>
        <time>2018-01-22T18:31:55.000Z</time>
      </trkpt>
      <trkpt lat="45.32816" lon="5.81985">
        <ele>1279</ele>
        <time>2018-01-22T18:31:56.000Z</time>
      </trkpt>
      <trkpt lat="45.32811" lon="5.81995">
        <ele>1279</ele>
        <time>2018-01-22T18:31:57.000Z</time>
      </trkpt>
      <trkpt lat="45.32811" lon="5.81995">
        <ele>1279</ele>
        <time>2018-01-22T18:31:58.000Z</time>
      </trkpt>
      <trkpt lat="45.32811" lon="5.81995">
        <ele>1279</ele>
        <time>2018-01-22T18:31:59.000Z</time>
      </trkpt>
      <trkpt lat="45.32811" lon="5.81995">
        <ele>1279</ele>
        <time>2018-01-22T18:32:00.000Z</time>
      </trkpt>
      <trkpt lat="45.3285" lon="5.82012">
        <ele>1279</ele>
        <time>2018-01-22T18:32:01.000Z</time>
      </trkpt>
      <trkpt lat="45.3285" lon="5.82012">
        <ele>1279</ele>
        <time>2018-01-22T18:32:02.000Z</time>
      </trkpt>
      <trkpt lat="45.3285" lon="5.82012">
        <ele>1279</ele>
        <time>2018-01-22T18:32:03.000Z</time>
      </trkpt>
      <trkpt lat="45.3285" lon="5.82012">
        <ele>1279</ele>
        <time>2018-01-22T18:32:04.000Z</time>
      </trkpt>
      <trkpt lat="45.32887" lon="5.82073">
        <ele>1275</ele>
        <time>2018-01-22T18:32:05.000Z</time>
      </trkpt>
      <trkpt lat="45.32887" lon="5.82073">
        <ele>1275</ele>
        <time>2018-01-22T18:32:06.000Z</time>
      </trkpt>
      <trkpt lat="45.32887" lon="5.82073">
        <ele>1275</ele>
        <time>2018-01-22T18:32:07.000Z</time>
      </trkpt>
      <trkpt lat="45.32887" lon="5.82073">
        <ele>1275</ele>
        <time>2018-01-22T18:32:08.000Z</time>
      </trkpt>
      <trkpt lat="45.32901" lon="5.8214">
        <ele>1295</ele>
        <time>2018-01-22T18:32:09.000Z</time>
      </trkpt>
      <trkpt lat="45.32901" lon="5.8214">
        <ele>1295</ele>
        <time>2018-01-22T18:32:10.000Z</time>
      </trkpt>
      <trkpt lat="45.32901" lon="5.8214">
        <ele>1295</ele>
        <time>2018-01-22T18:32:11.000Z</time>
      </trkpt>
      <trkpt lat="45.32901" lon="5.8214">
        <ele>1295</ele>
        <time>2018-01-22T18:32:12.000Z</time>
      </trkpt>
      <trkpt lat="45.32892" lon="5.82151">
        <ele>1295</ele>
        <time>2018-01-22T18:32:13.000Z</time>
      </trkpt>
      <trkpt lat="45.32892" lon="5.82151">
        <ele>1295</ele>
        <time>2018-01-22T18:32:14.000Z</time>
      </trkpt>
      <trkpt lat="45.32892" lon="5.82151">
        <ele>1295</ele>
        <time>2018-01-22T18:32:15.000Z</time>
      </trkpt>
      <trkpt lat="45.32892" lon="5.82151">
        <ele>1295</ele>
        <time>2018-01-22T18:32:16.000Z</time>
      </trkpt>
      <trkpt lat="45.32871" lon="5.82139">
        <ele>1311</ele>
        <time>2018-01-22T18:32:17.000Z</time>
      </trkpt>
      <trkpt lat="45.32871" lon="5.82139">
        <ele>1311</ele>
        <time>2018-01-22T18:32:18.000Z</time>
      </trkpt>
      <trkpt lat="45.32871" lon="5.82139">
        <ele>1311</ele>
        <time>2018-01-22T18:32:19.000Z</time>
      </trkpt>
      <trkpt lat="45.32871" lon="5.82139">
        <ele>1311</ele>
        <time>2018-01-22T18:32:20.000Z</time>
      </trkpt>
      <trkpt lat="45.32841" lon="5.82148">
        <ele>1311</ele>
        <time>2018-01-22T18:32:21.000Z</time>
      </trkpt>
      <trkpt lat="45.32841" lon="5.82148">
        <ele>1311</ele>
        <time>2018-01-22T18:32:22.000Z</time>
      </trkpt>
      <trkpt lat="45.32841" lon="5.82148">
        <ele>1311</ele>
        <time>2018-01-22T18:32:23.000Z</time>
      </trkpt>
      <trkpt lat="45.32841" lon="5.82148">
        <ele>1311</ele>
        <time>2018-01-22T18:32:24.000Z</time>
      </trkpt>
      <trkpt lat="45.32816" lon="5.82097">
        <ele>1294</ele>
        <time>2018-01-22T18:32:25.000Z</time>
      </trkpt>
      <trkpt lat="45.32816" lon="5.82097">
        <ele>1294</ele>
        <time>2018-01-22T18:32:26.000Z</time>
      </trkpt>
      <trkpt lat="45.32816" lon="5.82097">
        <ele>1294</ele>
        <time>2018-01-22T18:32:27.000Z</time>
      </trkpt>
      <trkpt lat="45.32816" lon="5.82097">
        <ele>1294</ele>
        <time>2018-01-22T18:32:28.000Z</time>
      </trkpt>
      <trkpt lat="45.32754" lon="5.82073">
        <ele>1314</ele>
        <time>2018-01-22T18:32:29.000Z</time>
      </trkpt>
      <trkpt lat="45.32754" lon="5.82073">
        <ele>1314</ele>
        <time>2018-01-22T18:32:30.000Z</time>
      </trkpt>
      <trkpt lat="45.32754" lon="5.82073">
        <ele>1314</ele>
        <time>2018-01-22T18:32:31.000Z</time>
      </trkpt>
      <trkpt lat="45.32754" lon="5.82073">
        <ele>1314</ele>
        <time>2018-01-22T18:32:32.000Z</time>
      </trkpt>
      <trkpt lat="45.32722" lon="5.82077">
        <ele>1314</ele>
        <time>2018-01-22T18:32:33.000Z</time>
      </trkpt>
      <trkpt lat="45.32722" lon="5.82077">
        <ele>1314</ele>
        <time>2018-01-22T18:32:34.000Z</time>
      </trkpt>
      <trkpt lat="45.32722" lon="5.82077">
        <ele>1314</ele>
        <time>2018-01-22T18:32:35.000Z</time>
      </trkpt>
      <trkpt lat="45.32722" lon="5.82077">
        <ele>1314</ele>
        <time>2018-01-22T18:32:36.000Z</time>
      </trkpt>
      <trkpt lat="45.32638" lon="5.82027">
        <ele>1300</ele>
        <time>2018-01-22T18:32:37.000Z</time>
      </trkpt>
      <trkpt lat="45.32638" lon="5.82027">
        <ele>1300</ele>
        <time>2018-01-22T18:32:38.000Z</time>
      </trkpt>
      <trkpt lat="45.32638" lon="5.82027">
        <ele>1300</ele>
        <time>2018-01-22T18:32:39.000Z</time>
      </trkpt>
      <trkpt lat="45.32638" lon="5.82027">
        <ele>1300</ele>
        <time>2018-01-22T18:32:40.000Z</time>
      </trkpt>
      <trkpt lat="45.32569" lon="5.82025">
        <ele>1309</ele>
        <time>2018-01-22T18:32:41.000Z</time>
      </trkpt>
      <trkpt lat="45.32569" lon="5.82025">
        <ele>1309</ele>
        <time>2018-01-22T18:32:42.000Z</time>
      </trkpt>
      <trkpt lat="45.32569" lon="5.82025">
        <ele>1309</ele>
        <time>2018-01-22T18:32:43.000Z</time>
      </trkpt>
      <trkpt lat="45.32569" lon="5.82025">
        <ele>1309</ele>
        <time>2018-01-22T18:32:44.000Z</time>
      </trkpt>
      <trkpt lat="45.32543" lon="5.8204">
        <ele>1309</ele>
        <time>2018-01-22T18:32:45.000Z</time>
      </trkpt>
      <trkpt lat="45.32543" lon="5.8204">
        <ele>1309</ele>
        <time>2018-01-22T18:32:46.000Z</time>
      </trkpt>
      <trkpt lat="45.32543" lon="5.8204">
        <ele>1309</ele>
        <time>2018-01-22T18:32:47.000Z</time>
      </trkpt>
      <trkpt lat="45.32543" lon="5.8204">
        <ele>1309</ele>
        <time>2018-01-22T18:32:48.000Z</time>
      </trkpt>
      <trkpt lat="45.32511" lon="5.82078">
        <ele>1340</ele>
        <time>2018-01-22T18:32:49.000Z</time>
      </trkpt>
      <trkpt lat="45.32511" lon="5.82078">
        <ele>1340</ele>
        <time>2018-01-22T18:32:50.000Z</time>
      </trkpt>
      <trkpt lat="45.32511" lon="5.82078">
        <ele>1340</ele>
        <time>2018-01-22T18:32:51.000Z</time>
      </trkpt>
      <trkpt lat="45.32511" lon="5.82078">
        <ele>1340</ele>
        <time>2018-01-22T18:32:52.000Z</time>
      </trkpt>
      <trkpt lat="45.32412" lon="5.8208">
        <ele>1341</ele>
        <time>2018-01-22T18:32:53.000Z</time>
      </trkpt>
      <trkpt lat="45.32412" lon="5.8208">
        <ele>1341</ele>
        <time>2018-01-22T18:32:54.000Z</time>
      </trkpt>
      <trkpt lat="45.32412" lon="5.8208">
        <ele>1341</ele>
        <time>2018-01-22T18:32:55.000Z</time>
      </trkpt>
      <trkpt lat="45.32412" lon="5.8208">
        <ele>1341</ele>
        <time>2018-01-22T18:32:56.000Z</time>
      </trkpt>
      <trkpt lat="45.32379" lon="5.82108">
        <ele>1341</ele>
        <time>2018-01-22T18:32:57.000Z</time>
      </trkpt>
      <trkpt lat="45.32379" lon="5.82108">
        <ele>1341</ele>
        <time>2018-01-22T18:32:58.000Z</time>
      </trkpt>
      <trkpt lat="45.32379" lon="5.82108">
        <ele>1341</ele>
        <time>2018-01-22T18:32:59.000Z</time>
      </trkpt>
      <trkpt lat="45.32379" lon="5.82108">
        <ele>1341</ele>
        <time>2018-01-22T18:33:00.000Z</time>
      </trkpt>
      <trkpt lat="45.32272" lon="5.82134">
        <ele>1359</ele>
        <time>2018-01-22T18:33:01.000Z</time>
      </trkpt>
      <trkpt lat="45.32272" lon="5.82134">
        <ele>1359</ele>
        <time>2018-01-22T18:33:02.000Z</time>
      </trkpt>
      <trkpt lat="45.32272" lon="5.82134">
        <ele>1359</ele>
        <time>2018-01-22T18:33:03.000Z</time>
      </trkpt>
      <trkpt lat="45.32272" lon="5.82134">
        <ele>1359</ele>
        <time>2018-01-22T18:33:04.000Z</time>
      </trkpt>
      <trkpt lat="45.32258" lon="5.8215">
        <ele>1359</ele>
        <time>2018-01-22T18:33:05.000Z</time>
      </trkpt>
      <trkpt lat="45.32258" lon="5.8215">
        <ele>1359</ele>
        <time>2018-01-22T18:33:06.000Z</time>
      </trkpt>
      <trkpt lat="45.32258" lon="5.8215">
        <ele>1359</ele>
        <time>2018-01-22T18:33:07.000Z</time>
      </trkpt>
      <trkpt lat="45.32258" lon="5.8215">
        <ele>1359</ele>
        <time>2018-01-22T18:33:08.000Z</time>
      </trkpt>
      <trkpt lat="45.32253" lon="5.82202">
        <ele>1359</ele>
        <time>2018-01-22T18:33:09.000Z</time>
      </trkpt>
      <trkpt lat="45.32253" lon="5.82202">
        <ele>1359</ele>
        <time>2018-01-22T18:33:10.000Z</time>
      </trkpt>
      <trkpt lat="45.32253" lon="5.82202">
        <ele>1359</ele>
        <time>2018-01-22T18:33:11.000Z</time>
      </trkpt>
      <trkpt lat="45.32253" lon="5.82202">
        <ele>1359</ele>
        <time>2018-01-22T18:33:12.000Z</time>
      </trkpt>
      <trkpt lat="45.3221" lon="5.82272">
        <ele>1366</ele>
        <time>2018-01-22T18:33:13.000Z</time>
      </trkpt>
      <trkpt lat="45.3221" lon="5.82272">
        <ele>1366</ele>
        <time>2018-01-22T18:33:14.000Z</time>
      </trkpt>
      <trkpt lat="45.3221" lon="5.82272">
        <ele>1366</ele>
        <time>2018-01-22T18:33:15.000Z</time>
      </trkpt>
      <trkpt lat="45.3221" lon="5.82272">
        <ele>1366</ele>
        <time>2018-01-22T18:33:16.000Z</time>
      </trkpt>
      <trkpt lat="45.32221" lon="5.82287">
        <ele>1366</ele>
        <time>2018-01-22T18:33:17.000Z</time>
      </trkpt>
      <trkpt lat="45.32221" lon="5.82287">
        <ele>1366</ele>
        <time>2018-01-22T18:33:18.000Z</time>
      </trkpt>
      <trkpt lat="45.32221" lon="5.82287">
        <ele>1366</ele>
        <time>2018-01-22T18:33:19.000Z</time>
      </trkpt>
      <trkpt lat="45.32221" lon="5.82287">
        <ele>1366</ele>
        <time>2018-01-22T18:33:20.000Z</time>
      </trkpt>
      <trkpt lat="45.32246" lon="5.82268">
        <ele>1366</ele>
        <time>2018-01-22T18:33:21.000Z</time>
      </trkpt>
      <trkpt lat="45.32246" lon="5.82268">
        <ele>1366</ele>
        <time>2018-01-22T18:33:22.000Z</time>
      </trkpt>
      <trkpt lat="45.32246" lon="5.82268">
        <ele>1366</ele>
        <time>2018-01-22T18:33:23.000Z</time>
      </trkpt>
      <trkpt lat="45.32246" lon="5.82268">
        <ele>1366</ele>
        <time>2018-01-22T18:33:24.000Z</time>
      </trkpt>
      <trkpt lat="45.32288" lon="5.82274">
        <ele>1366</ele>
        <time>2018-01-22T18:33:25.000Z</time>
      </trkpt>
      <trkpt lat="45.32288" lon="5.82274">
        <ele>1366</ele>
        <time>2018-01-22T18:33:26.000Z</time>
      </trkpt>
      <trkpt lat="45.32288" lon="5.82274">
        <ele>1366</ele>
        <time>2018-01-22T18:33:27.000Z</time>
      </trkpt>
      <trkpt lat="45.32288" lon="5.82274">
        <ele>1366</ele>
        <time>2018-01-22T18:33:28.000Z</time>
      </trkpt>
      <trkpt lat="45.32347" lon="5.82331">
        <ele>1381</ele>
        <time>2018-01-22T18:33:29.000Z</time>
      </trkpt>
      <trkpt lat="45.32347" lon="5.82331">
        <ele>1381</ele>
        <time>2018-01-22T18:33:30.000Z</time>
      </trkpt>
      <trkpt lat="45.32347" lon="5.82331">
        <ele>1381</ele>
        <time>2018-01-22T18:33:31.000Z</time>
      </trkpt>
      <trkpt lat="45.32347" lon="5.82331">
        <ele>1381</ele>
        <time>2018-01-22T18:33:32.000Z</time>
      </trkpt>
      <trkpt lat="45.32395" lon="5.82347">
        <ele>1386</ele>
        <time>2018-01-22T18:33:33.000Z</time>
      </trkpt>
      <trkpt lat="45.32395" lon="5.82347">
        <ele>1386</ele>
        <time>2018-01-22T18:33:34.000Z</time>
      </trkpt>
      <trkpt lat="45.32395" lon="5.82347">
        <ele>1386</ele>
        <time>2018-01-22T18:33:35.000Z</time>
      </trkpt>
      <trkpt lat="45.32395" lon="5.82347">
        <ele>1386</ele>
        <time>2018-01-22T18:33:36.000Z</time>
      </trkpt>
      <trkpt lat="45.32457" lon="5.82352">
        <ele>1386</ele>
        <time>2018-01-22T18:33:37.000Z</time>
      </trkpt>
      <trkpt lat="45.32457" lon="5.82352">
        <ele>1386</ele>
        <time>2018-01-22T18:33:38.000Z</time>
      </trkpt>
      <trkpt lat="45.32457" lon="5.82352">
        <ele>1386</ele>
        <time>2018-01-22T18:33:39.000Z</time>
      </trkpt>
      <trkpt lat="45.32457" lon="5.82352">
        <ele>1386</ele>
        <time>2018-01-22T18:33:40.000Z</time>
      </trkpt>
      <trkpt lat="45.32492" lon="5.82367">
        <ele>1388</ele>
        <time>2018-01-22T18:33:41.000Z</time>
      </trkpt>
      <trkpt lat="45.32492" lon="5.82367">
        <ele>1388</ele>
        <time>2018-01-22T18:33:42.000Z</time>
      </trkpt>
      <trkpt lat="45.32492" lon="5.82367">
        <ele>1388</ele>
        <time>2018-01-22T18:33:43.000Z</time>
      </trkpt>
      <trkpt lat="45.32492" lon="5.82367">
        <ele>1388</ele>
        <time>2018-01-22T18:33:44.000Z</time>
      </trkpt>
      <trkpt lat="45.325" lon="5.82374">
        <ele>1388</ele>
        <time>2018-01-22T18:33:45.000Z</time>
      </trkpt>
      <trkpt lat="45.32461" lon="5.82383">
        <ele>1409</ele>
        <time>2018-01-22T18:33:46.000Z</time>
      </trkpt>
      <trkpt lat="45.32455" lon="5.82383">
        <ele>1409</ele>
        <time>2018-01-22T18:33:47.000Z</time>
      </trkpt>
      <trkpt lat="45.32455" lon="5.82383">
        <ele>1409</ele>
        <time>2018-01-22T18:33:48.000Z</time>
      </trkpt>
      <trkpt lat="45.32455" lon="5.82383">
        <ele>1409</ele>
        <time>2018-01-22T18:33:49.000Z</time>
      </trkpt>
      <trkpt lat="45.32455" lon="5.82383">
        <ele>1409</ele>
        <time>2018-01-22T18:33:50.000Z</time>
      </trkpt>
      <trkpt lat="45.32426" lon="5.82408">
        <ele>1409</ele>
        <time>2018-01-22T18:33:51.000Z</time>
      </trkpt>
      <trkpt lat="45.32426" lon="5.82408">
        <ele>1409</ele>
        <time>2018-01-22T18:33:52.000Z</time>
      </trkpt>
      <trkpt lat="45.32426" lon="5.82408">
        <ele>1409</ele>
        <time>2018-01-22T18:33:53.000Z</time>
      </trkpt>
      <trkpt lat="45.32426" lon="5.82408">
        <ele>1409</ele>
        <time>2018-01-22T18:33:54.000Z</time>
      </trkpt>
      <trkpt lat="45.32354" lon="5.82408">
        <ele>1405</ele>
        <time>2018-01-22T18:33:55.000Z</time>
      </trkpt>
      <trkpt lat="45.32354" lon="5.82408">
        <ele>1405</ele>
        <time>2018-01-22T18:33:56.000Z</time>
      </trkpt>
      <trkpt lat="45.32354" lon="5.82408">
        <ele>1405</ele>
        <time>2018-01-22T18:33:57.000Z</time>
      </trkpt>
      <trkpt lat="45.32354" lon="5.82408">
        <ele>1405</ele>
        <time>2018-01-22T18:33:58.000Z</time>
      </trkpt>
      <trkpt lat="45.32318" lon="5.82427">
        <ele>1405</ele>
        <time>2018-01-22T18:33:59.000Z</time>
      </trkpt>
      <trkpt lat="45.32318" lon="5.82427">
        <ele>1405</ele>
        <time>2018-01-22T18:34:00.000Z</time>
      </trkpt>
      <trkpt lat="45.32318" lon="5.82427">
        <ele>1405</ele>
        <time>2018-01-22T18:34:01.000Z</time>
      </trkpt>
      <trkpt lat="45.32318" lon="5.82427">
        <ele>1405</ele>
        <time>2018-01-22T18:34:02.000Z</time>
      </trkpt>
      <trkpt lat="45.32247" lon="5.82425">
        <ele>1408</ele>
        <time>2018-01-22T18:34:03.000Z</time>
      </trkpt>
      <trkpt lat="45.32247" lon="5.82425">
        <ele>1408</ele>
        <time>2018-01-22T18:34:04.000Z</time>
      </trkpt>
      <trkpt lat="45.32247" lon="5.82425">
        <ele>1408</ele>
        <time>2018-01-22T18:34:05.000Z</time>
      </trkpt>
      <trkpt lat="45.32247" lon="5.82425">
        <ele>1408</ele>
        <time>2018-01-22T18:34:06.000Z</time>
      </trkpt>
      <trkpt lat="45.32147" lon="5.82442">
        <ele>1417</ele>
        <time>2018-01-22T18:34:07.000Z</time>
      </trkpt>
      <trkpt lat="45.32147" lon="5.82442">
        <ele>1417</ele>
        <time>2018-01-22T18:34:08.000Z</time>
      </trkpt>
      <trkpt lat="45.32147" lon="5.82442">
        <ele>1417</ele>
        <time>2018-01-22T18:34:09.000Z</time>
      </trkpt>
      <trkpt lat="45.32147" lon="5.82442">
        <ele>1417</ele>
        <time>2018-01-22T18:34:10.000Z</time>
      </trkpt>
      <trkpt lat="45.32116" lon="5.82437">
        <ele>1429</ele>
        <time>2018-01-22T18:34:11.000Z</time>
      </trkpt>
      <trkpt lat="45.32116" lon="5.82437">
        <ele>1429</ele>
        <time>2018-01-22T18:34:12.000Z</time>
      </trkpt>
      <trkpt lat="45.32116" lon="5.82437">
        <ele>1429</ele>
        <time>2018-01-22T18:34:13.000Z</time>
      </trkpt>
      <trkpt lat="45.32116" lon="5.82437">
        <ele>1429</ele>
        <time>2018-01-22T18:34:14.000Z</time>
      </trkpt>
      <trkpt lat="45.32082" lon="5.82399">
        <ele>1429</ele>
        <time>2018-01-22T18:34:15.000Z</time>
      </trkpt>
      <trkpt lat="45.32082" lon="5.82399">
        <ele>1429</ele>
        <time>2018-01-22T18:34:16.000Z</time>
      </trkpt>
      <trkpt lat="45.32082" lon="5.82399">
        <ele>1429</ele>
        <time>2018-01-22T18:34:17.000Z</time>
      </trkpt>
      <trkpt lat="45.32082" lon="5.82399">
        <ele>1429</ele>
        <time>2018-01-22T18:34:18.000Z</time>
      </trkpt>
      <trkpt lat="45.31892" lon="5.824">
        <ele>1439</ele>
        <time>2018-01-22T18:34:19.000Z</time>
      </trkpt>
      <trkpt lat="45.31892" lon="5.824">
        <ele>1439</ele>
        <time>2018-01-22T18:34:20.000Z</time>
      </trkpt>
      <trkpt lat="45.31892" lon="5.824">
        <ele>1439</ele>
        <time>2018-01-22T18:34:21.000Z</time>
      </trkpt>
      <trkpt lat="45.31892" lon="5.824">
        <ele>1439</ele>
        <time>2018-01-22T18:34:22.000Z</time>
      </trkpt>
      <trkpt lat="45.31864" lon="5.82443">
        <ele>1429</ele>
        <time>2018-01-22T18:34:23.000Z</time>
      </trkpt>
      <trkpt lat="45.31864" lon="5.82443">
        <ele>1429</ele>
        <time>2018-01-22T18:34:24.000Z</time>
      </trkpt>
      <trkpt lat="45.31864" lon="5.82443">
        <ele>1429</ele>
        <time>2018-01-22T18:34:25.000Z</time>
      </trkpt>
      <trkpt lat="45.31864" lon="5.82443">
        <ele>1429</ele>
        <time>2018-01-22T18:34:26.000Z</time>
      </trkpt>
      <trkpt lat="45.31834" lon="5.82454">
        <ele>1429</ele>
        <time>2018-01-22T18:34:27.000Z</time>
      </trkpt>
      <trkpt lat="45.31834" lon="5.82454">
        <ele>1429</ele>
        <time>2018-01-22T18:34:28.000Z</time>
      </trkpt>
      <trkpt lat="45.31834" lon="5.82454">
        <ele>1429</ele>
        <time>2018-01-22T18:34:29.000Z</time>
      </trkpt>
      <trkpt lat="45.31834" lon="5.82454">
        <ele>1429</ele>
        <time>2018-01-22T18:34:30.000Z</time>
      </trkpt>
      <trkpt lat="45.31748" lon="5.82425">
        <ele>1427</ele>
        <time>2018-01-22T18:34:31.000Z</time>
      </trkpt>
      <trkpt lat="45.31748" lon="5.82425">
        <ele>1427</ele>
        <time>2018-01-22T18:34:32.000Z</time>
      </trkpt>
      <trkpt lat="45.31748" lon="5.82425">
        <ele>1427</ele>
        <time>2018-01-22T18:34:33.000Z</time>
      </trkpt>
      <trkpt lat="45.31748" lon="5.82425">
        <ele>1427</ele>
        <time>2018-01-22T18:34:34.000Z</time>
      </trkpt>
      <trkpt lat="45.31714" lon="5.82425">
        <ele>1427</ele>
        <time>2018-01-22T18:34:35.000Z</time>
      </trkpt>
      <trkpt lat="45.31714" lon="5.82425">
        <ele>1427</ele>
        <time>2018-01-22T18:34:36.000Z</time>
      </trkpt>
      <trkpt lat="45.31714" lon="5.82425">
        <ele>1427</ele>
        <time>2018-01-22T18:34:37.000Z</time>
      </trkpt>
      <trkpt lat="45.31714" lon="5.82425">
        <ele>1427</ele>
        <time>2018-01-22T18:34:38.000Z</time>
      </trkpt>
      <trkpt lat="45.31639" lon="5.8246">
        <ele>1448</ele>
        <time>2018-01-22T18:34:39.000Z</time>
      </trkpt>
      <trkpt lat="45.31639" lon="5.8246">
        <ele>1448</ele>
        <time>2018-01-22T18:34:40.000Z</time>
      </trkpt>
      <trkpt lat="45.31639" lon="5.8246">
        <ele>1448</ele>
        <time>2018-01-22T18:34:41.000Z</time>
      </trkpt>
      <trkpt lat="45.31639" lon="5.8246">
        <ele>1448</ele>
        <time>2018-01-22T18:34:42.000Z</time>
      </trkpt>
      <trkpt lat="45.31624" lon="5.82477">
        <ele>1445</ele>
        <time>2018-01-22T18:34:43.000Z</time>
      </trkpt>
      <trkpt lat="45.31624" lon="5.82477">
        <ele>1445</ele>
        <time>2018-01-22T18:34:44.000Z</time>
      </trkpt>
      <trkpt lat="45.31624" lon="5.82477">
        <ele>1445</ele>
        <time>2018-01-22T18:34:45.000Z</time>
      </trkpt>
      <trkpt lat="45.31624" lon="5.82477">
        <ele>1445</ele>
        <time>2018-01-22T18:34:46.000Z</time>
      </trkpt>
      <trkpt lat="45.31573" lon="5.82476">
        <ele>1445</ele>
        <time>2018-01-22T18:34:47.000Z</time>
      </trkpt>
      <trkpt lat="45.31573" lon="5.82476">
        <ele>1445</ele>
        <time>2018-01-22T18:34:48.000Z</time>
      </trkpt>
      <trkpt lat="45.31573" lon="5.82476">
        <ele>1445</ele>
        <time>2018-01-22T18:34:49.000Z</time>
      </trkpt>
      <trkpt lat="45.31573" lon="5.82476">
        <ele>1445</ele>
        <time>2018-01-22T18:34:50.000Z</time>
      </trkpt>
      <trkpt lat="45.31559" lon="5.82473">
        <ele>1445</ele>
        <time>2018-01-22T18:34:51.000Z</time>
      </trkpt>
      <trkpt lat="45.31559" lon="5.82473">
        <ele>1445</ele>
        <time>2018-01-22T18:34:52.000Z</time>
      </trkpt>
      <trkpt lat="45.31559" lon="5.82473">
        <ele>1445</ele>
        <time>2018-01-22T18:34:53.000Z</time>
      </trkpt>
      <trkpt lat="45.31559" lon="5.82473">
        <ele>1445</ele>
        <time>2018-01-22T18:34:54.000Z</time>
      </trkpt>
      <trkpt lat="45.31531" lon="5.82427">
        <ele>1437</ele>
        <time>2018-01-22T18:34:55.000Z</time>
      </trkpt>
      <trkpt lat="45.31531" lon="5.82427">
        <ele>1437</ele>
        <time>2018-01-22T18:34:56.000Z</time>
      </trkpt>
      <trkpt lat="45.31531" lon="5.82427">
        <ele>1437</ele>
        <time>2018-01-22T18:34:57.000Z</time>
      </trkpt>
      <trkpt lat="45.31531" lon="5.82427">
        <ele>1437</ele>
        <time>2018-01-22T18:34:58.000Z</time>
      </trkpt>
      <trkpt lat="45.31495" lon="5.82395">
        <ele>1437</ele>
        <time>2018-01-22T18:34:59.000Z</time>
      </trkpt>
      <trkpt lat="45.31495" lon="5.82395">
        <ele>1437</ele>
        <time>2018-01-22T18:35:00.000Z</time>
      </trkpt>
      <trkpt lat="45.31495" lon="5.82395">
        <ele>1437</ele>
        <time>2018-01-22T18:35:01.000Z</time>
      </trkpt>
      <trkpt lat="45.31495" lon="5.82395">
        <ele>1437</ele>
        <time>2018-01-22T18:35:02.000Z</time>
      </trkpt>
      <trkpt lat="45.31411" lon="5.82385">
        <ele>1445</ele>
        <time>2018-01-22T18:35:03.000Z</time>
      </trkpt>
      <trkpt lat="45.31411" lon="5.82385">
        <ele>1445</ele>
        <time>2018-01-22T18:35:04.000Z</time>
      </trkpt>
      <trkpt lat="45.31411" lon="5.82385">
        <ele>1445</ele>
        <time>2018-01-22T18:35:05.000Z</time>
      </trkpt>
      <trkpt lat="45.31411" lon="5.82385">
        <ele>1445</ele>
        <time>2018-01-22T18:35:06.000Z</time>
      </trkpt>
      <trkpt lat="45.31246" lon="5.82403">
        <ele>1457</ele>
        <time>2018-01-22T18:35:07.000Z</time>
      </trkpt>
      <trkpt lat="45.31246" lon="5.82403">
        <ele>1457</ele>
        <time>2018-01-22T18:35:08.000Z</time>
      </trkpt>
      <trkpt lat="45.31246" lon="5.82403">
        <ele>1457</ele>
        <time>2018-01-22T18:35:09.000Z</time>
      </trkpt>
      <trkpt lat="45.31246" lon="5.82403">
        <ele>1457</ele>
        <time>2018-01-22T18:35:10.000Z</time>
      </trkpt>
      <trkpt lat="45.31222" lon="5.82392">
        <ele>1457</ele>
        <time>2018-01-22T18:35:11.000Z</time>
      </trkpt>
      <trkpt lat="45.31195" lon="5.8238">
        <ele>1462</ele>
        <time>2018-01-22T18:35:12.000Z</time>
      </trkpt>
      <trkpt lat="45.3117" lon="5.82389">
        <ele>1462</ele>
        <time>2018-01-22T18:35:13.000Z</time>
      </trkpt>
      <trkpt lat="45.31143" lon="5.82399">
        <ele>1462</ele>
        <time>2018-01-22T18:35:14.000Z</time>
      </trkpt>
      <trkpt lat="45.31125" lon="5.82421">
        <ele>1458</ele>
        <time>2018-01-22T18:35:15.000Z</time>
      </trkpt>
      <trkpt lat="45.31109" lon="5.82438">
        <ele>1458</ele>
        <time>2018-01-22T18:35:16.000Z</time>
      </trkpt>
      <trkpt lat="45.31109" lon="5.82438">
        <ele>1458</ele>
        <time>2018-01-22T18:35:17.000Z</time>
      </trkpt>
      <trkpt lat="45.31109" lon="5.82438">
        <ele>1458</ele>
        <time>2018-01-22T18:35:18.000Z</time>
      </trkpt>
      <trkpt lat="45.31109" lon="5.82438">
        <ele>1458</ele>
        <time>2018-01-22T18:35:19.000Z</time>
      </trkpt>
      <trkpt lat="45.31103" lon="5.8245">
        <ele>1458</ele>
        <time>2018-01-22T18:35:20.000Z</time>
      </trkpt>
      <trkpt lat="45.31103" lon="5.8245">
        <ele>1458</ele>
        <time>2018-01-22T18:35:21.000Z</time>
      </trkpt>
      <trkpt lat="45.31103" lon="5.8245">
        <ele>1458</ele>
        <time>2018-01-22T18:35:22.000Z</time>
      </trkpt>
      <trkpt lat="45.31103" lon="5.8245">
        <ele>1458</ele>
        <time>2018-01-22T18:35:23.000Z</time>
      </trkpt>
      <trkpt lat="45.31052" lon="5.82419">
        <ele>1458</ele>
        <time>2018-01-22T18:35:24.000Z</time>
      </trkpt>
      <trkpt lat="45.31052" lon="5.82419">
        <ele>1458</ele>
        <time>2018-01-22T18:35:25.000Z</time>
      </trkpt>
      <trkpt lat="45.31052" lon="5.82419">
        <ele>1458</ele>
        <time>2018-01-22T18:35:26.000Z</time>
      </trkpt>
      <trkpt lat="45.31052" lon="5.82419">
        <ele>1458</ele>
        <time>2018-01-22T18:35:27.000Z</time>
      </trkpt>
      <trkpt lat="45.31" lon="5.82404">
        <ele>1466</ele>
        <time>2018-01-22T18:35:28.000Z</time>
      </trkpt>
      <trkpt lat="45.31" lon="5.82404">
        <ele>1466</ele>
        <time>2018-01-22T18:35:29.000Z</time>
      </trkpt>
      <trkpt lat="45.31" lon="5.82404">
        <ele>1466</ele>
        <time>2018-01-22T18:35:30.000Z</time>
      </trkpt>
      <trkpt lat="45.31" lon="5.82404">
        <ele>1466</ele>
        <time>2018-01-22T18:35:31.000Z</time>
      </trkpt>
      <trkpt lat="45.30982" lon="5.82416">
        <ele>1466</ele>
        <time>2018-01-22T18:35:32.000Z</time>
      </trkpt>
      <trkpt lat="45.30982" lon="5.82416">
        <ele>1466</ele>
        <time>2018-01-22T18:35:33.000Z</time>
      </trkpt>
      <trkpt lat="45.30982" lon="5.82416">
        <ele>1466</ele>
        <time>2018-01-22T18:35:34.000Z</time>
      </trkpt>
      <trkpt lat="45.30982" lon="5.82416">
        <ele>1466</ele>
        <time>2018-01-22T18:35:35.000Z</time>
      </trkpt>
      <trkpt lat="45.30971" lon="5.82434">
        <ele>1466</ele>
        <time>2018-01-22T18:35:36.000Z</time>
      </trkpt>
      <trkpt lat="45.30971" lon="5.82434">
        <ele>1466</ele>
        <time>2018-01-22T18:35:37.000Z</time>
      </trkpt>
      <trkpt lat="45.30971" lon="5.82434">
        <ele>1466</ele>
        <time>2018-01-22T18:35:38.000Z</time>
      </trkpt>
      <trkpt lat="45.30971" lon="5.82434">
        <ele>1466</ele>
        <time>2018-01-22T18:35:39.000Z</time>
      </trkpt>
      <trkpt lat="45.30963" lon="5.82454">
        <ele>1466</ele>
        <time>2018-01-22T18:35:40.000Z</time>
      </trkpt>
      <trkpt lat="45.30963" lon="5.82454">
        <ele>1466</ele>
        <time>2018-01-22T18:35:41.000Z</time>
      </trkpt>
      <trkpt lat="45.30963" lon="5.82454">
        <ele>1466</ele>
        <time>2018-01-22T18:35:42.000Z</time>
      </trkpt>
      <trkpt lat="45.30963" lon="5.82454">
        <ele>1466</ele>
        <time>2018-01-22T18:35:43.000Z</time>
      </trkpt>
      <trkpt lat="45.30916" lon="5.82427">
        <ele>1471</ele>
        <time>2018-01-22T18:35:44.000Z</time>
      </trkpt>
      <trkpt lat="45.30916" lon="5.82427">
        <ele>1471</ele>
        <time>2018-01-22T18:35:45.000Z</time>
      </trkpt>
      <trkpt lat="45.30916" lon="5.82427">
        <ele>1471</ele>
        <time>2018-01-22T18:35:46.000Z</time>
      </trkpt>
      <trkpt lat="45.30916" lon="5.82427">
        <ele>1471</ele>
        <time>2018-01-22T18:35:47.000Z</time>
      </trkpt>
      <trkpt lat="45.30872" lon="5.82434">
        <ele>1456</ele>
        <time>2018-01-22T18:35:48.000Z</time>
      </trkpt>
      <trkpt lat="45.30872" lon="5.82434">
        <ele>1456</ele>
        <time>2018-01-22T18:35:49.000Z</time>
      </trkpt>
      <trkpt lat="45.30872" lon="5.82434">
        <ele>1456</ele>
        <time>2018-01-22T18:35:50.000Z</time>
      </trkpt>
      <trkpt lat="45.30872" lon="5.82434">
        <ele>1456</ele>
        <time>2018-01-22T18:35:51.000Z</time>
      </trkpt>
      <trkpt lat="45.30859" lon="5.82471">
        <ele>1459</ele>
        <time>2018-01-22T18:35:52.000Z</time>
      </trkpt>
      <trkpt lat="45.30859" lon="5.82471">
        <ele>1459</ele>
        <time>2018-01-22T18:35:53.000Z</time>
      </trkpt>
      <trkpt lat="45.30859" lon="5.82471">
        <ele>1459</ele>
        <time>2018-01-22T18:35:54.000Z</time>
      </trkpt>
      <trkpt lat="45.30859" lon="5.82471">
        <ele>1459</ele>
        <time>2018-01-22T18:35:55.000Z</time>
      </trkpt>
      <trkpt lat="45.30866" lon="5.82538">
        <ele>1459</ele>
        <time>2018-01-22T18:35:56.000Z</time>
      </trkpt>
      <trkpt lat="45.30866" lon="5.82538">
        <ele>1459</ele>
        <time>2018-01-22T18:35:57.000Z</time>
      </trkpt>
      <trkpt lat="45.30866" lon="5.82538">
        <ele>1459</ele>
        <time>2018-01-22T18:35:58.000Z</time>
      </trkpt>
      <trkpt lat="45.30866" lon="5.82538">
        <ele>1459</ele>
        <time>2018-01-22T18:35:59.000Z</time>
      </trkpt>
      <trkpt lat="45.30877" lon="5.82596">
        <ele>1483</ele>
        <time>2018-01-22T18:36:00.000Z</time>
      </trkpt>
      <trkpt lat="45.30877" lon="5.82596">
        <ele>1483</ele>
        <time>2018-01-22T18:36:01.000Z</time>
      </trkpt>
      <trkpt lat="45.30877" lon="5.82596">
        <ele>1483</ele>
        <time>2018-01-22T18:36:02.000Z</time>
      </trkpt>
      <trkpt lat="45.30877" lon="5.82596">
        <ele>1483</ele>
        <time>2018-01-22T18:36:03.000Z</time>
      </trkpt>
      <trkpt lat="45.30936" lon="5.82663">
        <ele>1492</ele>
        <time>2018-01-22T18:36:04.000Z</time>
      </trkpt>
      <trkpt lat="45.30936" lon="5.82663">
        <ele>1492</ele>
        <time>2018-01-22T18:36:05.000Z</time>
      </trkpt>
      <trkpt lat="45.30936" lon="5.82663">
        <ele>1492</ele>
        <time>2018-01-22T18:36:06.000Z</time>
      </trkpt>
      <trkpt lat="45.30936" lon="5.82663">
        <ele>1492</ele>
        <time>2018-01-22T18:36:07.000Z</time>
      </trkpt>
      <trkpt lat="45.30961" lon="5.82728">
        <ele>1524</ele>
        <time>2018-01-22T18:36:08.000Z</time>
      </trkpt>
      <trkpt lat="45.30961" lon="5.82728">
        <ele>1524</ele>
        <time>2018-01-22T18:36:09.000Z</time>
      </trkpt>
      <trkpt lat="45.30961" lon="5.82728">
        <ele>1524</ele>
        <time>2018-01-22T18:36:10.000Z</time>
      </trkpt>
      <trkpt lat="45.30961" lon="5.82728">
        <ele>1524</ele>
        <time>2018-01-22T18:36:11.000Z</time>
      </trkpt>
      <trkpt lat="45.30991" lon="5.82727">
        <ele>1524</ele>
        <time>2018-01-22T18:36:12.000Z</time>
      </trkpt>
      <trkpt lat="45.30991" lon="5.82727">
        <ele>1524</ele>
        <time>2018-01-22T18:36:13.000Z</time>
      </trkpt>
      <trkpt lat="45.30991" lon="5.82727">
        <ele>1524</ele>
        <time>2018-01-22T18:36:14.000Z</time>
      </trkpt>
      <trkpt lat="45.30991" lon="5.82727">
        <ele>1524</ele>
        <time>2018-01-22T18:36:15.000Z</time>
      </trkpt>
      <trkpt lat="45.31005" lon="5.82756">
        <ele>1524</ele>
        <time>2018-01-22T18:36:16.000Z</time>
      </trkpt>
      <trkpt lat="45.31005" lon="5.82756">
        <ele>1524</ele>
        <time>2018-01-22T18:36:17.000Z</time>
      </trkpt>
      <trkpt lat="45.31005" lon="5.82756">
        <ele>1524</ele>
        <time>2018-01-22T18:36:18.000Z</time>
      </trkpt>
      <trkpt lat="45.31005" lon="5.82756">
        <ele>1524</ele>
        <time>2018-01-22T18:36:19.000Z</time>
      </trkpt>
      <trkpt lat="45.30994" lon="5.82786">
        <ele>1524</ele>
        <time>2018-01-22T18:36:20.000Z</time>
      </trkpt>
      <trkpt lat="45.30994" lon="5.82786">
        <ele>1524</ele>
        <time>2018-01-22T18:36:21.000Z</time>
      </trkpt>
      <trkpt lat="45.30994" lon="5.82786">
        <ele>1524</ele>
        <time>2018-01-22T18:36:22.000Z</time>
      </trkpt>
      <trkpt lat="45.30994" lon="5.82786">
        <ele>1524</ele>
        <time>2018-01-22T18:36:23.000Z</time>
      </trkpt>
      <trkpt lat="45.31006" lon="5.82826">
        <ele>1536</ele>
        <time>2018-01-22T18:36:24.000Z</time>
      </trkpt>
      <trkpt lat="45.31006" lon="5.82826">
        <ele>1536</ele>
        <time>2018-01-22T18:36:25.000Z</time>
      </trkpt>
      <trkpt lat="45.31006" lon="5.82826">
        <ele>1536</ele>
        <time>2018-01-22T18:36:26.000Z</time>
      </trkpt>
      <trkpt lat="45.31006" lon="5.82826">
        <ele>1536</ele>
        <time>2018-01-22T18:36:27.000Z</time>
      </trkpt>
      <trkpt lat="45.31056" lon="5.82886">
        <ele>1561</ele>
        <time>2018-01-22T18:36:28.000Z</time>
      </trkpt>
      <trkpt lat="45.31056" lon="5.82886">
        <ele>1561</ele>
        <time>2018-01-22T18:36:29.000Z</time>
      </trkpt>
      <trkpt lat="45.31056" lon="5.82886">
        <ele>1561</ele>
        <time>2018-01-22T18:36:30.000Z</time>
      </trkpt>
      <trkpt lat="45.31056" lon="5.82886">
        <ele>1561</ele>
        <time>2018-01-22T18:36:31.000Z</time>
      </trkpt>
      <trkpt lat="45.31049" lon="5.82897">
        <ele>1561</ele>
        <time>2018-01-22T18:36:32.000Z</time>
      </trkpt>
      <trkpt lat="45.31049" lon="5.82897">
        <ele>1561</ele>
        <time>2018-01-22T18:36:33.000Z</time>
      </trkpt>
      <trkpt lat="45.31049" lon="5.82897">
        <ele>1561</ele>
        <time>2018-01-22T18:36:34.000Z</time>
      </trkpt>
      <trkpt lat="45.31049" lon="5.82897">
        <ele>1561</ele>
        <time>2018-01-22T18:36:35.000Z</time>
      </trkpt>
      <trkpt lat="45.3103" lon="5.82901">
        <ele>1544</ele>
        <time>2018-01-22T18:36:36.000Z</time>
      </trkpt>
      <trkpt lat="45.3103" lon="5.82901">
        <ele>1544</ele>
        <time>2018-01-22T18:36:37.000Z</time>
      </trkpt>
      <trkpt lat="45.3103" lon="5.82901">
        <ele>1544</ele>
        <time>2018-01-22T18:36:38.000Z</time>
      </trkpt>
      <trkpt lat="45.3103" lon="5.82901">
        <ele>1544</ele>
        <time>2018-01-22T18:36:39.000Z</time>
      </trkpt>
      <trkpt lat="45.30993" lon="5.82933">
        <ele>1544</ele>
        <time>2018-01-22T18:36:40.000Z</time>
      </trkpt>
      <trkpt lat="45.30993" lon="5.82933">
        <ele>1544</ele>
        <time>2018-01-22T18:36:41.000Z</time>
      </trkpt>
      <trkpt lat="45.30993" lon="5.82933">
        <ele>1544</ele>
        <time>2018-01-22T18:36:42.000Z</time>
      </trkpt>
      <trkpt lat="45.30993" lon="5.82933">
        <ele>1544</ele>
        <time>2018-01-22T18:36:43.000Z</time>
      </trkpt>
      <trkpt lat="45.3094" lon="5.82938">
        <ele>1536</ele>
        <time>2018-01-22T18:36:44.000Z</time>
      </trkpt>
      <trkpt lat="45.3094" lon="5.82938">
        <ele>1536</ele>
        <time>2018-01-22T18:36:45.000Z</time>
      </trkpt>
      <trkpt lat="45.3094" lon="5.82938">
        <ele>1536</ele>
        <time>2018-01-22T18:36:46.000Z</time>
      </trkpt>
      <trkpt lat="45.3094" lon="5.82938">
        <ele>1536</ele>
        <time>2018-01-22T18:36:47.000Z</time>
      </trkpt>
      <trkpt lat="45.30882" lon="5.82923">
        <ele>1536</ele>
        <time>2018-01-22T18:36:48.000Z</time>
      </trkpt>
      <trkpt lat="45.30882" lon="5.82923">
        <ele>1536</ele>
        <time>2018-01-22T18:36:49.000Z</time>
      </trkpt>
      <trkpt lat="45.30882" lon="5.82923">
        <ele>1536</ele>
        <time>2018-01-22T18:36:50.000Z</time>
      </trkpt>
      <trkpt lat="45.30882" lon="5.82923">
        <ele>1536</ele>
        <time>2018-01-22T18:36:51.000Z</time>
      </trkpt>
      <trkpt lat="45.30828" lon="5.82949">
        <ele>1516</ele>
        <time>2018-01-22T18:36:52.000Z</time>
      </trkpt>
      <trkpt lat="45.30828" lon="5.82949">
        <ele>1516</ele>
        <time>2018-01-22T18:36:53.000Z</time>
      </trkpt>
      <trkpt lat="45.30828" lon="5.82949">
        <ele>1516</ele>
        <time>2018-01-22T18:36:54.000Z</time>
      </trkpt>
      <trkpt lat="45.30828" lon="5.82949">
        <ele>1516</ele>
        <time>2018-01-22T18:36:55.000Z</time>
      </trkpt>
      <trkpt lat="45.30806" lon="5.82987">
        <ele>1524</ele>
        <time>2018-01-22T18:36:56.000Z</time>
      </trkpt>
      <trkpt lat="45.30806" lon="5.82987">
        <ele>1524</ele>
        <time>2018-01-22T18:36:57.000Z</time>
      </trkpt>
      <trkpt lat="45.30806" lon="5.82987">
        <ele>1524</ele>
        <time>2018-01-22T18:36:58.000Z</time>
      </trkpt>
      <trkpt lat="45.30806" lon="5.82987">
        <ele>1524</ele>
        <time>2018-01-22T18:36:59.000Z</time>
      </trkpt>
      <trkpt lat="45.30774" lon="5.83146">
        <ele>1501</ele>
        <time>2018-01-22T18:37:00.000Z</time>
      </trkpt>
      <trkpt lat="45.30774" lon="5.83146">
        <ele>1501</ele>
        <time>2018-01-22T18:37:01.000Z</time>
      </trkpt>
      <trkpt lat="45.30774" lon="5.83146">
        <ele>1501</ele>
        <time>2018-01-22T18:37:02.000Z</time>
      </trkpt>
      <trkpt lat="45.30774" lon="5.83146">
        <ele>1501</ele>
        <time>2018-01-22T18:37:03.000Z</time>
      </trkpt>
      <trkpt lat="45.30737" lon="5.83177">
        <ele>1501</ele>
        <time>2018-01-22T18:37:04.000Z</time>
      </trkpt>
      <trkpt lat="45.30737" lon="5.83177">
        <ele>1501</ele>
        <time>2018-01-22T18:37:05.000Z</time>
      </trkpt>
      <trkpt lat="45.30737" lon="5.83177">
        <ele>1501</ele>
        <time>2018-01-22T18:37:06.000Z</time>
      </trkpt>
      <trkpt lat="45.30737" lon="5.83177">
        <ele>1501</ele>
        <time>2018-01-22T18:37:07.000Z</time>
      </trkpt>
      <trkpt lat="45.30669" lon="5.83256">
        <ele>1488</ele>
        <time>2018-01-22T18:37:08.000Z</time>
      </trkpt>
      <trkpt lat="45.30669" lon="5.83256">
        <ele>1488</ele>
        <time>2018-01-22T18:37:09.000Z</time>
      </trkpt>
      <trkpt lat="45.30669" lon="5.83256">
        <ele>1488</ele>
        <time>2018-01-22T18:37:10.000Z</time>
      </trkpt>
      <trkpt lat="45.30669" lon="5.83256">
        <ele>1488</ele>
        <time>2018-01-22T18:37:11.000Z</time>
      </trkpt>
      <trkpt lat="45.30427" lon="5.83415">
        <ele>1445</ele>
        <time>2018-01-22T18:37:12.000Z</time>
      </trkpt>
      <trkpt lat="45.30427" lon="5.83415">
        <ele>1445</ele>
        <time>2018-01-22T18:37:13.000Z</time>
      </trkpt>
      <trkpt lat="45.30427" lon="5.83415">
        <ele>1445</ele>
        <time>2018-01-22T18:37:14.000Z</time>
      </trkpt>
      <trkpt lat="45.30427" lon="5.83415">
        <ele>1445</ele>
        <time>2018-01-22T18:37:15.000Z</time>
      </trkpt>
      <trkpt lat="45.3042" lon="5.83414">
        <ele>1445</ele>
        <time>2018-01-22T18:37:16.000Z</time>
      </trkpt>
      <trkpt lat="45.3042" lon="5.83414">
        <ele>1445</ele>
        <time>2018-01-22T18:37:17.000Z</time>
      </trkpt>
      <trkpt lat="45.3042" lon="5.83414">
        <ele>1445</ele>
        <time>2018-01-22T18:37:18.000Z</time>
      </trkpt>
      <trkpt lat="45.3042" lon="5.83414">
        <ele>1445</ele>
        <time>2018-01-22T18:37:19.000Z</time>
      </trkpt>
      <trkpt lat="45.30369" lon="5.8348">
        <ele>1432</ele>
        <time>2018-01-22T18:37:20.000Z</time>
      </trkpt>
      <trkpt lat="45.30369" lon="5.8348">
        <ele>1432</ele>
        <time>2018-01-22T18:37:21.000Z</time>
      </trkpt>
      <trkpt lat="45.30369" lon="5.8348">
        <ele>1432</ele>
        <time>2018-01-22T18:37:22.000Z</time>
      </trkpt>
      <trkpt lat="45.30369" lon="5.8348">
        <ele>1432</ele>
        <time>2018-01-22T18:37:23.000Z</time>
      </trkpt>
      <trkpt lat="45.30283" lon="5.83599">
        <ele>1435</ele>
        <time>2018-01-22T18:37:24.000Z</time>
      </trkpt>
      <trkpt lat="45.30283" lon="5.83599">
        <ele>1435</ele>
        <time>2018-01-22T18:37:25.000Z</time>
      </trkpt>
      <trkpt lat="45.30283" lon="5.83599">
        <ele>1435</ele>
        <time>2018-01-22T18:37:26.000Z</time>
      </trkpt>
      <trkpt lat="45.30283" lon="5.83599">
        <ele>1435</ele>
        <time>2018-01-22T18:37:27.000Z</time>
      </trkpt>
      <trkpt lat="45.30244" lon="5.83549">
        <ele>1435</ele>
        <time>2018-01-22T18:37:28.000Z</time>
      </trkpt>
      <trkpt lat="45.30244" lon="5.83549">
        <ele>1435</ele>
        <time>2018-01-22T18:37:29.000Z</time>
      </trkpt>
      <trkpt lat="45.30244" lon="5.83549">
        <ele>1435</ele>
        <time>2018-01-22T18:37:30.000Z</time>
      </trkpt>
      <trkpt lat="45.30244" lon="5.83549">
        <ele>1435</ele>
        <time>2018-01-22T18:37:31.000Z</time>
      </trkpt>
      <trkpt lat="45.30195" lon="5.83519">
        <ele>1428</ele>
        <time>2018-01-22T18:37:32.000Z</time>
      </trkpt>
      <trkpt lat="45.30195" lon="5.83519">
        <ele>1428</ele>
        <time>2018-01-22T18:37:33.000Z</time>
      </trkpt>
      <trkpt lat="45.30195" lon="5.83519">
        <ele>1428</ele>
        <time>2018-01-22T18:37:34.000Z</time>
      </trkpt>
      <trkpt lat="45.30195" lon="5.83519">
        <ele>1428</ele>
        <time>2018-01-22T18:37:35.000Z</time>
      </trkpt>
      <trkpt lat="45.30169" lon="5.83406">
        <ele>1405</ele>
        <time>2018-01-22T18:37:36.000Z</time>
      </trkpt>
      <trkpt lat="45.30169" lon="5.83406">
        <ele>1405</ele>
        <time>2018-01-22T18:37:37.000Z</time>
      </trkpt>
      <trkpt lat="45.30169" lon="5.83406">
        <ele>1405</ele>
        <time>2018-01-22T18:37:38.000Z</time>
      </trkpt>
      <trkpt lat="45.30169" lon="5.83406">
        <ele>1405</ele>
        <time>2018-01-22T18:37:39.000Z</time>
      </trkpt>
      <trkpt lat="45.30214" lon="5.83436">
        <ele>1397</ele>
        <time>2018-01-22T18:37:40.000Z</time>
      </trkpt>
      <trkpt lat="45.30214" lon="5.83436">
        <ele>1397</ele>
        <time>2018-01-22T18:37:41.000Z</time>
      </trkpt>
      <trkpt lat="45.30214" lon="5.83436">
        <ele>1397</ele>
        <time>2018-01-22T18:37:42.000Z</time>
      </trkpt>
      <trkpt lat="45.30214" lon="5.83436">
        <ele>1397</ele>
        <time>2018-01-22T18:37:43.000Z</time>
      </trkpt>
      <trkpt lat="45.30291" lon="5.83378">
        <ele>1397</ele>
        <time>2018-01-22T18:37:44.000Z</time>
      </trkpt>
      <trkpt lat="45.30291" lon="5.83378">
        <ele>1397</ele>
        <time>2018-01-22T18:37:45.000Z</time>
      </trkpt>
      <trkpt lat="45.30291" lon="5.83378">
        <ele>1397</ele>
        <time>2018-01-22T18:37:46.000Z</time>
      </trkpt>
      <trkpt lat="45.30291" lon="5.83378">
        <ele>1397</ele>
        <time>2018-01-22T18:37:47.000Z</time>
      </trkpt>
      <trkpt lat="45.30316" lon="5.83345">
        <ele>1388</ele>
        <time>2018-01-22T18:37:48.000Z</time>
      </trkpt>
      <trkpt lat="45.30316" lon="5.83345">
        <ele>1388</ele>
        <time>2018-01-22T18:37:49.000Z</time>
      </trkpt>
      <trkpt lat="45.30316" lon="5.83345">
        <ele>1388</ele>
        <time>2018-01-22T18:37:50.000Z</time>
      </trkpt>
      <trkpt lat="45.30316" lon="5.83345">
        <ele>1388</ele>
        <time>2018-01-22T18:37:51.000Z</time>
      </trkpt>
      <trkpt lat="45.30385" lon="5.83295">
        <ele>1415</ele>
        <time>2018-01-22T18:37:52.000Z</time>
      </trkpt>
      <trkpt lat="45.30385" lon="5.83295">
        <ele>1415</ele>
        <time>2018-01-22T18:37:53.000Z</time>
      </trkpt>
      <trkpt lat="45.30385" lon="5.83295">
        <ele>1415</ele>
        <time>2018-01-22T18:37:54.000Z</time>
      </trkpt>
      <trkpt lat="45.30385" lon="5.83295">
        <ele>1415</ele>
        <time>2018-01-22T18:37:55.000Z</time>
      </trkpt>
      <trkpt lat="45.3039" lon="5.83216">
        <ele>1388</ele>
        <time>2018-01-22T18:37:56.000Z</time>
      </trkpt>
      <trkpt lat="45.3039" lon="5.83216">
        <ele>1388</ele>
        <time>2018-01-22T18:37:57.000Z</time>
      </trkpt>
      <trkpt lat="45.3039" lon="5.83216">
        <ele>1388</ele>
        <time>2018-01-22T18:37:58.000Z</time>
      </trkpt>
      <trkpt lat="45.3039" lon="5.83216">
        <ele>1388</ele>
        <time>2018-01-22T18:37:59.000Z</time>
      </trkpt>
      <trkpt lat="45.30449" lon="5.83001">
        <ele>1346</ele>
        <time>2018-01-22T18:38:00.000Z</time>
      </trkpt>
      <trkpt lat="45.30449" lon="5.83001">
        <ele>1346</ele>
        <time>2018-01-22T18:38:01.000Z</time>
      </trkpt>
      <trkpt lat="45.30449" lon="5.83001">
        <ele>1346</ele>
        <time>2018-01-22T18:38:02.000Z</time>
      </trkpt>
      <trkpt lat="45.30449" lon="5.83001">
        <ele>1346</ele>
        <time>2018-01-22T18:38:03.000Z</time>
      </trkpt>
      <trkpt lat="45.30471" lon="5.82935">
        <ele>1350</ele>
        <time>2018-01-22T18:38:04.000Z</time>
      </trkpt>
      <trkpt lat="45.30471" lon="5.82935">
        <ele>1350</ele>
        <time>2018-01-22T18:38:05.000Z</time>
      </trkpt>
      <trkpt lat="45.30471" lon="5.82935">
        <ele>1350</ele>
        <time>2018-01-22T18:38:06.000Z</time>
      </trkpt>
      <trkpt lat="45.30471" lon="5.82935">
        <ele>1350</ele>
        <time>2018-01-22T18:38:07.000Z</time>
      </trkpt>
      <trkpt lat="45.30461" lon="5.8291">
        <ele>1350</ele>
        <time>2018-01-22T18:38:08.000Z</time>
      </trkpt>
      <trkpt lat="45.30461" lon="5.8291">
        <ele>1350</ele>
        <time>2018-01-22T18:38:09.000Z</time>
      </trkpt>
      <trkpt lat="45.30461" lon="5.8291">
        <ele>1350</ele>
        <time>2018-01-22T18:38:10.000Z</time>
      </trkpt>
      <trkpt lat="45.30461" lon="5.8291">
        <ele>1350</ele>
        <time>2018-01-22T18:38:11.000Z</time>
      </trkpt>
      <trkpt lat="45.30444" lon="5.82904">
        <ele>1338</ele>
        <time>2018-01-22T18:38:12.000Z</time>
      </trkpt>
      <trkpt lat="45.30444" lon="5.82904">
        <ele>1338</ele>
        <time>2018-01-22T18:38:13.000Z</time>
      </trkpt>
      <trkpt lat="45.30444" lon="5.82904">
        <ele>1338</ele>
        <time>2018-01-22T18:38:14.000Z</time>
      </trkpt>
      <trkpt lat="45.30444" lon="5.82904">
        <ele>1338</ele>
        <time>2018-01-22T18:38:15.000Z</time>
      </trkpt>
      <trkpt lat="45.30486" lon="5.82668">
        <ele>1309</ele>
        <time>2018-01-22T18:38:16.000Z</time>
      </trkpt>
      <trkpt lat="45.30486" lon="5.82668">
        <ele>1309</ele>
        <time>2018-01-22T18:38:17.000Z</time>
      </trkpt>
      <trkpt lat="45.30486" lon="5.82668">
        <ele>1309</ele>
        <time>2018-01-22T18:38:18.000Z</time>
      </trkpt>
      <trkpt lat="45.30486" lon="5.82668">
        <ele>1309</ele>
        <time>2018-01-22T18:38:19.000Z</time>
      </trkpt>
      <trkpt lat="45.30495" lon="5.8253">
        <ele>1298</ele>
        <time>2018-01-22T18:38:20.000Z</time>
      </trkpt>
      <trkpt lat="45.30495" lon="5.8253">
        <ele>1298</ele>
        <time>2018-01-22T18:38:21.000Z</time>
      </trkpt>
      <trkpt lat="45.30495" lon="5.8253">
        <ele>1298</ele>
        <time>2018-01-22T18:38:22.000Z</time>
      </trkpt>
      <trkpt lat="45.30495" lon="5.8253">
        <ele>1298</ele>
        <time>2018-01-22T18:38:23.000Z</time>
      </trkpt>
      <trkpt lat="45.3053" lon="5.8243">
        <ele>1294</ele>
        <time>2018-01-22T18:38:24.000Z</time>
      </trkpt>
      <trkpt lat="45.3053" lon="5.8243">
        <ele>1294</ele>
        <time>2018-01-22T18:38:25.000Z</time>
      </trkpt>
      <trkpt lat="45.3053" lon="5.8243">
        <ele>1294</ele>
        <time>2018-01-22T18:38:26.000Z</time>
      </trkpt>
      <trkpt lat="45.3053" lon="5.8243">
        <ele>1294</ele>
        <time>2018-01-22T18:38:27.000Z</time>
      </trkpt>
      <trkpt lat="45.30545" lon="5.82284">
        <ele>1274</ele>
        <time>2018-01-22T18:38:28.000Z</time>
      </trkpt>
      <trkpt lat="45.30545" lon="5.82284">
        <ele>1274</ele>
        <time>2018-01-22T18:38:29.000Z</time>
      </trkpt>
      <trkpt lat="45.30545" lon="5.82284">
        <ele>1274</ele>
        <time>2018-01-22T18:38:30.000Z</time>
      </trkpt>
      <trkpt lat="45.30545" lon="5.82284">
        <ele>1274</ele>
        <time>2018-01-22T18:38:31.000Z</time>
      </trkpt>
      <trkpt lat="45.30515" lon="5.82014">
        <ele>1237</ele>
        <time>2018-01-22T18:38:32.000Z</time>
      </trkpt>
      <trkpt lat="45.30515" lon="5.82014">
        <ele>1237</ele>
        <time>2018-01-22T18:38:33.000Z</time>
      </trkpt>
      <trkpt lat="45.30515" lon="5.82014">
        <ele>1237</ele>
        <time>2018-01-22T18:38:34.000Z</time>
      </trkpt>
      <trkpt lat="45.30515" lon="5.82014">
        <ele>1237</ele>
        <time>2018-01-22T18:38:35.000Z</time>
      </trkpt>
      <trkpt lat="45.305" lon="5.81955">
        <ele>1229</ele>
        <time>2018-01-22T18:38:36.000Z</time>
      </trkpt>
      <trkpt lat="45.305" lon="5.81955">
        <ele>1229</ele>
        <time>2018-01-22T18:38:37.000Z</time>
      </trkpt>
      <trkpt lat="45.305" lon="5.81955">
        <ele>1229</ele>
        <time>2018-01-22T18:38:38.000Z</time>
      </trkpt>
      <trkpt lat="45.305" lon="5.81955">
        <ele>1229</ele>
        <time>2018-01-22T18:38:39.000Z</time>
      </trkpt>
      <trkpt lat="45.30512" lon="5.81848">
        <ele>1214</ele>
        <time>2018-01-22T18:38:40.000Z</time>
      </trkpt>
      <trkpt lat="45.30512" lon="5.81848">
        <ele>1214</ele>
        <time>2018-01-22T18:38:41.000Z</time>
      </trkpt>
      <trkpt lat="45.30512" lon="5.81848">
        <ele>1214</ele>
        <time>2018-01-22T18:38:42.000Z</time>
      </trkpt>
      <trkpt lat="45.30512" lon="5.81848">
        <ele>1214</ele>
        <time>2018-01-22T18:38:43.000Z</time>
      </trkpt>
      <trkpt lat="45.3065" lon="5.81572">
        <ele>1143</ele>
        <time>2018-01-22T18:38:44.000Z</time>
      </trkpt>
      <trkpt lat="45.3065" lon="5.81572">
        <ele>1143</ele>
        <time>2018-01-22T18:38:45.000Z</time>
      </trkpt>
      <trkpt lat="45.3065" lon="5.81572">
        <ele>1143</ele>
        <time>2018-01-22T18:38:46.000Z</time>
      </trkpt>
      <trkpt lat="45.3065" lon="5.81572">
        <ele>1143</ele>
        <time>2018-01-22T18:38:47.000Z</time>
      </trkpt>
      <trkpt lat="45.30631" lon="5.81417">
        <ele>1116</ele>
        <time>2018-01-22T18:38:48.000Z</time>
      </trkpt>
      <trkpt lat="45.30631" lon="5.81417">
        <ele>1116</ele>
        <time>2018-01-22T18:38:49.000Z</time>
      </trkpt>
      <trkpt lat="45.30631" lon="5.81417">
        <ele>1116</ele>
        <time>2018-01-22T18:38:50.000Z</time>
      </trkpt>
      <trkpt lat="45.30631" lon="5.81417">
        <ele>1116</ele>
        <time>2018-01-22T18:38:51.000Z</time>
      </trkpt>
      <trkpt lat="45.30651" lon="5.81355">
        <ele>1096</ele>
        <time>2018-01-22T18:38:52.000Z</time>
      </trkpt>
      <trkpt lat="45.30651" lon="5.81355">
        <ele>1096</ele>
        <time>2018-01-22T18:38:53.000Z</time>
      </trkpt>
      <trkpt lat="45.30651" lon="5.81355">
        <ele>1096</ele>
        <time>2018-01-22T18:38:54.000Z</time>
      </trkpt>
      <trkpt lat="45.30651" lon="5.81355">
        <ele>1096</ele>
        <time>2018-01-22T18:38:55.000Z</time>
      </trkpt>
      <trkpt lat="45.30675" lon="5.81359">
        <ele>1096</ele>
        <time>2018-01-22T18:38:56.000Z</time>
      </trkpt>
      <trkpt lat="45.30675" lon="5.81359">
        <ele>1096</ele>
        <time>2018-01-22T18:38:57.000Z</time>
      </trkpt>
      <trkpt lat="45.30675" lon="5.81359">
        <ele>1096</ele>
        <time>2018-01-22T18:38:58.000Z</time>
      </trkpt>
      <trkpt lat="45.30675" lon="5.81359">
        <ele>1096</ele>
        <time>2018-01-22T18:38:59.000Z</time>
      </trkpt>
      <trkpt lat="45.30692" lon="5.81386">
        <ele>1116</ele>
        <time>2018-01-22T18:39:00.000Z</time>
      </trkpt>
      <trkpt lat="45.30692" lon="5.81386">
        <ele>1116</ele>
        <time>2018-01-22T18:39:01.000Z</time>
      </trkpt>
      <trkpt lat="45.30692" lon="5.81386">
        <ele>1116</ele>
        <time>2018-01-22T18:39:02.000Z</time>
      </trkpt>
      <trkpt lat="45.30692" lon="5.81386">
        <ele>1116</ele>
        <time>2018-01-22T18:39:03.000Z</time>
      </trkpt>
      <trkpt lat="45.30727" lon="5.81394">
        <ele>1100</ele>
        <time>2018-01-22T18:39:04.000Z</time>
      </trkpt>
      <trkpt lat="45.30727" lon="5.81394">
        <ele>1100</ele>
        <time>2018-01-22T18:39:05.000Z</time>
      </trkpt>
      <trkpt lat="45.30727" lon="5.81394">
        <ele>1100</ele>
        <time>2018-01-22T18:39:06.000Z</time>
      </trkpt>
      <trkpt lat="45.30727" lon="5.81394">
        <ele>1100</ele>
        <time>2018-01-22T18:39:07.000Z</time>
      </trkpt>
      <trkpt lat="45.3078" lon="5.8134">
        <ele>1070</ele>
        <time>2018-01-22T18:39:08.000Z</time>
      </trkpt>
      <trkpt lat="45.3078" lon="5.8134">
        <ele>1070</ele>
        <time>2018-01-22T18:39:09.000Z</time>
      </trkpt>
      <trkpt lat="45.3078" lon="5.8134">
        <ele>1070</ele>
        <time>2018-01-22T18:39:10.000Z</time>
      </trkpt>
      <trkpt lat="45.3078" lon="5.8134">
        <ele>1070</ele>
        <time>2018-01-22T18:39:11.000Z</time>
      </trkpt>
      <trkpt lat="45.30881" lon="5.81283">
        <ele>1044</ele>
        <time>2018-01-22T18:39:12.000Z</time>
      </trkpt>
      <trkpt lat="45.30881" lon="5.81283">
        <ele>1044</ele>
        <time>2018-01-22T18:39:13.000Z</time>
      </trkpt>
      <trkpt lat="45.30881" lon="5.81283">
        <ele>1044</ele>
        <time>2018-01-22T18:39:14.000Z</time>
      </trkpt>
      <trkpt lat="45.30881" lon="5.81283">
        <ele>1044</ele>
        <time>2018-01-22T18:39:15.000Z</time>
      </trkpt>
      <trkpt lat="45.30926" lon="5.81211">
        <ele>1044</ele>
        <time>2018-01-22T18:39:16.000Z</time>
      </trkpt>
      <trkpt lat="45.30926" lon="5.81211">
        <ele>1044</ele>
        <time>2018-01-22T18:39:17.000Z</time>
      </trkpt>
      <trkpt lat="45.30926" lon="5.81211">
        <ele>1044</ele>
        <time>2018-01-22T18:39:18.000Z</time>
      </trkpt>
      <trkpt lat="45.30926" lon="5.81211">
        <ele>1044</ele>
        <time>2018-01-22T18:39:19.000Z</time>
      </trkpt>
      <trkpt lat="45.31041" lon="5.81127">
        <ele>1019</ele>
        <time>2018-01-22T18:39:20.000Z</time>
      </trkpt>
      <trkpt lat="45.31041" lon="5.81127">
        <ele>1019</ele>
        <time>2018-01-22T18:39:21.000Z</time>
      </trkpt>
      <trkpt lat="45.31041" lon="5.81127">
        <ele>1019</ele>
        <time>2018-01-22T18:39:22.000Z</time>
      </trkpt>
      <trkpt lat="45.31041" lon="5.81127">
        <ele>1019</ele>
        <time>2018-01-22T18:39:23.000Z</time>
      </trkpt>
      <trkpt lat="45.31077" lon="5.81117">
        <ele>982</ele>
        <time>2018-01-22T18:39:24.000Z</time>
      </trkpt>
      <trkpt lat="45.31077" lon="5.81117">
        <ele>982</ele>
        <time>2018-01-22T18:39:25.000Z</time>
      </trkpt>
      <trkpt lat="45.31077" lon="5.81117">
        <ele>982</ele>
        <time>2018-01-22T18:39:26.000Z</time>
      </trkpt>
      <trkpt lat="45.31077" lon="5.81117">
        <ele>982</ele>
        <time>2018-01-22T18:39:27.000Z</time>
      </trkpt>
      <trkpt lat="45.31098" lon="5.81081">
        <ele>982</ele>
        <time>2018-01-22T18:39:28.000Z</time>
      </trkpt>
      <trkpt lat="45.31098" lon="5.81081">
        <ele>982</ele>
        <time>2018-01-22T18:39:29.000Z</time>
      </trkpt>
      <trkpt lat="45.31098" lon="5.81081">
        <ele>982</ele>
        <time>2018-01-22T18:39:30.000Z</time>
      </trkpt>
      <trkpt lat="45.31098" lon="5.81081">
        <ele>982</ele>
        <time>2018-01-22T18:39:31.000Z</time>
      </trkpt>
      <trkpt lat="45.31139" lon="5.81049">
        <ele>976</ele>
        <time>2018-01-22T18:39:32.000Z</time>
      </trkpt>
      <trkpt lat="45.31139" lon="5.81049">
        <ele>976</ele>
        <time>2018-01-22T18:39:33.000Z</time>
      </trkpt>
      <trkpt lat="45.31139" lon="5.81049">
        <ele>976</ele>
        <time>2018-01-22T18:39:34.000Z</time>
      </trkpt>
      <trkpt lat="45.31139" lon="5.81049">
        <ele>976</ele>
        <time>2018-01-22T18:39:35.000Z</time>
      </trkpt>
      <trkpt lat="45.31154" lon="5.80999">
        <ele>963</ele>
        <time>2018-01-22T18:39:36.000Z</time>
      </trkpt>
      <trkpt lat="45.31154" lon="5.80999">
        <ele>963</ele>
        <time>2018-01-22T18:39:37.000Z</time>
      </trkpt>
      <trkpt lat="45.31154" lon="5.80999">
        <ele>963</ele>
        <time>2018-01-22T18:39:38.000Z</time>
      </trkpt>
      <trkpt lat="45.31154" lon="5.80999">
        <ele>963</ele>
        <time>2018-01-22T18:39:39.000Z</time>
      </trkpt>
      <trkpt lat="45.31126" lon="5.80961">
        <ele>963</ele>
        <time>2018-01-22T18:39:40.000Z</time>
      </trkpt>
      <trkpt lat="45.31126" lon="5.80961">
        <ele>963</ele>
        <time>2018-01-22T18:39:41.000Z</time>
      </trkpt>
      <trkpt lat="45.31126" lon="5.80961">
        <ele>963</ele>
        <time>2018-01-22T18:39:42.000Z</time>
      </trkpt>
      <trkpt lat="45.31126" lon="5.80961">
        <ele>963</ele>
        <time>2018-01-22T18:39:43.000Z</time>
      </trkpt>
      <trkpt lat="45.3113" lon="5.80948">
        <ele>960</ele>
        <time>2018-01-22T18:39:44.000Z</time>
      </trkpt>
      <trkpt lat="45.3113" lon="5.80948">
        <ele>960</ele>
        <time>2018-01-22T18:39:45.000Z</time>
      </trkpt>
      <trkpt lat="45.3113" lon="5.80948">
        <ele>960</ele>
        <time>2018-01-22T18:39:46.000Z</time>
      </trkpt>
      <trkpt lat="45.3113" lon="5.80948">
        <ele>960</ele>
        <time>2018-01-22T18:39:47.000Z</time>
      </trkpt>
      <trkpt lat="45.31173" lon="5.80912">
        <ele>960</ele>
        <time>2018-01-22T18:39:48.000Z</time>
      </trkpt>
      <trkpt lat="45.31173" lon="5.80912">
        <ele>960</ele>
        <time>2018-01-22T18:39:49.000Z</time>
      </trkpt>
      <trkpt lat="45.31173" lon="5.80912">
        <ele>960</ele>
        <time>2018-01-22T18:39:50.000Z</time>
      </trkpt>
      <trkpt lat="45.31173" lon="5.80912">
        <ele>960</ele>
        <time>2018-01-22T18:39:51.000Z</time>
      </trkpt>
      <trkpt lat="45.31179" lon="5.80684">
        <ele>958</ele>
        <time>2018-01-22T18:39:52.000Z</time>
      </trkpt>
      <trkpt lat="45.31179" lon="5.80684">
        <ele>958</ele>
        <time>2018-01-22T18:39:53.000Z</time>
      </trkpt>
      <trkpt lat="45.31179" lon="5.80684">
        <ele>958</ele>
        <time>2018-01-22T18:39:54.000Z</time>
      </trkpt>
      <trkpt lat="45.31179" lon="5.80684">
        <ele>958</ele>
        <time>2018-01-22T18:39:55.000Z</time>
      </trkpt>
      <trkpt lat="45.31248" lon="5.80675">
        <ele>949</ele>
        <time>2018-01-22T18:39:56.000Z</time>
      </trkpt>
      <trkpt lat="45.31248" lon="5.80675">
        <ele>949</ele>
        <time>2018-01-22T18:39:57.000Z</time>
      </trkpt>
      <trkpt lat="45.31248" lon="5.80675">
        <ele>949</ele>
        <time>2018-01-22T18:39:58.000Z</time>
      </trkpt>
      <trkpt lat="45.31248" lon="5.80675">
        <ele>949</ele>
        <time>2018-01-22T18:39:59.000Z</time>
      </trkpt>
      <trkpt lat="45.31329" lon="5.80669">
        <ele>939</ele>
        <time>2018-01-22T18:40:00.000Z</time>
      </trkpt>
      <trkpt lat="45.31329" lon="5.80669">
        <ele>939</ele>
        <time>2018-01-22T18:40:01.000Z</time>
      </trkpt>
      <trkpt lat="45.31329" lon="5.80669">
        <ele>939</ele>
        <time>2018-01-22T18:40:02.000Z</time>
      </trkpt>
      <trkpt lat="45.31329" lon="5.80669">
        <ele>939</ele>
        <time>2018-01-22T18:40:03.000Z</time>
      </trkpt>
      <trkpt lat="45.3136" lon="5.8065">
        <ele>939</ele>
        <time>2018-01-22T18:40:04.000Z</time>
      </trkpt>
      <trkpt lat="45.3136" lon="5.8065">
        <ele>939</ele>
        <time>2018-01-22T18:40:05.000Z</time>
      </trkpt>
      <trkpt lat="45.3136" lon="5.8065">
        <ele>939</ele>
        <time>2018-01-22T18:40:06.000Z</time>
      </trkpt>
      <trkpt lat="45.3136" lon="5.8065">
        <ele>939</ele>
        <time>2018-01-22T18:40:07.000Z</time>
      </trkpt>
      <trkpt lat="45.31365" lon="5.80628">
        <ele>939</ele>
        <time>2018-01-22T18:40:08.000Z</time>
      </trkpt>
      <trkpt lat="45.31365" lon="5.80628">
        <ele>939</ele>
        <time>2018-01-22T18:40:09.000Z</time>
      </trkpt>
      <trkpt lat="45.31365" lon="5.80628">
        <ele>939</ele>
        <time>2018-01-22T18:40:10.000Z</time>
      </trkpt>
      <trkpt lat="45.31365" lon="5.80628">
        <ele>939</ele>
        <time>2018-01-22T18:40:11.000Z</time>
      </trkpt>
      <trkpt lat="45.31377" lon="5.80609">
        <ele>929</ele>
        <time>2018-01-22T18:40:12.000Z</time>
      </trkpt>
      <trkpt lat="45.31388" lon="5.80587">
        <ele>929</ele>
        <time>2018-01-22T18:40:13.000Z</time>
      </trkpt>
      <trkpt lat="45.31388" lon="5.80587">
        <ele>929</ele>
        <time>2018-01-22T18:40:14.000Z</time>
      </trkpt>
      <trkpt lat="45.31388" lon="5.80587">
        <ele>929</ele>
        <time>2018-01-22T18:40:15.000Z</time>
      </trkpt>
      <trkpt lat="45.31388" lon="5.80587">
        <ele>929</ele>
        <time>2018-01-22T18:40:16.000Z</time>
      </trkpt>
      <trkpt lat="45.31419" lon="5.80557">
        <ele>929</ele>
        <time>2018-01-22T18:40:17.000Z</time>
      </trkpt>
      <trkpt lat="45.31419" lon="5.80557">
        <ele>929</ele>
        <time>2018-01-22T18:40:18.000Z</time>
      </trkpt>
      <trkpt lat="45.31419" lon="5.80557">
        <ele>929</ele>
        <time>2018-01-22T18:40:19.000Z</time>
      </trkpt>
      <trkpt lat="45.31419" lon="5.80557">
        <ele>929</ele>
        <time>2018-01-22T18:40:20.000Z</time>
      </trkpt>
      <trkpt lat="45.3148" lon="5.80528">
        <ele>923</ele>
        <time>2018-01-22T18:40:21.000Z</time>
      </trkpt>
      <trkpt lat="45.3148" lon="5.80528">
        <ele>923</ele>
        <time>2018-01-22T18:40:22.000Z</time>
      </trkpt>
      <trkpt lat="45.3148" lon="5.80528">
        <ele>923</ele>
        <time>2018-01-22T18:40:23.000Z</time>
      </trkpt>
      <trkpt lat="45.3148" lon="5.80528">
        <ele>923</ele>
        <time>2018-01-22T18:40:24.000Z</time>
      </trkpt>
      <trkpt lat="45.3148" lon="5.80529">
        <ele>923</ele>
        <time>2018-01-22T18:40:25.000Z</time>
      </trkpt>
      <trkpt lat="45.31474" lon="5.80499">
        <ele>923</ele>
        <time>2018-01-22T18:40:26.000Z</time>
      </trkpt>
      <trkpt lat="45.31463" lon="5.80463">
        <ele>923</ele>
        <time>2018-01-22T18:40:27.000Z</time>
      </trkpt>
      <trkpt lat="45.31462" lon="5.80437">
        <ele>939</ele>
        <time>2018-01-22T18:40:28.000Z</time>
      </trkpt>
      <trkpt lat="45.3146" lon="5.80419">
        <ele>939</ele>
        <time>2018-01-22T18:40:29.000Z</time>
      </trkpt>
      <trkpt lat="45.31485" lon="5.80401">
        <ele>939</ele>
        <time>2018-01-22T18:40:30.000Z</time>
      </trkpt>
      <trkpt lat="45.3152" lon="5.8039">
        <ele>939</ele>
        <time>2018-01-22T18:40:31.000Z</time>
      </trkpt>
      <trkpt lat="45.31538" lon="5.80357">
        <ele>960</ele>
        <time>2018-01-22T18:40:32.000Z</time>
      </trkpt>
      <trkpt lat="45.31523" lon="5.80326">
        <ele>960</ele>
        <time>2018-01-22T18:40:33.000Z</time>
      </trkpt>
      <trkpt lat="45.31523" lon="5.80326">
        <ele>960</ele>
        <time>2018-01-22T18:40:34.000Z</time>
      </trkpt>
      <trkpt lat="45.31523" lon="5.80326">
        <ele>960</ele>
        <time>2018-01-22T18:40:35.000Z</time>
      </trkpt>
      <trkpt lat="45.31523" lon="5.80326">
        <ele>960</ele>
        <time>2018-01-22T18:40:36.000Z</time>
      </trkpt>
      <trkpt lat="45.31523" lon="5.80326">
        <ele>960</ele>
        <time>2018-01-22T18:40:37.000Z</time>
      </trkpt>
      <trkpt lat="45.31506" lon="5.80328">
        <ele>960</ele>
        <time>2018-01-22T18:40:38.000Z</time>
      </trkpt>
      <trkpt lat="45.31474" lon="5.80295">
        <ele>960</ele>
        <time>2018-01-22T18:40:39.000Z</time>
      </trkpt>
      <trkpt lat="45.31452" lon="5.80274">
        <ele>980</ele>
        <time>2018-01-22T18:40:40.000Z</time>
      </trkpt>
      <trkpt lat="45.31425" lon="5.80249">
        <ele>980</ele>
        <time>2018-01-22T18:40:41.000Z</time>
      </trkpt>
      <trkpt lat="45.31391" lon="5.80243">
        <ele>980</ele>
        <time>2018-01-22T18:40:42.000Z</time>
      </trkpt>
      <trkpt lat="45.31357" lon="5.80248">
        <ele>995</ele>
        <time>2018-01-22T18:40:43.000Z</time>
      </trkpt>
      <trkpt lat="45.31357" lon="5.80248">
        <ele>995</ele>
        <time>2018-01-22T18:40:44.000Z</time>
      </trkpt>
      <trkpt lat="45.31357" lon="5.80248">
        <ele>995</ele>
        <time>2018-01-22T18:40:45.000Z</time>
      </trkpt>
      <trkpt lat="45.31357" lon="5.80248">
        <ele>995</ele>
        <time>2018-01-22T18:40:46.000Z</time>
      </trkpt>
      <trkpt lat="45.31347" lon="5.80249">
        <ele>995</ele>
        <time>2018-01-22T18:40:47.000Z</time>
      </trkpt>
      <trkpt lat="45.31325" lon="5.80234">
        <ele>995</ele>
        <time>2018-01-22T18:40:48.000Z</time>
      </trkpt>
      <trkpt lat="45.31303" lon="5.80219">
        <ele>995</ele>
        <time>2018-01-22T18:40:49.000Z</time>
      </trkpt>
      <trkpt lat="45.31278" lon="5.80201">
        <ele>1018</ele>
        <time>2018-01-22T18:40:50.000Z</time>
      </trkpt>
      <trkpt lat="45.31248" lon="5.80179">
        <ele>1018</ele>
        <time>2018-01-22T18:40:51.000Z</time>
      </trkpt>
      <trkpt lat="45.31227" lon="5.80157">
        <ele>1018</ele>
        <time>2018-01-22T18:40:52.000Z</time>
      </trkpt>
      <trkpt lat="45.31199" lon="5.8013">
        <ele>1041</ele>
        <time>2018-01-22T18:40:53.000Z</time>
      </trkpt>
      <trkpt lat="45.31168" lon="5.80103">
        <ele>1056</ele>
        <time>2018-01-22T18:40:54.000Z</time>
      </trkpt>
      <trkpt lat="45.31163" lon="5.801">
        <ele>1056</ele>
        <time>2018-01-22T18:40:55.000Z</time>
      </trkpt>
      <trkpt lat="45.31163" lon="5.801">
        <ele>1056</ele>
        <time>2018-01-22T18:40:56.000Z</time>
      </trkpt>
      <trkpt lat="45.31163" lon="5.801">
        <ele>1056</ele>
        <time>2018-01-22T18:40:57.000Z</time>
      </trkpt>
      <trkpt lat="45.31163" lon="5.801">
        <ele>1056</ele>
        <time>2018-01-22T18:40:58.000Z</time>
      </trkpt>
      <trkpt lat="45.31121" lon="5.80084">
        <ele>1068</ele>
        <time>2018-01-22T18:40:59.000Z</time>
      </trkpt>
      <trkpt lat="45.31121" lon="5.80084">
        <ele>1068</ele>
        <time>2018-01-22T18:41:00.000Z</time>
      </trkpt>
      <trkpt lat="45.31121" lon="5.80084">
        <ele>1068</ele>
        <time>2018-01-22T18:41:01.000Z</time>
      </trkpt>
      <trkpt lat="45.31121" lon="5.80084">
        <ele>1068</ele>
        <time>2018-01-22T18:41:02.000Z</time>
      </trkpt>
      <trkpt lat="45.31075" lon="5.80037">
        <ele>1076</ele>
        <time>2018-01-22T18:41:03.000Z</time>
      </trkpt>
      <trkpt lat="45.31075" lon="5.80037">
        <ele>1076</ele>
        <time>2018-01-22T18:41:04.000Z</time>
      </trkpt>
      <trkpt lat="45.31075" lon="5.80037">
        <ele>1076</ele>
        <time>2018-01-22T18:41:05.000Z</time>
      </trkpt>
      <trkpt lat="45.31075" lon="5.80037">
        <ele>1076</ele>
        <time>2018-01-22T18:41:06.000Z</time>
      </trkpt>
      <trkpt lat="45.31118" lon="5.80016">
        <ele>1076</ele>
        <time>2018-01-22T18:41:07.000Z</time>
      </trkpt>
      <trkpt lat="45.31118" lon="5.80016">
        <ele>1076</ele>
        <time>2018-01-22T18:41:08.000Z</time>
      </trkpt>
      <trkpt lat="45.31118" lon="5.80016">
        <ele>1076</ele>
        <time>2018-01-22T18:41:09.000Z</time>
      </trkpt>
      <trkpt lat="45.31118" lon="5.80016">
        <ele>1076</ele>
        <time>2018-01-22T18:41:10.000Z</time>
      </trkpt>
      <trkpt lat="45.31148" lon="5.79966">
        <ele>1057</ele>
        <time>2018-01-22T18:41:11.000Z</time>
      </trkpt>
      <trkpt lat="45.31148" lon="5.79966">
        <ele>1057</ele>
        <time>2018-01-22T18:41:12.000Z</time>
      </trkpt>
      <trkpt lat="45.31148" lon="5.79966">
        <ele>1057</ele>
        <time>2018-01-22T18:41:13.000Z</time>
      </trkpt>
      <trkpt lat="45.31148" lon="5.79966">
        <ele>1057</ele>
        <time>2018-01-22T18:41:14.000Z</time>
      </trkpt>
      <trkpt lat="45.31256" lon="5.79584">
        <ele>1058</ele>
        <time>2018-01-22T18:41:15.000Z</time>
      </trkpt>
      <trkpt lat="45.31256" lon="5.79584">
        <ele>1058</ele>
        <time>2018-01-22T18:41:16.000Z</time>
      </trkpt>
      <trkpt lat="45.31256" lon="5.79584">
        <ele>1058</ele>
        <time>2018-01-22T18:41:17.000Z</time>
      </trkpt>
      <trkpt lat="45.31256" lon="5.79584">
        <ele>1058</ele>
        <time>2018-01-22T18:41:18.000Z</time>
      </trkpt>
      <trkpt lat="45.31265" lon="5.79561">
        <ele>1058</ele>
        <time>2018-01-22T18:41:19.000Z</time>
      </trkpt>
      <trkpt lat="45.31265" lon="5.79561">
        <ele>1058</ele>
        <time>2018-01-22T18:41:20.000Z</time>
      </trkpt>
      <trkpt lat="45.31265" lon="5.79561">
        <ele>1058</ele>
        <time>2018-01-22T18:41:21.000Z</time>
      </trkpt>
      <trkpt lat="45.31265" lon="5.79561">
        <ele>1058</ele>
        <time>2018-01-22T18:41:22.000Z</time>
      </trkpt>
      <trkpt lat="45.31266" lon="5.79519">
        <ele>1058</ele>
        <time>2018-01-22T18:41:23.000Z</time>
      </trkpt>
      <trkpt lat="45.31266" lon="5.79519">
        <ele>1058</ele>
        <time>2018-01-22T18:41:24.000Z</time>
      </trkpt>
      <trkpt lat="45.31266" lon="5.79519">
        <ele>1058</ele>
        <time>2018-01-22T18:41:25.000Z</time>
      </trkpt>
      <trkpt lat="45.31266" lon="5.79519">
        <ele>1058</ele>
        <time>2018-01-22T18:41:26.000Z</time>
      </trkpt>
      <trkpt lat="45.31233" lon="5.79439">
        <ele>1053</ele>
        <time>2018-01-22T18:41:27.000Z</time>
      </trkpt>
      <trkpt lat="45.31233" lon="5.79439">
        <ele>1053</ele>
        <time>2018-01-22T18:41:28.000Z</time>
      </trkpt>
      <trkpt lat="45.31233" lon="5.79439">
        <ele>1053</ele>
        <time>2018-01-22T18:41:29.000Z</time>
      </trkpt>
      <trkpt lat="45.31233" lon="5.79439">
        <ele>1053</ele>
        <time>2018-01-22T18:41:30.000Z</time>
      </trkpt>
      <trkpt lat="45.31234" lon="5.79363">
        <ele>1061</ele>
        <time>2018-01-22T18:41:31.000Z</time>
      </trkpt>
      <trkpt lat="45.31234" lon="5.79363">
        <ele>1061</ele>
        <time>2018-01-22T18:41:32.000Z</time>
      </trkpt>
      <trkpt lat="45.31234" lon="5.79363">
        <ele>1061</ele>
        <time>2018-01-22T18:41:33.000Z</time>
      </trkpt>
      <trkpt lat="45.31234" lon="5.79363">
        <ele>1061</ele>
        <time>2018-01-22T18:41:34.000Z</time>
      </trkpt>
      <trkpt lat="45.31254" lon="5.79289">
        <ele>1069</ele>
        <time>2018-01-22T18:41:35.000Z</time>
      </trkpt>
      <trkpt lat="45.31254" lon="5.79289">
        <ele>1069</ele>
        <time>2018-01-22T18:41:36.000Z</time>
      </trkpt>
      <trkpt lat="45.31254" lon="5.79289">
        <ele>1069</ele>
        <time>2018-01-22T18:41:37.000Z</time>
      </trkpt>
      <trkpt lat="45.31254" lon="5.79289">
        <ele>1069</ele>
        <time>2018-01-22T18:41:38.000Z</time>
      </trkpt>
      <trkpt lat="45.31248" lon="5.79215">
        <ele>1069</ele>
        <time>2018-01-22T18:41:39.000Z</time>
      </trkpt>
      <trkpt lat="45.31248" lon="5.79215">
        <ele>1069</ele>
        <time>2018-01-22T18:41:40.000Z</time>
      </trkpt>
      <trkpt lat="45.31248" lon="5.79215">
        <ele>1069</ele>
        <time>2018-01-22T18:41:41.000Z</time>
      </trkpt>
      <trkpt lat="45.31248" lon="5.79215">
        <ele>1069</ele>
        <time>2018-01-22T18:41:42.000Z</time>
      </trkpt>
      <trkpt lat="45.3123" lon="5.79199">
        <ele>1060</ele>
        <time>2018-01-22T18:41:43.000Z</time>
      </trkpt>
      <trkpt lat="45.31207" lon="5.79174">
        <ele>1096</ele>
        <time>2018-01-22T18:41:44.000Z</time>
      </trkpt>
      <trkpt lat="45.31172" lon="5.79136">
        <ele>1096</ele>
        <time>2018-01-22T18:41:45.000Z</time>
      </trkpt>
      <trkpt lat="45.31162" lon="5.79094">
        <ele>1075</ele>
        <time>2018-01-22T18:41:46.000Z</time>
      </trkpt>
      <trkpt lat="45.31152" lon="5.79084">
        <ele>1075</ele>
        <time>2018-01-22T18:41:47.000Z</time>
      </trkpt>
      <trkpt lat="45.3112" lon="5.79058">
        <ele>1106</ele>
        <time>2018-01-22T18:41:48.000Z</time>
      </trkpt>
      <trkpt lat="45.31099" lon="5.79041">
        <ele>1084</ele>
        <time>2018-01-22T18:41:49.000Z</time>
      </trkpt>
      <trkpt lat="45.31079" lon="5.79024">
        <ele>1084</ele>
        <time>2018-01-22T18:41:50.000Z</time>
      </trkpt>
      <trkpt lat="45.31059" lon="5.78997">
        <ele>1084</ele>
        <time>2018-01-22T18:41:51.000Z</time>
      </trkpt>
      <trkpt lat="45.31081" lon="5.78986">
        <ele>1084</ele>
        <time>2018-01-22T18:41:52.000Z</time>
      </trkpt>
      <trkpt lat="45.31081" lon="5.78948">
        <ele>1066</ele>
        <time>2018-01-22T18:41:53.000Z</time>
      </trkpt>
      <trkpt lat="45.31076" lon="5.78884">
        <ele>1066</ele>
        <time>2018-01-22T18:41:54.000Z</time>
      </trkpt>
      <trkpt lat="45.31074" lon="5.78863">
        <ele>1052</ele>
        <time>2018-01-22T18:41:55.000Z</time>
      </trkpt>
      <trkpt lat="45.31084" lon="5.78857">
        <ele>1052</ele>
        <time>2018-01-22T18:41:56.000Z</time>
      </trkpt>
      <trkpt lat="45.31098" lon="5.78852">
        <ele>1052</ele>
        <time>2018-01-22T18:41:57.000Z</time>
      </trkpt>
      <trkpt lat="45.31111" lon="5.78869">
        <ele>1052</ele>
        <time>2018-01-22T18:41:58.000Z</time>
      </trkpt>
      <trkpt lat="45.3114" lon="5.78873">
        <ele>1030</ele>
        <time>2018-01-22T18:41:59.000Z</time>
      </trkpt>
      <trkpt lat="45.31179" lon="5.78891">
        <ele>1034</ele>
        <time>2018-01-22T18:42:00.000Z</time>
      </trkpt>
      <trkpt lat="45.3122" lon="5.78921">
        <ele>1009</ele>
        <time>2018-01-22T18:42:01.000Z</time>
      </trkpt>
      <trkpt lat="45.31261" lon="5.78943">
        <ele>1009</ele>
        <time>2018-01-22T18:42:02.000Z</time>
      </trkpt>
      <trkpt lat="45.31285" lon="5.78964">
        <ele>1019</ele>
        <time>2018-01-22T18:42:03.000Z</time>
      </trkpt>
      <trkpt lat="45.31314" lon="5.78968">
        <ele>988</ele>
        <time>2018-01-22T18:42:04.000Z</time>
      </trkpt>
      <trkpt lat="45.31338" lon="5.78978">
        <ele>988</ele>
        <time>2018-01-22T18:42:05.000Z</time>
      </trkpt>
      <trkpt lat="45.31367" lon="5.7899">
        <ele>988</ele>
        <time>2018-01-22T18:42:06.000Z</time>
      </trkpt>
      <trkpt lat="45.31393" lon="5.78993">
        <ele>960</ele>
        <time>2018-01-22T18:42:07.000Z</time>
      </trkpt>
      <trkpt lat="45.31425" lon="5.78997">
        <ele>960</ele>
        <time>2018-01-22T18:42:08.000Z</time>
      </trkpt>
      <trkpt lat="45.31467" lon="5.79006">
        <ele>943</ele>
        <time>2018-01-22T18:42:09.000Z</time>
      </trkpt>
      <trkpt lat="45.31468" lon="5.78955">
        <ele>946</ele>
        <time>2018-01-22T18:42:10.000Z</time>
      </trkpt>
      <trkpt lat="45.3147" lon="5.78898">
        <ele>946</ele>
        <time>2018-01-22T18:42:11.000Z</time>
      </trkpt>
      <trkpt lat="45.31462" lon="5.78865">
        <ele>948</ele>
        <time>2018-01-22T18:42:12.000Z</time>
      </trkpt>
      <trkpt lat="45.31453" lon="5.7883">
        <ele>957</ele>
        <time>2018-01-22T18:42:13.000Z</time>
      </trkpt>
      <trkpt lat="45.31439" lon="5.78798">
        <ele>957</ele>
        <time>2018-01-22T18:42:14.000Z</time>
      </trkpt>
      <trkpt lat="45.31421" lon="5.78757">
        <ele>958</ele>
        <time>2018-01-22T18:42:15.000Z</time>
      </trkpt>
      <trkpt lat="45.31405" lon="5.78726">
        <ele>958</ele>
        <time>2018-01-22T18:42:16.000Z</time>
      </trkpt>
      <trkpt lat="45.31372" lon="5.78701">
        <ele>964</ele>
        <time>2018-01-22T18:42:17.000Z</time>
      </trkpt>
      <trkpt lat="45.3137" lon="5.78695">
        <ele>964</ele>
        <time>2018-01-22T18:42:18.000Z</time>
      </trkpt>
      <trkpt lat="45.314" lon="5.78683">
        <ele>960</ele>
        <time>2018-01-22T18:42:19.000Z</time>
      </trkpt>
      <trkpt lat="45.31435" lon="5.78668">
        <ele>960</ele>
        <time>2018-01-22T18:42:20.000Z</time>
      </trkpt>
      <trkpt lat="45.31469" lon="5.78664">
        <ele>947</ele>
        <time>2018-01-22T18:42:21.000Z</time>
      </trkpt>
      <trkpt lat="45.31484" lon="5.78673">
        <ele>947</ele>
        <time>2018-01-22T18:42:22.000Z</time>
      </trkpt>
      <trkpt lat="45.31509" lon="5.78691">
        <ele>947</ele>
        <time>2018-01-22T18:42:23.000Z</time>
      </trkpt>
      <trkpt lat="45.31524" lon="5.78733">
        <ele>952</ele>
        <time>2018-01-22T18:42:24.000Z</time>
      </trkpt>
      <trkpt lat="45.31533" lon="5.78771">
        <ele>952</ele>
        <time>2018-01-22T18:42:25.000Z</time>
      </trkpt>
      <trkpt lat="45.31559" lon="5.78816">
        <ele>938</ele>
        <time>2018-01-22T18:42:26.000Z</time>
      </trkpt>
      <trkpt lat="45.31571" lon="5.78848">
        <ele>938</ele>
        <time>2018-01-22T18:42:27.000Z</time>
      </trkpt>
      <trkpt lat="45.31583" lon="5.78882">
        <ele>937</ele>
        <time>2018-01-22T18:42:28.000Z</time>
      </trkpt>
      <trkpt lat="45.31606" lon="5.7894">
        <ele>937</ele>
        <time>2018-01-22T18:42:29.000Z</time>
      </trkpt>
      <trkpt lat="45.31616" lon="5.78965">
        <ele>935</ele>
        <time>2018-01-22T18:42:30.000Z</time>
      </trkpt>
      <trkpt lat="45.31639" lon="5.78981">
        <ele>911</ele>
        <time>2018-01-22T18:42:31.000Z</time>
      </trkpt>
      <trkpt lat="45.31662" lon="5.78937">
        <ele>909</ele>
        <time>2018-01-22T18:42:32.000Z</time>
      </trkpt>
      <trkpt lat="45.31662" lon="5.78937">
        <ele>909</ele>
        <time>2018-01-22T18:42:33.000Z</time>
      </trkpt>
      <trkpt lat="45.31662" lon="5.78937">
        <ele>909</ele>
        <time>2018-01-22T18:42:34.000Z</time>
      </trkpt>
      <trkpt lat="45.31662" lon="5.78937">
        <ele>909</ele>
        <time>2018-01-22T18:42:35.000Z</time>
      </trkpt>
      <trkpt lat="45.31676" lon="5.78926">
        <ele>909</ele>
        <time>2018-01-22T18:42:36.000Z</time>
      </trkpt>
      <trkpt lat="45.31702" lon="5.78948">
        <ele>909</ele>
        <time>2018-01-22T18:42:37.000Z</time>
      </trkpt>
      <trkpt lat="45.31721" lon="5.78937">
        <ele>914</ele>
        <time>2018-01-22T18:42:38.000Z</time>
      </trkpt>
      <trkpt lat="45.3174" lon="5.78945">
        <ele>914</ele>
        <time>2018-01-22T18:42:39.000Z</time>
      </trkpt>
      <trkpt lat="45.31784" lon="5.78964">
        <ele>902</ele>
        <time>2018-01-22T18:42:40.000Z</time>
      </trkpt>
      <trkpt lat="45.31808" lon="5.7897">
        <ele>920</ele>
        <time>2018-01-22T18:42:41.000Z</time>
      </trkpt>
      <trkpt lat="45.31834" lon="5.78986">
        <ele>920</ele>
        <time>2018-01-22T18:42:42.000Z</time>
      </trkpt>
      <trkpt lat="45.31853" lon="5.79003">
        <ele>920</ele>
        <time>2018-01-22T18:42:43.000Z</time>
      </trkpt>
      <trkpt lat="45.31873" lon="5.79024">
        <ele>920</ele>
        <time>2018-01-22T18:42:44.000Z</time>
      </trkpt>
      <trkpt lat="45.31897" lon="5.79049">
        <ele>928</ele>
        <time>2018-01-22T18:42:45.000Z</time>
      </trkpt>
      <trkpt lat="45.31912" lon="5.79076">
        <ele>928</ele>
        <time>2018-01-22T18:42:46.000Z</time>
      </trkpt>
      <trkpt lat="45.31928" lon="5.79106">
        <ele>928</ele>
        <time>2018-01-22T18:42:47.000Z</time>
      </trkpt>
      <trkpt lat="45.31948" lon="5.79128">
        <ele>910</ele>
        <time>2018-01-22T18:42:48.000Z</time>
      </trkpt>
      <trkpt lat="45.31969" lon="5.79151">
        <ele>934</ele>
        <time>2018-01-22T18:42:49.000Z</time>
      </trkpt>
      <trkpt lat="45.31992" lon="5.79173">
        <ele>934</ele>
        <time>2018-01-22T18:42:50.000Z</time>
      </trkpt>
      <trkpt lat="45.32017" lon="5.7919">
        <ele>934</ele>
        <time>2018-01-22T18:42:51.000Z</time>
      </trkpt>
      <trkpt lat="45.32051" lon="5.79216">
        <ele>946</ele>
        <time>2018-01-22T18:42:52.000Z</time>
      </trkpt>
      <trkpt lat="45.32072" lon="5.79238">
        <ele>946</ele>
        <time>2018-01-22T18:42:53.000Z</time>
      </trkpt>
      <trkpt lat="45.32095" lon="5.79263">
        <ele>946</ele>
        <time>2018-01-22T18:42:54.000Z</time>
      </trkpt>
      <trkpt lat="45.3211" lon="5.79311">
        <ele>936</ele>
        <time>2018-01-22T18:42:55.000Z</time>
      </trkpt>
      <trkpt lat="45.3213" lon="5.79353">
        <ele>949</ele>
        <time>2018-01-22T18:42:56.000Z</time>
      </trkpt>
      <trkpt lat="45.32168" lon="5.79377">
        <ele>944</ele>
        <time>2018-01-22T18:42:57.000Z</time>
      </trkpt>
      <trkpt lat="45.32147" lon="5.79321">
        <ele>949</ele>
        <time>2018-01-22T18:42:58.000Z</time>
      </trkpt>
      <trkpt lat="45.32142" lon="5.79286">
        <ele>959</ele>
        <time>2018-01-22T18:42:59.000Z</time>
      </trkpt>
      <trkpt lat="45.32138" lon="5.79249">
        <ele>959</ele>
        <time>2018-01-22T18:43:00.000Z</time>
      </trkpt>
      <trkpt lat="45.32145" lon="5.79206">
        <ele>977</ele>
        <time>2018-01-22T18:43:01.000Z</time>
      </trkpt>
      <trkpt lat="45.32158" lon="5.79127">
        <ele>977</ele>
        <time>2018-01-22T18:43:02.000Z</time>
      </trkpt>
      <trkpt lat="45.32153" lon="5.79086">
        <ele>986</ele>
        <time>2018-01-22T18:43:03.000Z</time>
      </trkpt>
      <trkpt lat="45.32127" lon="5.79066">
        <ele>986</ele>
        <time>2018-01-22T18:43:04.000Z</time>
      </trkpt>
      <trkpt lat="45.32109" lon="5.79052">
        <ele>985</ele>
        <time>2018-01-22T18:43:05.000Z</time>
      </trkpt>
      <trkpt lat="45.32094" lon="5.7902">
        <ele>996</ele>
        <time>2018-01-22T18:43:06.000Z</time>
      </trkpt>
      <trkpt lat="45.32081" lon="5.78984">
        <ele>996</ele>
        <time>2018-01-22T18:43:07.000Z</time>
      </trkpt>
      <trkpt lat="45.32061" lon="5.78953">
        <ele>1006</ele>
        <time>2018-01-22T18:43:08.000Z</time>
      </trkpt>
      <trkpt lat="45.32053" lon="5.78937">
        <ele>1006</ele>
        <time>2018-01-22T18:43:09.000Z</time>
      </trkpt>
      <trkpt lat="45.32027" lon="5.78902">
        <ele>995</ele>
        <time>2018-01-22T18:43:10.000Z</time>
      </trkpt>
      <trkpt lat="45.32025" lon="5.78892">
        <ele>995</ele>
        <time>2018-01-22T18:43:11.000Z</time>
      </trkpt>
      <trkpt lat="45.32016" lon="5.78869">
        <ele>1012</ele>
        <time>2018-01-22T18:43:12.000Z</time>
      </trkpt>
      <trkpt lat="45.32001" lon="5.78825">
        <ele>1012</ele>
        <time>2018-01-22T18:43:13.000Z</time>
      </trkpt>
      <trkpt lat="45.31986" lon="5.78797">
        <ele>1012</ele>
        <time>2018-01-22T18:43:14.000Z</time>
      </trkpt>
      <trkpt lat="45.31969" lon="5.78766">
        <ele>1027</ele>
        <time>2018-01-22T18:43:15.000Z</time>
      </trkpt>
      <trkpt lat="45.31954" lon="5.78735">
        <ele>1013</ele>
        <time>2018-01-22T18:43:16.000Z</time>
      </trkpt>
      <trkpt lat="45.31927" lon="5.78688">
        <ele>1030</ele>
        <time>2018-01-22T18:43:17.000Z</time>
      </trkpt>
      <trkpt lat="45.31915" lon="5.78648">
        <ele>1030</ele>
        <time>2018-01-22T18:43:18.000Z</time>
      </trkpt>
      <trkpt lat="45.31908" lon="5.78608">
        <ele>1038</ele>
        <time>2018-01-22T18:43:19.000Z</time>
      </trkpt>
      <trkpt lat="45.31892" lon="5.78575">
        <ele>1038</ele>
        <time>2018-01-22T18:43:20.000Z</time>
      </trkpt>
      <trkpt lat="45.31884" lon="5.78512">
        <ele>1047</ele>
        <time>2018-01-22T18:43:21.000Z</time>
      </trkpt>
      <trkpt lat="45.31887" lon="5.78475">
        <ele>1047</ele>
        <time>2018-01-22T18:43:22.000Z</time>
      </trkpt>
      <trkpt lat="45.31875" lon="5.78432">
        <ele>1037</ele>
        <time>2018-01-22T18:43:23.000Z</time>
      </trkpt>
      <trkpt lat="45.31872" lon="5.78375">
        <ele>1037</ele>
        <time>2018-01-22T18:43:24.000Z</time>
      </trkpt>
      <trkpt lat="45.31869" lon="5.78339">
        <ele>1044</ele>
        <time>2018-01-22T18:43:25.000Z</time>
      </trkpt>
      <trkpt lat="45.31869" lon="5.78339">
        <ele>1044</ele>
        <time>2018-01-22T18:43:26.000Z</time>
      </trkpt>
      <trkpt lat="45.31869" lon="5.78339">
        <ele>1044</ele>
        <time>2018-01-22T18:43:27.000Z</time>
      </trkpt>
      <trkpt lat="45.31869" lon="5.78339">
        <ele>1044</ele>
        <time>2018-01-22T18:43:28.000Z</time>
      </trkpt>
      <trkpt lat="45.31866" lon="5.78296">
        <ele>1044</ele>
        <time>2018-01-22T18:43:29.000Z</time>
      </trkpt>
      <trkpt lat="45.31867" lon="5.78245">
        <ele>1057</ele>
        <time>2018-01-22T18:43:30.000Z</time>
      </trkpt>
      <trkpt lat="45.31857" lon="5.78207">
        <ele>1064</ele>
        <time>2018-01-22T18:43:31.000Z</time>
      </trkpt>
      <trkpt lat="45.31827" lon="5.78169">
        <ele>1064</ele>
        <time>2018-01-22T18:43:32.000Z</time>
      </trkpt>
      <trkpt lat="45.31807" lon="5.78145">
        <ele>1064</ele>
        <time>2018-01-22T18:43:33.000Z</time>
      </trkpt>
      <trkpt lat="45.31793" lon="5.78105">
        <ele>1070</ele>
        <time>2018-01-22T18:43:34.000Z</time>
      </trkpt>
      <trkpt lat="45.31775" lon="5.78063">
        <ele>1072</ele>
        <time>2018-01-22T18:43:35.000Z</time>
      </trkpt>
      <trkpt lat="45.31753" lon="5.78042">
        <ele>1072</ele>
        <time>2018-01-22T18:43:36.000Z</time>
      </trkpt>
      <trkpt lat="45.31751" lon="5.78015">
        <ele>1074</ele>
        <time>2018-01-22T18:43:37.000Z</time>
      </trkpt>
      <trkpt lat="45.31762" lon="5.77988">
        <ele>1074</ele>
        <time>2018-01-22T18:43:38.000Z</time>
      </trkpt>
      <trkpt lat="45.31789" lon="5.77967">
        <ele>1074</ele>
        <time>2018-01-22T18:43:39.000Z</time>
      </trkpt>
      <trkpt lat="45.31841" lon="5.77929">
        <ele>1100</ele>
        <time>2018-01-22T18:43:40.000Z</time>
      </trkpt>
      <trkpt lat="45.31865" lon="5.77934">
        <ele>1100</ele>
        <time>2018-01-22T18:43:41.000Z</time>
      </trkpt>
      <trkpt lat="45.31887" lon="5.77965">
        <ele>1090</ele>
        <time>2018-01-22T18:43:42.000Z</time>
      </trkpt>
      <trkpt lat="45.31907" lon="5.77987">
        <ele>1090</ele>
        <time>2018-01-22T18:43:43.000Z</time>
      </trkpt>
      <trkpt lat="45.31929" lon="5.78012">
        <ele>1090</ele>
        <time>2018-01-22T18:43:44.000Z</time>
      </trkpt>
      <trkpt lat="45.3194" lon="5.78048">
        <ele>1080</ele>
        <time>2018-01-22T18:43:45.000Z</time>
      </trkpt>
      <trkpt lat="45.31948" lon="5.78082">
        <ele>1080</ele>
        <time>2018-01-22T18:43:46.000Z</time>
      </trkpt>
      <trkpt lat="45.31959" lon="5.78126">
        <ele>1079</ele>
        <time>2018-01-22T18:43:47.000Z</time>
      </trkpt>
      <trkpt lat="45.3197" lon="5.7816">
        <ele>1079</ele>
        <time>2018-01-22T18:43:48.000Z</time>
      </trkpt>
      <trkpt lat="45.31983" lon="5.78202">
        <ele>1079</ele>
        <time>2018-01-22T18:43:49.000Z</time>
      </trkpt>
      <trkpt lat="45.31984" lon="5.78159">
        <ele>1079</ele>
        <time>2018-01-22T18:43:50.000Z</time>
      </trkpt>
      <trkpt lat="45.31984" lon="5.7808">
        <ele>1083</ele>
        <time>2018-01-22T18:43:51.000Z</time>
      </trkpt>
      <trkpt lat="45.32005" lon="5.78061">
        <ele>1083</ele>
        <time>2018-01-22T18:43:52.000Z</time>
      </trkpt>
      <trkpt lat="45.32028" lon="5.7806">
        <ele>1083</ele>
        <time>2018-01-22T18:43:53.000Z</time>
      </trkpt>
      <trkpt lat="45.32067" lon="5.78096">
        <ele>1090</ele>
        <time>2018-01-22T18:43:54.000Z</time>
      </trkpt>
      <trkpt lat="45.32091" lon="5.78099">
        <ele>1090</ele>
        <time>2018-01-22T18:43:55.000Z</time>
      </trkpt>
      <trkpt lat="45.32105" lon="5.78068">
        <ele>1090</ele>
        <time>2018-01-22T18:43:56.000Z</time>
      </trkpt>
      <trkpt lat="45.321" lon="5.78026">
        <ele>1125</ele>
        <time>2018-01-22T18:43:57.000Z</time>
      </trkpt>
      <trkpt lat="45.32106" lon="5.77972">
        <ele>1125</ele>
        <time>2018-01-22T18:43:58.000Z</time>
      </trkpt>
      <trkpt lat="45.32121" lon="5.77982">
        <ele>1125</ele>
        <time>2018-01-22T18:43:59.000Z</time>
      </trkpt>
      <trkpt lat="45.32131" lon="5.78007">
        <ele>1141</ele>
        <time>2018-01-22T18:44:00.000Z</time>
      </trkpt>
      <trkpt lat="45.32155" lon="5.78022">
        <ele>1141</ele>
        <time>2018-01-22T18:44:01.000Z</time>
      </trkpt>
      <trkpt lat="45.32182" lon="5.78039">
        <ele>1141</ele>
        <time>2018-01-22T18:44:02.000Z</time>
      </trkpt>
      <trkpt lat="45.32216" lon="5.78046">
        <ele>1134</ele>
        <time>2018-01-22T18:44:03.000Z</time>
      </trkpt>
      <trkpt lat="45.32239" lon="5.78056">
        <ele>1134</ele>
        <time>2018-01-22T18:44:04.000Z</time>
      </trkpt>
      <trkpt lat="45.32264" lon="5.7806">
        <ele>1134</ele>
        <time>2018-01-22T18:44:05.000Z</time>
      </trkpt>
      <trkpt lat="45.32307" lon="5.78073">
        <ele>1149</ele>
        <time>2018-01-22T18:44:06.000Z</time>
      </trkpt>
      <trkpt lat="45.3234" lon="5.78095">
        <ele>1149</ele>
        <time>2018-01-22T18:44:07.000Z</time>
      </trkpt>
      <trkpt lat="45.32364" lon="5.78129">
        <ele>1113</ele>
        <time>2018-01-22T18:44:08.000Z</time>
      </trkpt>
      <trkpt lat="45.3238" lon="5.78179">
        <ele>1149</ele>
        <time>2018-01-22T18:44:09.000Z</time>
      </trkpt>
      <trkpt lat="45.324" lon="5.78215">
        <ele>1130</ele>
        <time>2018-01-22T18:44:10.000Z</time>
      </trkpt>
      <trkpt lat="45.32424" lon="5.7822">
        <ele>1130</ele>
        <time>2018-01-22T18:44:11.000Z</time>
      </trkpt>
      <trkpt lat="45.32451" lon="5.78226">
        <ele>1130</ele>
        <time>2018-01-22T18:44:12.000Z</time>
      </trkpt>
      <trkpt lat="45.32464" lon="5.78227">
        <ele>1137</ele>
        <time>2018-01-22T18:44:13.000Z</time>
      </trkpt>
      <trkpt lat="45.32478" lon="5.78226">
        <ele>1137</ele>
        <time>2018-01-22T18:44:14.000Z</time>
      </trkpt>
      <trkpt lat="45.32509" lon="5.78214">
        <ele>1137</ele>
        <time>2018-01-22T18:44:15.000Z</time>
      </trkpt>
      <trkpt lat="45.32526" lon="5.78189">
        <ele>1159</ele>
        <time>2018-01-22T18:44:16.000Z</time>
      </trkpt>
      <trkpt lat="45.32546" lon="5.78196">
        <ele>1160</ele>
        <time>2018-01-22T18:44:17.000Z</time>
      </trkpt>
      <trkpt lat="45.32582" lon="5.78234">
        <ele>1136</ele>
        <time>2018-01-22T18:44:18.000Z</time>
      </trkpt>
      <trkpt lat="45.32582" lon="5.78234">
        <ele>1136</ele>
        <time>2018-01-22T18:44:19.000Z</time>
      </trkpt>
      <trkpt lat="45.32582" lon="5.78234">
        <ele>1136</ele>
        <time>2018-01-22T18:44:20.000Z</time>
      </trkpt>
      <trkpt lat="45.32582" lon="5.78234">
        <ele>1136</ele>
        <time>2018-01-22T18:44:21.000Z</time>
      </trkpt>
      <trkpt lat="45.32602" lon="5.78264">
        <ele>1136</ele>
        <time>2018-01-22T18:44:22.000Z</time>
      </trkpt>
      <trkpt lat="45.3264" lon="5.78299">
        <ele>1152</ele>
        <time>2018-01-22T18:44:23.000Z</time>
      </trkpt>
      <trkpt lat="45.32665" lon="5.7833">
        <ele>1152</ele>
        <time>2018-01-22T18:44:24.000Z</time>
      </trkpt>
      <trkpt lat="45.32701" lon="5.78326">
        <ele>1152</ele>
        <time>2018-01-22T18:44:25.000Z</time>
      </trkpt>
      <trkpt lat="45.32683" lon="5.78356">
        <ele>1152</ele>
        <time>2018-01-22T18:44:26.000Z</time>
      </trkpt>
      <trkpt lat="45.32664" lon="5.78417">
        <ele>1146</ele>
        <time>2018-01-22T18:44:27.000Z</time>
      </trkpt>
      <trkpt lat="45.32666" lon="5.78481">
        <ele>1144</ele>
        <time>2018-01-22T18:44:28.000Z</time>
      </trkpt>
      <trkpt lat="45.32672" lon="5.78516">
        <ele>1144</ele>
        <time>2018-01-22T18:44:29.000Z</time>
      </trkpt>
      <trkpt lat="45.3268" lon="5.78557">
        <ele>1136</ele>
        <time>2018-01-22T18:44:30.000Z</time>
      </trkpt>
      <trkpt lat="45.32698" lon="5.78583">
        <ele>1136</ele>
        <time>2018-01-22T18:44:31.000Z</time>
      </trkpt>
      <trkpt lat="45.3272" lon="5.78614">
        <ele>1165</ele>
        <time>2018-01-22T18:44:32.000Z</time>
      </trkpt>
      <trkpt lat="45.32742" lon="5.7863">
        <ele>1144</ele>
        <time>2018-01-22T18:44:33.000Z</time>
      </trkpt>
      <trkpt lat="45.32772" lon="5.78657">
        <ele>1144</ele>
        <time>2018-01-22T18:44:34.000Z</time>
      </trkpt>
      <trkpt lat="45.32812" lon="5.78672">
        <ele>1147</ele>
        <time>2018-01-22T18:44:35.000Z</time>
      </trkpt>
      <trkpt lat="45.32837" lon="5.78691">
        <ele>1147</ele>
        <time>2018-01-22T18:44:36.000Z</time>
      </trkpt>
      <trkpt lat="45.32837" lon="5.78713">
        <ele>1128</ele>
        <time>2018-01-22T18:44:37.000Z</time>
      </trkpt>
      <trkpt lat="45.32845" lon="5.78777">
        <ele>1128</ele>
        <time>2018-01-22T18:44:38.000Z</time>
      </trkpt>
      <trkpt lat="45.32847" lon="5.78841">
        <ele>1113</ele>
        <time>2018-01-22T18:44:39.000Z</time>
      </trkpt>
      <trkpt lat="45.32857" lon="5.78886">
        <ele>1099</ele>
        <time>2018-01-22T18:44:40.000Z</time>
      </trkpt>
      <trkpt lat="45.32873" lon="5.78949">
        <ele>1099</ele>
        <time>2018-01-22T18:44:41.000Z</time>
      </trkpt>
      <trkpt lat="45.32871" lon="5.78997">
        <ele>1087</ele>
        <time>2018-01-22T18:44:42.000Z</time>
      </trkpt>
      <trkpt lat="45.32874" lon="5.79058">
        <ele>1072</ele>
        <time>2018-01-22T18:44:43.000Z</time>
      </trkpt>
      <trkpt lat="45.32898" lon="5.79109">
        <ele>1090</ele>
        <time>2018-01-22T18:44:44.000Z</time>
      </trkpt>
      <trkpt lat="45.32931" lon="5.79129">
        <ele>1079</ele>
        <time>2018-01-22T18:44:45.000Z</time>
      </trkpt>
      <trkpt lat="45.32965" lon="5.79148">
        <ele>1084</ele>
        <time>2018-01-22T18:44:46.000Z</time>
      </trkpt>
      <trkpt lat="45.32996" lon="5.79163">
        <ele>1084</ele>
        <time>2018-01-22T18:44:47.000Z</time>
      </trkpt>
      <trkpt lat="45.33016" lon="5.79182">
        <ele>1084</ele>
        <time>2018-01-22T18:44:48.000Z</time>
      </trkpt>
      <trkpt lat="45.33043" lon="5.79204">
        <ele>1089</ele>
        <time>2018-01-22T18:44:49.000Z</time>
      </trkpt>
      <trkpt lat="45.3306" lon="5.79199">
        <ele>1089</ele>
        <time>2018-01-22T18:44:50.000Z</time>
      </trkpt>
      <trkpt lat="45.33068" lon="5.79195">
        <ele>1089</ele>
        <time>2018-01-22T18:44:51.000Z</time>
      </trkpt>
      <trkpt lat="45.33099" lon="5.79191">
        <ele>1089</ele>
        <time>2018-01-22T18:44:52.000Z</time>
      </trkpt>
      <trkpt lat="45.33122" lon="5.79185">
        <ele>1089</ele>
        <time>2018-01-22T18:44:53.000Z</time>
      </trkpt>
      <trkpt lat="45.33147" lon="5.7917">
        <ele>1098</ele>
        <time>2018-01-22T18:44:54.000Z</time>
      </trkpt>
      <trkpt lat="45.33186" lon="5.79179">
        <ele>1098</ele>
        <time>2018-01-22T18:44:55.000Z</time>
      </trkpt>
      <trkpt lat="45.33213" lon="5.79232">
        <ele>1102</ele>
        <time>2018-01-22T18:44:56.000Z</time>
      </trkpt>
      <trkpt lat="45.33223" lon="5.79262">
        <ele>1102</ele>
        <time>2018-01-22T18:44:57.000Z</time>
      </trkpt>
      <trkpt lat="45.33233" lon="5.79294">
        <ele>1077</ele>
        <time>2018-01-22T18:44:58.000Z</time>
      </trkpt>
      <trkpt lat="45.33252" lon="5.7935">
        <ele>1077</ele>
        <time>2018-01-22T18:44:59.000Z</time>
      </trkpt>
      <trkpt lat="45.33268" lon="5.79375">
        <ele>1058</ele>
        <time>2018-01-22T18:45:00.000Z</time>
      </trkpt>
      <trkpt lat="45.33284" lon="5.79401">
        <ele>1058</ele>
        <time>2018-01-22T18:45:01.000Z</time>
      </trkpt>
      <trkpt lat="45.33301" lon="5.79427">
        <ele>1073</ele>
        <time>2018-01-22T18:45:02.000Z</time>
      </trkpt>
      <trkpt lat="45.33322" lon="5.79458">
        <ele>1073</ele>
        <time>2018-01-22T18:45:03.000Z</time>
      </trkpt>
      <trkpt lat="45.33347" lon="5.7949">
        <ele>1050</ele>
        <time>2018-01-22T18:45:04.000Z</time>
      </trkpt>
      <trkpt lat="45.33354" lon="5.79523">
        <ele>1050</ele>
        <time>2018-01-22T18:45:05.000Z</time>
      </trkpt>
      <trkpt lat="45.33362" lon="5.79559">
        <ele>1032</ele>
        <time>2018-01-22T18:45:06.000Z</time>
      </trkpt>
      <trkpt lat="45.33373" lon="5.79588">
        <ele>1032</ele>
        <time>2018-01-22T18:45:07.000Z</time>
      </trkpt>
      <trkpt lat="45.3338" lon="5.79604">
        <ele>1040</ele>
        <time>2018-01-22T18:45:08.000Z</time>
      </trkpt>
      <trkpt lat="45.33388" lon="5.79626">
        <ele>1026</ele>
        <time>2018-01-22T18:45:09.000Z</time>
      </trkpt>
      <trkpt lat="45.3339" lon="5.79667">
        <ele>1026</ele>
        <time>2018-01-22T18:45:10.000Z</time>
      </trkpt>
      <trkpt lat="45.33399" lon="5.797">
        <ele>1026</ele>
        <time>2018-01-22T18:45:11.000Z</time>
      </trkpt>
      <trkpt lat="45.33399" lon="5.797">
        <ele>1026</ele>
        <time>2018-01-22T18:45:12.000Z</time>
      </trkpt>
      <trkpt lat="45.33399" lon="5.797">
        <ele>1026</ele>
        <time>2018-01-22T18:45:13.000Z</time>
      </trkpt>
      <trkpt lat="45.33399" lon="5.797">
        <ele>1026</ele>
        <time>2018-01-22T18:45:14.000Z</time>
      </trkpt>
      <trkpt lat="45.33409" lon="5.79748">
        <ele>1010</ele>
        <time>2018-01-22T18:45:15.000Z</time>
      </trkpt>
      <trkpt lat="45.33442" lon="5.79792">
        <ele>988</ele>
        <time>2018-01-22T18:45:16.000Z</time>
      </trkpt>
      <trkpt lat="45.3346" lon="5.79799">
        <ele>988</ele>
        <time>2018-01-22T18:45:17.000Z</time>
      </trkpt>
      <trkpt lat="45.33513" lon="5.7985">
        <ele>988</ele>
        <time>2018-01-22T18:45:18.000Z</time>
      </trkpt>
      <trkpt lat="45.33536" lon="5.79867">
        <ele>988</ele>
        <time>2018-01-22T18:45:19.000Z</time>
      </trkpt>
      <trkpt lat="45.33559" lon="5.79882">
        <ele>959</ele>
        <time>2018-01-22T18:45:20.000Z</time>
      </trkpt>
      <trkpt lat="45.33585" lon="5.799">
        <ele>959</ele>
        <time>2018-01-22T18:45:21.000Z</time>
      </trkpt>
      <trkpt lat="45.33584" lon="5.79924">
        <ele>959</ele>
        <time>2018-01-22T18:45:22.000Z</time>
      </trkpt>
      <trkpt lat="45.336" lon="5.79929">
        <ele>959</ele>
        <time>2018-01-22T18:45:23.000Z</time>
      </trkpt>
      <trkpt lat="45.33623" lon="5.79917">
        <ele>959</ele>
        <time>2018-01-22T18:45:24.000Z</time>
      </trkpt>
      <trkpt lat="45.33646" lon="5.79906">
        <ele>956</ele>
        <time>2018-01-22T18:45:25.000Z</time>
      </trkpt>
      <trkpt lat="45.33668" lon="5.79892">
        <ele>956</ele>
        <time>2018-01-22T18:45:26.000Z</time>
      </trkpt>
      <trkpt lat="45.33689" lon="5.79877">
        <ele>956</ele>
        <time>2018-01-22T18:45:27.000Z</time>
      </trkpt>
      <trkpt lat="45.33709" lon="5.79902">
        <ele>943</ele>
        <time>2018-01-22T18:45:28.000Z</time>
      </trkpt>
      <trkpt lat="45.33734" lon="5.79933">
        <ele>943</ele>
        <time>2018-01-22T18:45:29.000Z</time>
      </trkpt>
      <trkpt lat="45.3375" lon="5.79959">
        <ele>922</ele>
        <time>2018-01-22T18:45:30.000Z</time>
      </trkpt>
      <trkpt lat="45.33767" lon="5.79985">
        <ele>922</ele>
        <time>2018-01-22T18:45:31.000Z</time>
      </trkpt>
      <trkpt lat="45.33777" lon="5.80025">
        <ele>922</ele>
        <time>2018-01-22T18:45:32.000Z</time>
      </trkpt>
      <trkpt lat="45.33791" lon="5.80062">
        <ele>898</ele>
        <time>2018-01-22T18:45:33.000Z</time>
      </trkpt>
      <trkpt lat="45.33812" lon="5.80113">
        <ele>902</ele>
        <time>2018-01-22T18:45:34.000Z</time>
      </trkpt>
      <trkpt lat="45.33829" lon="5.80159">
        <ele>891</ele>
        <time>2018-01-22T18:45:35.000Z</time>
      </trkpt>
      <trkpt lat="45.33809" lon="5.80208">
        <ele>891</ele>
        <time>2018-01-22T18:45:36.000Z</time>
      </trkpt>
      <trkpt lat="45.33787" lon="5.80257">
        <ele>873</ele>
        <time>2018-01-22T18:45:37.000Z</time>
      </trkpt>
      <trkpt lat="45.33772" lon="5.80295">
        <ele>864</ele>
        <time>2018-01-22T18:45:38.000Z</time>
      </trkpt>
      <trkpt lat="45.33792" lon="5.80314">
        <ele>870</ele>
        <time>2018-01-22T18:45:39.000Z</time>
      </trkpt>
      <trkpt lat="45.33813" lon="5.80334">
        <ele>870</ele>
        <time>2018-01-22T18:45:40.000Z</time>
      </trkpt>
      <trkpt lat="45.33851" lon="5.80351">
        <ele>870</ele>
        <time>2018-01-22T18:45:41.000Z</time>
      </trkpt>
      <trkpt lat="45.33873" lon="5.8035">
        <ele>870</ele>
        <time>2018-01-22T18:45:42.000Z</time>
      </trkpt>
      <trkpt lat="45.33905" lon="5.80345">
        <ele>868</ele>
        <time>2018-01-22T18:45:43.000Z</time>
      </trkpt>
      <trkpt lat="45.3394" lon="5.80324">
        <ele>868</ele>
        <time>2018-01-22T18:45:44.000Z</time>
      </trkpt>
      <trkpt lat="45.33973" lon="5.80313">
        <ele>854</ele>
        <time>2018-01-22T18:45:45.000Z</time>
      </trkpt>
      <trkpt lat="45.33993" lon="5.80295">
        <ele>854</ele>
        <time>2018-01-22T18:45:46.000Z</time>
      </trkpt>
      <trkpt lat="45.34018" lon="5.80282">
        <ele>863</ele>
        <time>2018-01-22T18:45:47.000Z</time>
      </trkpt>
      <trkpt lat="45.34043" lon="5.80254">
        <ele>843</ele>
        <time>2018-01-22T18:45:48.000Z</time>
      </trkpt>
      <trkpt lat="45.34063" lon="5.80241">
        <ele>843</ele>
        <time>2018-01-22T18:45:49.000Z</time>
      </trkpt>
      <trkpt lat="45.34091" lon="5.8024">
        <ele>843</ele>
        <time>2018-01-22T18:45:50.000Z</time>
      </trkpt>
      <trkpt lat="45.34117" lon="5.80241">
        <ele>843</ele>
        <time>2018-01-22T18:45:51.000Z</time>
      </trkpt>
      <trkpt lat="45.34154" lon="5.80246">
        <ele>832</ele>
        <time>2018-01-22T18:45:52.000Z</time>
      </trkpt>
      <trkpt lat="45.34179" lon="5.80252">
        <ele>832</ele>
        <time>2018-01-22T18:45:53.000Z</time>
      </trkpt>
      <trkpt lat="45.34209" lon="5.80254">
        <ele>825</ele>
        <time>2018-01-22T18:45:54.000Z</time>
      </trkpt>
      <trkpt lat="45.34235" lon="5.8026">
        <ele>825</ele>
        <time>2018-01-22T18:45:55.000Z</time>
      </trkpt>
      <trkpt lat="45.34254" lon="5.80247">
        <ele>825</ele>
        <time>2018-01-22T18:45:56.000Z</time>
      </trkpt>
      <trkpt lat="45.34269" lon="5.8023">
        <ele>825</ele>
        <time>2018-01-22T18:45:57.000Z</time>
      </trkpt>
      <trkpt lat="45.34285" lon="5.802">
        <ele>835</ele>
        <time>2018-01-22T18:45:58.000Z</time>
      </trkpt>
      <trkpt lat="45.34305" lon="5.80163">
        <ele>817</ele>
        <time>2018-01-22T18:45:59.000Z</time>
      </trkpt>
      <trkpt lat="45.34322" lon="5.80136">
        <ele>817</ele>
        <time>2018-01-22T18:46:00.000Z</time>
      </trkpt>
      <trkpt lat="45.34342" lon="5.80104">
        <ele>838</ele>
        <time>2018-01-22T18:46:01.000Z</time>
      </trkpt>
      <trkpt lat="45.34353" lon="5.80094">
        <ele>838</ele>
        <time>2018-01-22T18:46:02.000Z</time>
      </trkpt>
      <trkpt lat="45.34353" lon="5.80094">
        <ele>838</ele>
        <time>2018-01-22T18:46:03.000Z</time>
      </trkpt>
      <trkpt lat="45.34353" lon="5.80094">
        <ele>838</ele>
        <time>2018-01-22T18:46:04.000Z</time>
      </trkpt>
      <trkpt lat="45.34407" lon="5.80063">
        <ele>823</ele>
        <time>2018-01-22T18:46:05.000Z</time>
      </trkpt>
      <trkpt lat="45.34407" lon="5.80063">
        <ele>823</ele>
        <time>2018-01-22T18:46:06.000Z</time>
      </trkpt>
      <trkpt lat="45.34407" lon="5.80063">
        <ele>823</ele>
        <time>2018-01-22T18:46:07.000Z</time>
      </trkpt>
      <trkpt lat="45.3442" lon="5.80119">
        <ele>823</ele>
        <time>2018-01-22T18:46:08.000Z</time>
      </trkpt>
      <trkpt lat="45.3442" lon="5.80119">
        <ele>823</ele>
        <time>2018-01-22T18:46:09.000Z</time>
      </trkpt>
      <trkpt lat="45.3442" lon="5.80119">
        <ele>823</ele>
        <time>2018-01-22T18:46:10.000Z</time>
      </trkpt>
      <trkpt lat="45.34412" lon="5.80199">
        <ele>809</ele>
        <time>2018-01-22T18:46:11.000Z</time>
      </trkpt>
      <trkpt lat="45.34412" lon="5.80199">
        <ele>809</ele>
        <time>2018-01-22T18:46:12.000Z</time>
      </trkpt>
      <trkpt lat="45.34412" lon="5.80199">
        <ele>809</ele>
        <time>2018-01-22T18:46:13.000Z</time>
      </trkpt>
      <trkpt lat="45.34421" lon="5.8021">
        <ele>817</ele>
        <time>2018-01-22T18:46:14.000Z</time>
      </trkpt>
      <trkpt lat="45.34421" lon="5.8021">
        <ele>817</ele>
        <time>2018-01-22T18:46:15.000Z</time>
      </trkpt>
      <trkpt lat="45.34421" lon="5.8021">
        <ele>817</ele>
        <time>2018-01-22T18:46:16.000Z</time>
      </trkpt>
      <trkpt lat="45.34456" lon="5.80212">
        <ele>817</ele>
        <time>2018-01-22T18:46:17.000Z</time>
      </trkpt>
      <trkpt lat="45.34456" lon="5.80212">
        <ele>817</ele>
        <time>2018-01-22T18:46:18.000Z</time>
      </trkpt>
      <trkpt lat="45.34456" lon="5.80212">
        <ele>817</ele>
        <time>2018-01-22T18:46:19.000Z</time>
      </trkpt>
      <trkpt lat="45.34486" lon="5.80232">
        <ele>839</ele>
        <time>2018-01-22T18:46:20.000Z</time>
      </trkpt>
      <trkpt lat="45.34486" lon="5.80232">
        <ele>839</ele>
        <time>2018-01-22T18:46:21.000Z</time>
      </trkpt>
      <trkpt lat="45.34486" lon="5.80232">
        <ele>839</ele>
        <time>2018-01-22T18:46:22.000Z</time>
      </trkpt>
      <trkpt lat="45.34487" lon="5.80236">
        <ele>839</ele>
        <time>2018-01-22T18:46:23.000Z</time>
      </trkpt>
      <trkpt lat="45.34502" lon="5.80257">
        <ele>839</ele>
        <time>2018-01-22T18:46:24.000Z</time>
      </trkpt>
      <trkpt lat="45.34529" lon="5.80268">
        <ele>839</ele>
        <time>2018-01-22T18:46:25.000Z</time>
      </trkpt>
      <trkpt lat="45.34561" lon="5.80268">
        <ele>874</ele>
        <time>2018-01-22T18:46:26.000Z</time>
      </trkpt>
      <trkpt lat="45.34581" lon="5.80282">
        <ele>874</ele>
        <time>2018-01-22T18:46:27.000Z</time>
      </trkpt>
      <trkpt lat="45.34612" lon="5.80331">
        <ele>864</ele>
        <time>2018-01-22T18:46:28.000Z</time>
      </trkpt>
      <trkpt lat="45.34606" lon="5.80351">
        <ele>864</ele>
        <time>2018-01-22T18:46:29.000Z</time>
      </trkpt>
      <trkpt lat="45.34594" lon="5.80373">
        <ele>864</ele>
        <time>2018-01-22T18:46:30.000Z</time>
      </trkpt>
      <trkpt lat="45.34565" lon="5.80381">
        <ele>892</ele>
        <time>2018-01-22T18:46:31.000Z</time>
      </trkpt>
      <trkpt lat="45.34518" lon="5.80393">
        <ele>912</ele>
        <time>2018-01-22T18:46:32.000Z</time>
      </trkpt>
      <trkpt lat="45.34484" lon="5.804">
        <ele>912</ele>
        <time>2018-01-22T18:46:33.000Z</time>
      </trkpt>
      <trkpt lat="45.34484" lon="5.804">
        <ele>912</ele>
        <time>2018-01-22T18:46:34.000Z</time>
      </trkpt>
      <trkpt lat="45.34484" lon="5.804">
        <ele>912</ele>
        <time>2018-01-22T18:46:35.000Z</time>
      </trkpt>
      <trkpt lat="45.34409" lon="5.80373">
        <ele>856</ele>
        <time>2018-01-22T18:46:36.000Z</time>
      </trkpt>
      <trkpt lat="45.34409" lon="5.80373">
        <ele>856</ele>
        <time>2018-01-22T18:46:37.000Z</time>
      </trkpt>
      <trkpt lat="45.34409" lon="5.80373">
        <ele>856</ele>
        <time>2018-01-22T18:46:38.000Z</time>
      </trkpt>
      <trkpt lat="45.34347" lon="5.80391">
        <ele>883</ele>
        <time>2018-01-22T18:46:39.000Z</time>
      </trkpt>
      <trkpt lat="45.34347" lon="5.80391">
        <ele>883</ele>
        <time>2018-01-22T18:46:40.000Z</time>
      </trkpt>
      <trkpt lat="45.34347" lon="5.80391">
        <ele>883</ele>
        <time>2018-01-22T18:46:41.000Z</time>
      </trkpt>
      <trkpt lat="45.34281" lon="5.80424">
        <ele>853</ele>
        <time>2018-01-22T18:46:42.000Z</time>
      </trkpt>
      <trkpt lat="45.34281" lon="5.80424">
        <ele>853</ele>
        <time>2018-01-22T18:46:43.000Z</time>
      </trkpt>
      <trkpt lat="45.34281" lon="5.80424">
        <ele>853</ele>
        <time>2018-01-22T18:46:44.000Z</time>
      </trkpt>
      <trkpt lat="45.34218" lon="5.80458">
        <ele>853</ele>
        <time>2018-01-22T18:46:45.000Z</time>
      </trkpt>
      <trkpt lat="45.34218" lon="5.80458">
        <ele>853</ele>
        <time>2018-01-22T18:46:46.000Z</time>
      </trkpt>
      <trkpt lat="45.34218" lon="5.80458">
        <ele>853</ele>
        <time>2018-01-22T18:46:47.000Z</time>
      </trkpt>
      <trkpt lat="45.3418" lon="5.80498">
        <ele>865</ele>
        <time>2018-01-22T18:46:48.000Z</time>
      </trkpt>
      <trkpt lat="45.3418" lon="5.80498">
        <ele>865</ele>
        <time>2018-01-22T18:46:49.000Z</time>
      </trkpt>
      <trkpt lat="45.3418" lon="5.80498">
        <ele>865</ele>
        <time>2018-01-22T18:46:50.000Z</time>
      </trkpt>
      <trkpt lat="45.34146" lon="5.80546">
        <ele>884</ele>
        <time>2018-01-22T18:46:51.000Z</time>
      </trkpt>
      <trkpt lat="45.34146" lon="5.80546">
        <ele>884</ele>
        <time>2018-01-22T18:46:52.000Z</time>
      </trkpt>
      <trkpt lat="45.34146" lon="5.80546">
        <ele>884</ele>
        <time>2018-01-22T18:46:53.000Z</time>
      </trkpt>
      <trkpt lat="45.34088" lon="5.80591">
        <ele>827</ele>
        <time>2018-01-22T18:46:54.000Z</time>
      </trkpt>
      <trkpt lat="45.34088" lon="5.80591">
        <ele>827</ele>
        <time>2018-01-22T18:46:55.000Z</time>
      </trkpt>
      <trkpt lat="45.34088" lon="5.80591">
        <ele>827</ele>
        <time>2018-01-22T18:46:56.000Z</time>
      </trkpt>
      <trkpt lat="45.34022" lon="5.80639">
        <ele>799</ele>
        <time>2018-01-22T18:46:57.000Z</time>
      </trkpt>
      <trkpt lat="45.34022" lon="5.80639">
        <ele>799</ele>
        <time>2018-01-22T18:46:58.000Z</time>
      </trkpt>
      <trkpt lat="45.34022" lon="5.80639">
        <ele>799</ele>
        <time>2018-01-22T18:46:59.000Z</time>
      </trkpt>
      <trkpt lat="45.33976" lon="5.80666">
        <ele>799</ele>
        <time>2018-01-22T18:47:00.000Z</time>
      </trkpt>
      <trkpt lat="45.33976" lon="5.80666">
        <ele>799</ele>
        <time>2018-01-22T18:47:01.000Z</time>
      </trkpt>
      <trkpt lat="45.33976" lon="5.80666">
        <ele>799</ele>
        <time>2018-01-22T18:47:02.000Z</time>
      </trkpt>
      <trkpt lat="45.33979" lon="5.80726">
        <ele>802</ele>
        <time>2018-01-22T18:47:03.000Z</time>
      </trkpt>
      <trkpt lat="45.33979" lon="5.80726">
        <ele>802</ele>
        <time>2018-01-22T18:47:04.000Z</time>
      </trkpt>
      <trkpt lat="45.33979" lon="5.80726">
        <ele>802</ele>
        <time>2018-01-22T18:47:05.000Z</time>
      </trkpt>
      <trkpt lat="45.33981" lon="5.80779">
        <ele>802</ele>
        <time>2018-01-22T18:47:06.000Z</time>
      </trkpt>
      <trkpt lat="45.33981" lon="5.80779">
        <ele>802</ele>
        <time>2018-01-22T18:47:07.000Z</time>
      </trkpt>
      <trkpt lat="45.33981" lon="5.80779">
        <ele>802</ele>
        <time>2018-01-22T18:47:08.000Z</time>
      </trkpt>
      <trkpt lat="45.3393" lon="5.80753">
        <ele>805</ele>
        <time>2018-01-22T18:47:09.000Z</time>
      </trkpt>
      <trkpt lat="45.3393" lon="5.80753">
        <ele>805</ele>
        <time>2018-01-22T18:47:10.000Z</time>
      </trkpt>
      <trkpt lat="45.3393" lon="5.80753">
        <ele>805</ele>
        <time>2018-01-22T18:47:11.000Z</time>
      </trkpt>
      <trkpt lat="45.3393" lon="5.80799">
        <ele>832</ele>
        <time>2018-01-22T18:47:12.000Z</time>
      </trkpt>
      <trkpt lat="45.3393" lon="5.80799">
        <ele>832</ele>
        <time>2018-01-22T18:47:13.000Z</time>
      </trkpt>
      <trkpt lat="45.3393" lon="5.80799">
        <ele>832</ele>
        <time>2018-01-22T18:47:14.000Z</time>
      </trkpt>
      <trkpt lat="45.33953" lon="5.80898">
        <ele>848</ele>
        <time>2018-01-22T18:47:15.000Z</time>
      </trkpt>
      <trkpt lat="45.33953" lon="5.80898">
        <ele>848</ele>
        <time>2018-01-22T18:47:16.000Z</time>
      </trkpt>
      <trkpt lat="45.33953" lon="5.80898">
        <ele>848</ele>
        <time>2018-01-22T18:47:17.000Z</time>
      </trkpt>
      <trkpt lat="45.33922" lon="5.8093">
        <ele>848</ele>
        <time>2018-01-22T18:47:18.000Z</time>
      </trkpt>
      <trkpt lat="45.33922" lon="5.8093">
        <ele>848</ele>
        <time>2018-01-22T18:47:19.000Z</time>
      </trkpt>
      <trkpt lat="45.33922" lon="5.8093">
        <ele>848</ele>
        <time>2018-01-22T18:47:20.000Z</time>
      </trkpt>
      <trkpt lat="45.33918" lon="5.81037">
        <ele>847</ele>
        <time>2018-01-22T18:47:21.000Z</time>
      </trkpt>
      <trkpt lat="45.33918" lon="5.81037">
        <ele>847</ele>
        <time>2018-01-22T18:47:22.000Z</time>
      </trkpt>
      <trkpt lat="45.33918" lon="5.81037">
        <ele>847</ele>
        <time>2018-01-22T18:47:23.000Z</time>
      </trkpt>
      <trkpt lat="45.33951" lon="5.81179">
        <ele>850</ele>
        <time>2018-01-22T18:47:24.000Z</time>
      </trkpt>
      <trkpt lat="45.33951" lon="5.81179">
        <ele>850</ele>
        <time>2018-01-22T18:47:25.000Z</time>
      </trkpt>
      <trkpt lat="45.33951" lon="5.81179">
        <ele>850</ele>
        <time>2018-01-22T18:47:26.000Z</time>
      </trkpt>
      <trkpt lat="45.33942" lon="5.81283">
        <ele>859</ele>
        <time>2018-01-22T18:47:27.000Z</time>
      </trkpt>
      <trkpt lat="45.33942" lon="5.81283">
        <ele>859</ele>
        <time>2018-01-22T18:47:28.000Z</time>
      </trkpt>
      <trkpt lat="45.33942" lon="5.81283">
        <ele>859</ele>
        <time>2018-01-22T18:47:29.000Z</time>
      </trkpt>
      <trkpt lat="45.3397" lon="5.8134">
        <ele>830</ele>
        <time>2018-01-22T18:47:30.000Z</time>
      </trkpt>
      <trkpt lat="45.3397" lon="5.8134">
        <ele>830</ele>
        <time>2018-01-22T18:47:31.000Z</time>
      </trkpt>
      <trkpt lat="45.3397" lon="5.8134">
        <ele>830</ele>
        <time>2018-01-22T18:47:32.000Z</time>
      </trkpt>
      <trkpt lat="45.33967" lon="5.81384">
        <ele>832</ele>
        <time>2018-01-22T18:47:33.000Z</time>
      </trkpt>
      <trkpt lat="45.33967" lon="5.81384">
        <ele>832</ele>
        <time>2018-01-22T18:47:34.000Z</time>
      </trkpt>
      <trkpt lat="45.33967" lon="5.81384">
        <ele>832</ele>
        <time>2018-01-22T18:47:35.000Z</time>
      </trkpt>
      <trkpt lat="45.33937" lon="5.81389">
        <ele>869</ele>
        <time>2018-01-22T18:47:36.000Z</time>
      </trkpt>
      <trkpt lat="45.33937" lon="5.81389">
        <ele>869</ele>
        <time>2018-01-22T18:47:37.000Z</time>
      </trkpt>
      <trkpt lat="45.33937" lon="5.81389">
        <ele>869</ele>
        <time>2018-01-22T18:47:38.000Z</time>
      </trkpt>
      <trkpt lat="45.33924" lon="5.81421">
        <ele>869</ele>
        <time>2018-01-22T18:47:39.000Z</time>
      </trkpt>
      <trkpt lat="45.33924" lon="5.81421">
        <ele>869</ele>
        <time>2018-01-22T18:47:40.000Z</time>
      </trkpt>
      <trkpt lat="45.33924" lon="5.81421">
        <ele>869</ele>
        <time>2018-01-22T18:47:41.000Z</time>
      </trkpt>
      <trkpt lat="45.3397" lon="5.81573">
        <ele>841</ele>
        <time>2018-01-22T18:47:42.000Z</time>
      </trkpt>
      <trkpt lat="45.3397" lon="5.81573">
        <ele>841</ele>
        <time>2018-01-22T18:47:43.000Z</time>
      </trkpt>
      <trkpt lat="45.3397" lon="5.81573">
        <ele>841</ele>
        <time>2018-01-22T18:47:44.000Z</time>
      </trkpt>
      <trkpt lat="45.33957" lon="5.81624">
        <ele>871</ele>
        <time>2018-01-22T18:47:45.000Z</time>
      </trkpt>
      <trkpt lat="45.33957" lon="5.81624">
        <ele>871</ele>
        <time>2018-01-22T18:47:46.000Z</time>
      </trkpt>
      <trkpt lat="45.33957" lon="5.81624">
        <ele>871</ele>
        <time>2018-01-22T18:47:47.000Z</time>
      </trkpt>
      <trkpt lat="45.33964" lon="5.81654">
        <ele>842</ele>
        <time>2018-01-22T18:47:48.000Z</time>
      </trkpt>
      <trkpt lat="45.33964" lon="5.81654">
        <ele>842</ele>
        <time>2018-01-22T18:47:49.000Z</time>
      </trkpt>
      <trkpt lat="45.33964" lon="5.81654">
        <ele>842</ele>
        <time>2018-01-22T18:47:50.000Z</time>
      </trkpt>
      <trkpt lat="45.34001" lon="5.81653">
        <ele>842</ele>
        <time>2018-01-22T18:47:51.000Z</time>
      </trkpt>
      <trkpt lat="45.34001" lon="5.81653">
        <ele>842</ele>
        <time>2018-01-22T18:47:52.000Z</time>
      </trkpt>
      <trkpt lat="45.34001" lon="5.81653">
        <ele>842</ele>
        <time>2018-01-22T18:47:53.000Z</time>
      </trkpt>
      <trkpt lat="45.34019" lon="5.81637">
        <ele>842</ele>
        <time>2018-01-22T18:47:54.000Z</time>
      </trkpt>
      <trkpt lat="45.34019" lon="5.81637">
        <ele>842</ele>
        <time>2018-01-22T18:47:55.000Z</time>
      </trkpt>
      <trkpt lat="45.34019" lon="5.81637">
        <ele>842</ele>
        <time>2018-01-22T18:47:56.000Z</time>
      </trkpt>
      <trkpt lat="45.34053" lon="5.81633">
        <ele>866</ele>
        <time>2018-01-22T18:47:57.000Z</time>
      </trkpt>
      <trkpt lat="45.34053" lon="5.81633">
        <ele>866</ele>
        <time>2018-01-22T18:47:58.000Z</time>
      </trkpt>
      <trkpt lat="45.34053" lon="5.81633">
        <ele>866</ele>
        <time>2018-01-22T18:47:59.000Z</time>
      </trkpt>
      <trkpt lat="45.3405" lon="5.81696">
        <ele>866</ele>
        <time>2018-01-22T18:48:00.000Z</time>
      </trkpt>
      <trkpt lat="45.3405" lon="5.81696">
        <ele>866</ele>
        <time>2018-01-22T18:48:01.000Z</time>
      </trkpt>
      <trkpt lat="45.3405" lon="5.81696">
        <ele>866</ele>
        <time>2018-01-22T18:48:02.000Z</time>
      </trkpt>
      <trkpt lat="45.34083" lon="5.8167">
        <ele>866</ele>
        <time>2018-01-22T18:48:03.000Z</time>
      </trkpt>
      <trkpt lat="45.34083" lon="5.8167">
        <ele>866</ele>
        <time>2018-01-22T18:48:04.000Z</time>
      </trkpt>
      <trkpt lat="45.34083" lon="5.8167">
        <ele>866</ele>
        <time>2018-01-22T18:48:05.000Z</time>
      </trkpt>
      <trkpt lat="45.34118" lon="5.81648">
        <ele>866</ele>
        <time>2018-01-22T18:48:06.000Z</time>
      </trkpt>
      <trkpt lat="45.34118" lon="5.81648">
        <ele>866</ele>
        <time>2018-01-22T18:48:07.000Z</time>
      </trkpt>
      <trkpt lat="45.34118" lon="5.81648">
        <ele>866</ele>
        <time>2018-01-22T18:48:08.000Z</time>
      </trkpt>
      <trkpt lat="45.34133" lon="5.81624">
        <ele>890</ele>
        <time>2018-01-22T18:48:09.000Z</time>
      </trkpt>
      <trkpt lat="45.34133" lon="5.81624">
        <ele>890</ele>
        <time>2018-01-22T18:48:10.000Z</time>
      </trkpt>
      <trkpt lat="45.34133" lon="5.81624">
        <ele>890</ele>
        <time>2018-01-22T18:48:11.000Z</time>
      </trkpt>
      <trkpt lat="45.34132" lon="5.81589">
        <ele>890</ele>
        <time>2018-01-22T18:48:12.000Z</time>
      </trkpt>
      <trkpt lat="45.34132" lon="5.81589">
        <ele>890</ele>
        <time>2018-01-22T18:48:13.000Z</time>
      </trkpt>
      <trkpt lat="45.34132" lon="5.81589">
        <ele>890</ele>
        <time>2018-01-22T18:48:14.000Z</time>
      </trkpt>
      <trkpt lat="45.34138" lon="5.81595">
        <ele>890</ele>
        <time>2018-01-22T18:48:15.000Z</time>
      </trkpt>
      <trkpt lat="45.34138" lon="5.81595">
        <ele>890</ele>
        <time>2018-01-22T18:48:16.000Z</time>
      </trkpt>
      <trkpt lat="45.34138" lon="5.81595">
        <ele>890</ele>
        <time>2018-01-22T18:48:17.000Z</time>
      </trkpt>
      <trkpt lat="45.34139" lon="5.81616">
        <ele>890</ele>
        <time>2018-01-22T18:48:18.000Z</time>
      </trkpt>
      <trkpt lat="45.34139" lon="5.81616">
        <ele>890</ele>
        <time>2018-01-22T18:48:19.000Z</time>
      </trkpt>
      <trkpt lat="45.34159" lon="5.81623">
        <ele>890</ele>
        <time>2018-01-22T18:48:20.000Z</time>
      </trkpt>
      <trkpt lat="45.34159" lon="5.81623">
        <ele>890</ele>
        <time>2018-01-22T18:48:21.000Z</time>
      </trkpt>
      <trkpt lat="45.34135" lon="5.81707">
        <ele>890</ele>
        <time>2018-01-22T18:48:22.000Z</time>
      </trkpt>
    </trkseg>
  </trk>
</gpx>